PWSweather.com
Personal Weather Stations
Station Observations
PIMOH
Bernadette, CaloocanPH 1405

BernadetteCaloocanPH 1405

Lat: 14.649438, Lon: 120.977906

Elevation: 13

Station Type: WH2950

http://www.pimohweather.com

Latest ConditionsUpdated 4:21:00 PM GMT+08:08 Thursday, Dec 12, 2019
Currently Today's Max Today's Min Today's Average
Temperature 85.5°F29.7°C 86.9°F30.5°C 77.5°F25.3°C 81.3°F27.4°C
Dew Point 74.1°F23.4°C 75.9°F24.4°C 72.1°F22.3°C 73.8°F23.2°C
Winds 6.5 mph N10.5 kmh N 12.7 mph -20.4 kmh - - 3.9 mph 6.3 kmh
Wind Gusts 12.5 mph20.1 kmh 22.6 mph36.4 kmh - -
Humidity 69% 88% 63% 78%
Pressure 29.85 in1010.8 mb 29.92 in1013.2 mb 29.83 in1010.2 mb -
Hour Temp Dew Point Humidity Winds Wind Gusts Pressure Precip Precip Rate Daily Precip Total
04:21 PM 85.5°F29.7°C 74.1°F23.4°C 69% 6.5 mph N10.5 kmh N 12.5 mph20.1 kmh 29.85 in1010.8 mb 0.00 in0.0 mm 0.00 in0.0 mm 0.00 in0.0 mm
04:20 PM 85.5°F29.7°C 74.1°F23.4°C 69% 7.3 mph N11.7 kmh N 12.5 mph20.1 kmh 29.85 in1010.8 mb 0.00 in0.0 mm 0.00 in0.0 mm 0.00 in0.0 mm
04:19 PM 85.5°F29.7°C 74.1°F23.4°C 69% 4.4 mph NNE7.1 kmh NNE 7.6 mph12.2 kmh 29.85 in1010.8 mb 0.00 in0.0 mm 0.00 in0.0 mm 0.00 in0.0 mm
04:18 PM 85.5°F29.7°C 74.1°F23.4°C 69% 3.0 mph NNE4.8 kmh NNE 7.6 mph12.2 kmh 29.84 in1010.5 mb 0.00 in0.0 mm 0.00 in0.0 mm 0.00 in0.0 mm
04:17 PM 85.6°F29.8°C 74.3°F23.5°C 69% 7.2 mph NE11.6 kmh NE 12.5 mph20.1 kmh 29.85 in1010.8 mb 0.00 in0.0 mm 0.00 in0.0 mm 0.00 in0.0 mm
04:16 PM 85.6°F29.8°C 74.3°F23.5°C 69% 7.8 mph NW12.6 kmh NW 10.1 mph16.3 kmh 29.85 in1010.8 mb 0.00 in0.0 mm 0.00 in0.0 mm 0.00 in0.0 mm
04:15 PM 85.6°F29.8°C 74.3°F23.5°C 69% 9.3 mph N15.0 kmh N 15.0 mph24.1 kmh 29.85 in1010.8 mb 0.00 in0.0 mm 0.00 in0.0 mm 0.00 in0.0 mm
04:14 PM 85.8°F29.9°C 74.5°F23.6°C 69% 8.4 mph N13.5 kmh N 15.0 mph24.1 kmh 29.84 in1010.5 mb 0.00 in0.0 mm 0.00 in0.0 mm 0.00 in0.0 mm
04:13 PM 85.8°F29.9°C 74.5°F23.6°C 69% 7.5 mph N12.1 kmh N 10.1 mph16.3 kmh 29.85 in1010.8 mb 0.00 in0.0 mm 0.00 in0.0 mm 0.00 in0.0 mm
04:12 PM 85.8°F29.9°C 74.5°F23.6°C 69% 9.6 mph N15.4 kmh N 17.4 mph28.0 kmh 29.85 in1010.8 mb 0.00 in0.0 mm 0.00 in0.0 mm 0.00 in0.0 mm
04:11 PM 85.8°F29.9°C 74.5°F23.6°C 69% 9.5 mph N15.3 kmh N 15.0 mph24.1 kmh 29.84 in1010.5 mb 0.00 in0.0 mm 0.00 in0.0 mm 0.00 in0.0 mm
04:10 PM 85.8°F29.9°C 74.5°F23.6°C 69% 6.2 mph NNE10.0 kmh NNE 12.5 mph20.1 kmh 29.85 in1010.8 mb 0.00 in0.0 mm 0.00 in0.0 mm 0.00 in0.0 mm
04:09 PM 86.0°F30.0°C 74.7°F23.7°C 69% 7.4 mph NNE11.9 kmh NNE 15.0 mph24.1 kmh 29.84 in1010.5 mb 0.00 in0.0 mm 0.00 in0.0 mm 0.00 in0.0 mm
04:08 PM 86.0°F30.0°C 74.7°F23.7°C 69% 6.5 mph N10.5 kmh N 10.1 mph16.3 kmh 29.84 in1010.5 mb 0.00 in0.0 mm 0.00 in0.0 mm 0.00 in0.0 mm
04:07 PM 86.0°F30.0°C 74.5°F23.6°C 68% 12.5 mph N20.1 kmh N 17.4 mph28.0 kmh 29.84 in1010.5 mb 0.00 in0.0 mm 0.00 in0.0 mm 0.00 in0.0 mm
04:06 PM 86.0°F30.0°C 74.3°F23.5°C 68% 8.6 mph NNE13.8 kmh NNE 12.5 mph20.1 kmh 29.84 in1010.5 mb 0.00 in0.0 mm 0.00 in0.0 mm 0.00 in0.0 mm
04:05 PM 86.2°F30.1°C 74.5°F23.6°C 68% 9.6 mph N15.4 kmh N 17.4 mph28.0 kmh 29.84 in1010.5 mb 0.00 in0.0 mm 0.00 in0.0 mm 0.00 in0.0 mm
04:04 PM 86.2°F30.1°C 74.5°F23.6°C 68% 7.7 mph N12.4 kmh N 12.5 mph20.1 kmh 29.84 in1010.5 mb 0.00 in0.0 mm 0.00 in0.0 mm 0.00 in0.0 mm
04:03 PM 86.2°F30.1°C 74.5°F23.6°C 68% 7.3 mph N11.7 kmh N 15.0 mph24.1 kmh 29.84 in1010.5 mb 0.00 in0.0 mm 0.00 in0.0 mm 0.00 in0.0 mm
04:02 PM 86.2°F30.1°C 74.5°F23.6°C 68% 8.3 mph N13.4 kmh N 15.0 mph24.1 kmh 29.84 in1010.5 mb 0.00 in0.0 mm 0.00 in0.0 mm 0.00 in0.0 mm
04:01 PM 86.2°F30.1°C 74.5°F23.6°C 68% 7.4 mph N11.9 kmh N 10.1 mph16.3 kmh 29.84 in1010.5 mb 0.00 in0.0 mm 0.00 in0.0 mm 0.00 in0.0 mm
04:00 PM 86.4°F30.2°C 74.7°F23.7°C 68% 10.0 mph NNE16.1 kmh NNE 15.0 mph24.1 kmh 29.84 in1010.5 mb 0.00 in0.0 mm 0.00 in0.0 mm 0.00 in0.0 mm
03:59 PM 86.4°F30.2°C 74.7°F23.7°C 68% 7.6 mph N12.2 kmh N 12.5 mph20.1 kmh 29.84 in1010.5 mb 0.00 in0.0 mm 0.00 in0.0 mm 0.00 in0.0 mm
03:58 PM 86.4°F30.2°C 74.7°F23.7°C 68% 6.7 mph N10.8 kmh N 10.1 mph16.3 kmh 29.84 in1010.5 mb 0.00 in0.0 mm 0.00 in0.0 mm 0.00 in0.0 mm
03:57 PM 86.4°F30.2°C 75.0°F23.9°C 69% 6.7 mph N10.8 kmh N 10.1 mph16.3 kmh 29.84 in1010.5 mb 0.00 in0.0 mm 0.00 in0.0 mm 0.00 in0.0 mm
03:56 PM 86.5°F30.3°C 75.2°F24.0°C 69% 8.7 mph N14.0 kmh N 12.5 mph20.1 kmh 29.84 in1010.5 mb 0.00 in0.0 mm 0.00 in0.0 mm 0.00 in0.0 mm
03:55 PM 86.5°F30.3°C 75.2°F24.0°C 69% 9.2 mph N14.8 kmh N 15.0 mph24.1 kmh 29.84 in1010.5 mb 0.00 in0.0 mm 0.00 in0.0 mm 0.00 in0.0 mm
03:54 PM 86.7°F30.4°C 75.2°F24.0°C 68% 12.4 mph N20.0 kmh N 17.4 mph28.0 kmh 29.84 in1010.5 mb 0.00 in0.0 mm 0.00 in0.0 mm 0.00 in0.0 mm
03:53 PM 86.7°F30.4°C 74.9°F23.8°C 68% 11.7 mph N18.8 kmh N 17.4 mph28.0 kmh 29.84 in1010.5 mb 0.00 in0.0 mm 0.00 in0.0 mm 0.00 in0.0 mm
03:52 PM 86.7°F30.4°C 74.7°F23.7°C 67% 7.1 mph N11.4 kmh N 12.5 mph20.1 kmh 29.84 in1010.5 mb 0.00 in0.0 mm 0.00 in0.0 mm 0.00 in0.0 mm
03:51 PM 86.9°F30.5°C 74.5°F23.6°C 67% 5.5 mph N8.9 kmh N 10.1 mph16.3 kmh 29.84 in1010.5 mb 0.00 in0.0 mm 0.00 in0.0 mm 0.00 in0.0 mm
03:50 PM 86.9°F30.5°C 74.3°F23.5°C 66% 5.7 mph N9.2 kmh N 7.6 mph12.2 kmh 29.84 in1010.5 mb 0.00 in0.0 mm 0.00 in0.0 mm 0.00 in0.0 mm
03:49 PM 86.9°F30.5°C 74.3°F23.5°C 66% 6.8 mph N10.9 kmh N 10.1 mph16.3 kmh 29.84 in1010.5 mb 0.00 in0.0 mm 0.00 in0.0 mm 0.00 in0.0 mm
03:48 PM 86.9°F30.5°C 74.3°F23.5°C 66% 5.5 mph NE8.9 kmh NE 7.6 mph12.2 kmh 29.84 in1010.5 mb 0.00 in0.0 mm 0.00 in0.0 mm 0.00 in0.0 mm
03:47 PM 86.9°F30.5°C 74.1°F23.4°C 66% 7.8 mph NNE12.6 kmh NNE 12.5 mph20.1 kmh 29.84 in1010.5 mb 0.00 in0.0 mm 0.00 in0.0 mm 0.00 in0.0 mm
03:46 PM 86.9°F30.5°C 73.8°F23.2°C 65% 3.5 mph NE5.6 kmh NE 4.9 mph7.9 kmh 29.84 in1010.5 mb 0.00 in0.0 mm 0.00 in0.0 mm 0.00 in0.0 mm
03:45 PM 86.9°F30.5°C 73.8°F23.2°C 65% 7.0 mph NNE11.3 kmh NNE 12.5 mph20.1 kmh 29.84 in1010.5 mb 0.00 in0.0 mm 0.00 in0.0 mm 0.00 in0.0 mm
03:44 PM 86.9°F30.5°C 74.0°F23.3°C 65% 5.1 mph NE8.2 kmh NE 7.6 mph12.2 kmh 29.83 in1010.2 mb 0.00 in0.0 mm 0.00 in0.0 mm 0.00 in0.0 mm
03:43 PM 86.9°F30.5°C 74.3°F23.5°C 66% 6.4 mph NNE10.3 kmh NNE 10.1 mph16.3 kmh 29.83 in1010.2 mb 0.00 in0.0 mm 0.00 in0.0 mm 0.00 in0.0 mm
03:42 PM 86.9°F30.5°C 74.3°F23.5°C 66% 3.8 mph NNE6.1 kmh NNE 7.6 mph12.2 kmh 29.84 in1010.5 mb 0.00 in0.0 mm 0.00 in0.0 mm 0.00 in0.0 mm
03:41 PM 86.9°F30.5°C 74.6°F23.7°C 67% 3.8 mph NNE6.1 kmh NNE 4.9 mph7.9 kmh 29.84 in1010.5 mb 0.00 in0.0 mm 0.00 in0.0 mm 0.00 in0.0 mm
03:40 PM 86.9°F30.5°C 74.5°F23.6°C 67% 6.3 mph NNE10.1 kmh NNE 10.1 mph16.3 kmh 29.83 in1010.2 mb 0.00 in0.0 mm 0.00 in0.0 mm 0.00 in0.0 mm
03:39 PM 86.9°F30.5°C 74.2°F23.4°C 66% 7.4 mph NNE11.9 kmh NNE 12.5 mph20.1 kmh 29.84 in1010.5 mb 0.00 in0.0 mm 0.00 in0.0 mm 0.00 in0.0 mm
03:38 PM 86.9°F30.5°C 73.8°F23.2°C 65% 7.8 mph NE12.6 kmh NE 10.1 mph16.3 kmh 29.84 in1010.5 mb 0.00 in0.0 mm 0.00 in0.0 mm 0.00 in0.0 mm
03:37 PM 86.9°F30.5°C 73.8°F23.2°C 65% 7.1 mph N11.4 kmh N 12.5 mph20.1 kmh 29.84 in1010.5 mb 0.00 in0.0 mm 0.00 in0.0 mm 0.00 in0.0 mm
03:36 PM 86.9°F30.5°C 73.8°F23.2°C 65% 5.4 mph NNE8.7 kmh NNE 12.5 mph20.1 kmh 29.84 in1010.5 mb 0.00 in0.0 mm 0.00 in0.0 mm 0.00 in0.0 mm
03:35 PM 86.9°F30.5°C 73.8°F23.2°C 65% 5.7 mph N9.2 kmh N 10.1 mph16.3 kmh 29.84 in1010.5 mb 0.00 in0.0 mm 0.00 in0.0 mm 0.00 in0.0 mm
03:34 PM 86.9°F30.5°C 73.8°F23.2°C 65% 6.4 mph N10.3 kmh N 10.1 mph16.3 kmh 29.83 in1010.2 mb 0.00 in0.0 mm 0.00 in0.0 mm 0.00 in0.0 mm
03:33 PM 86.8°F30.4°C 74.1°F23.4°C 66% 4.7 mph NNE7.6 kmh NNE 7.6 mph12.2 kmh 29.84 in1010.5 mb 0.00 in0.0 mm 0.00 in0.0 mm 0.00 in0.0 mm
03:32 PM 86.7°F30.4°C 73.8°F23.2°C 65% 7.1 mph N11.4 kmh N 12.5 mph20.1 kmh 29.84 in1010.5 mb 0.00 in0.0 mm 0.00 in0.0 mm 0.00 in0.0 mm
03:31 PM 86.7°F30.4°C 73.4°F23.0°C 64% 8.0 mph NNE12.9 kmh NNE 10.1 mph16.3 kmh 29.84 in1010.5 mb 0.00 in0.0 mm 0.00 in0.0 mm 0.00 in0.0 mm
03:30 PM 86.7°F30.4°C 73.3°F22.9°C 64% 5.3 mph NNE8.5 kmh NNE 10.1 mph16.3 kmh 29.84 in1010.5 mb 0.00 in0.0 mm 0.00 in0.0 mm 0.00 in0.0 mm
03:29 PM 86.7°F30.4°C 73.6°F23.1°C 65% 6.1 mph NE9.8 kmh NE 12.5 mph20.1 kmh 29.84 in1010.5 mb 0.00 in0.0 mm 0.00 in0.0 mm 0.00 in0.0 mm
03:28 PM 86.7°F30.4°C 73.6°F23.1°C 65% 9.1 mph NNE14.6 kmh NNE 22.6 mph36.4 kmh 29.83 in1010.2 mb 0.00 in0.0 mm 0.00 in0.0 mm 0.00 in0.0 mm
03:27 PM 86.7°F30.4°C 73.4°F23.0°C 65% 11.5 mph N18.5 kmh N 17.4 mph28.0 kmh 29.84 in1010.5 mb 0.00 in0.0 mm 0.00 in0.0 mm 0.00 in0.0 mm
03:26 PM 86.7°F30.4°C 73.0°F22.8°C 64% 5.5 mph NE8.9 kmh NE 10.1 mph16.3 kmh 29.83 in1010.2 mb 0.00 in0.0 mm 0.00 in0.0 mm 0.00 in0.0 mm
03:25 PM 86.7°F30.4°C 73.2°F22.9°C 64% 2.1 mph NE3.4 kmh NE 4.9 mph7.9 kmh 29.83 in1010.2 mb 0.00 in0.0 mm 0.00 in0.0 mm 0.00 in0.0 mm
03:24 PM 86.6°F30.3°C 73.1°F22.8°C 64% 2.8 mph NNE4.5 kmh NNE 4.9 mph7.9 kmh 29.83 in1010.2 mb 0.00 in0.0 mm 0.00 in0.0 mm 0.00 in0.0 mm
03:23 PM 86.5°F30.3°C 73.0°F22.8°C 64% 3.3 mph N5.3 kmh N 4.9 mph7.9 kmh 29.83 in1010.2 mb 0.00 in0.0 mm 0.00 in0.0 mm 0.00 in0.0 mm
03:22 PM 86.5°F30.3°C 73.0°F22.8°C 64% 7.5 mph NNE12.1 kmh NNE 10.1 mph16.3 kmh 29.83 in1010.2 mb 0.00 in0.0 mm 0.00 in0.0 mm 0.00 in0.0 mm
03:21 PM 86.5°F30.3°C 73.0°F22.8°C 64% 7.3 mph N11.7 kmh N 10.1 mph16.3 kmh 29.83 in1010.2 mb 0.00 in0.0 mm 0.00 in0.0 mm 0.00 in0.0 mm
03:20 PM 86.5°F30.3°C 72.9°F22.7°C 64% 7.1 mph NNE11.4 kmh NNE 10.1 mph16.3 kmh 29.84 in1010.5 mb 0.00 in0.0 mm 0.00 in0.0 mm 0.00 in0.0 mm
03:19 PM 86.5°F30.3°C 72.5°F22.5°C 63% 8.5 mph N13.7 kmh N 12.5 mph20.1 kmh 29.83 in1010.2 mb 0.00 in0.0 mm 0.00 in0.0 mm 0.00 in0.0 mm
03:18 PM 86.5°F30.3°C 72.5°F22.5°C 63% 6.5 mph N10.5 kmh N 10.1 mph16.3 kmh 29.83 in1010.2 mb 0.00 in0.0 mm 0.00 in0.0 mm 0.00 in0.0 mm
03:17 PM 86.5°F30.3°C 73.0°F22.8°C 64% 2.5 mph N4.0 kmh N 7.6 mph12.2 kmh 29.84 in1010.5 mb 0.00 in0.0 mm 0.00 in0.0 mm 0.00 in0.0 mm
03:16 PM 86.5°F30.3°C 73.1°F22.8°C 64% 3.6 mph NE5.8 kmh NE 7.6 mph12.2 kmh 29.83 in1010.2 mb 0.00 in0.0 mm 0.00 in0.0 mm 0.00 in0.0 mm
03:15 PM 86.5°F30.3°C 73.4°F23.0°C 65% 3.7 mph N6.0 kmh N 10.1 mph16.3 kmh 29.83 in1010.2 mb 0.00 in0.0 mm 0.00 in0.0 mm 0.00 in0.0 mm
03:14 PM 86.5°F30.3°C 73.4°F23.0°C 65% 7.6 mph N12.2 kmh N 12.5 mph20.1 kmh 29.83 in1010.2 mb 0.00 in0.0 mm 0.00 in0.0 mm 0.00 in0.0 mm
03:13 PM 86.5°F30.3°C 73.3°F22.9°C 65% 7.5 mph NNE12.1 kmh NNE 15.0 mph24.1 kmh 29.83 in1010.2 mb 0.00 in0.0 mm 0.00 in0.0 mm 0.00 in0.0 mm
03:12 PM 86.5°F30.3°C 73.6°F23.1°C 65% 3.9 mph NE6.3 kmh NE 10.1 mph16.3 kmh 29.83 in1010.2 mb 0.00 in0.0 mm 0.00 in0.0 mm 0.00 in0.0 mm
03:11 PM 86.5°F30.3°C 73.9°F23.3°C 66% 6.2 mph NNE10.0 kmh NNE 12.5 mph20.1 kmh 29.84 in1010.5 mb 0.00 in0.0 mm 0.00 in0.0 mm 0.00 in0.0 mm
03:10 PM 86.6°F30.3°C 74.0°F23.3°C 66% 8.2 mph NNE13.2 kmh NNE 12.5 mph20.1 kmh 29.83 in1010.2 mb 0.00 in0.0 mm 0.00 in0.0 mm 0.00 in0.0 mm
03:09 PM 86.7°F30.4°C 73.8°F23.2°C 65% 10.8 mph N17.4 kmh N 17.4 mph28.0 kmh 29.83 in1010.2 mb 0.00 in0.0 mm 0.00 in0.0 mm 0.00 in0.0 mm
03:08 PM 86.7°F30.4°C 73.7°F23.2°C 65% 8.4 mph N13.5 kmh N 12.5 mph20.1 kmh 29.83 in1010.2 mb 0.00 in0.0 mm 0.00 in0.0 mm 0.00 in0.0 mm
03:07 PM 86.7°F30.4°C 73.9°F23.3°C 66% 6.8 mph N10.9 kmh N 10.1 mph16.3 kmh 29.83 in1010.2 mb 0.00 in0.0 mm 0.00 in0.0 mm 0.00 in0.0 mm
03:06 PM 86.6°F30.3°C 74.0°F23.3°C 66% 5.1 mph NE8.2 kmh NE 10.1 mph16.3 kmh 29.84 in1010.5 mb 0.00 in0.0 mm 0.00 in0.0 mm 0.00 in0.0 mm
03:05 PM 86.7°F30.4°C 74.1°F23.4°C 66% 6.5 mph N10.5 kmh N 10.1 mph16.3 kmh 29.84 in1010.5 mb 0.00 in0.0 mm 0.00 in0.0 mm 0.00 in0.0 mm
03:04 PM 86.7°F30.4°C 74.1°F23.4°C 66% 6.2 mph N10.0 kmh N 10.1 mph16.3 kmh 29.84 in1010.5 mb 0.00 in0.0 mm 0.00 in0.0 mm 0.00 in0.0 mm
03:03 PM 86.7°F30.4°C 73.9°F23.3°C 66% 8.2 mph NNE13.2 kmh NNE 12.5 mph20.1 kmh 29.83 in1010.2 mb 0.00 in0.0 mm 0.00 in0.0 mm 0.00 in0.0 mm
03:02 PM 86.7°F30.4°C 73.6°F23.1°C 65% 8.6 mph N13.8 kmh N 15.0 mph24.1 kmh 29.83 in1010.2 mb 0.00 in0.0 mm 0.00 in0.0 mm 0.00 in0.0 mm
03:01 PM 86.7°F30.4°C 73.5°F23.1°C 65% 6.6 mph NE10.6 kmh NE 10.1 mph16.3 kmh 29.84 in1010.5 mb 0.00 in0.0 mm 0.00 in0.0 mm 0.00 in0.0 mm
03:00 PM 86.7°F30.4°C 73.6°F23.1°C 65% 6.7 mph NE10.8 kmh NE 12.5 mph20.1 kmh 29.83 in1010.2 mb 0.00 in0.0 mm 0.00 in0.0 mm 0.00 in0.0 mm
02:59 PM 86.5°F30.3°C 73.5°F23.1°C 65% 8.1 mph NNE13.0 kmh NNE 12.5 mph20.1 kmh 29.83 in1010.2 mb 0.00 in0.0 mm 0.00 in0.0 mm 0.00 in0.0 mm
02:58 PM 86.5°F30.3°C 73.9°F23.3°C 66% 8.8 mph N14.2 kmh N 12.5 mph20.1 kmh 29.84 in1010.5 mb 0.00 in0.0 mm 0.00 in0.0 mm 0.00 in0.0 mm
02:57 PM 86.5°F30.3°C 73.9°F23.3°C 66% 10.2 mph NNE16.4 kmh NNE 17.4 mph28.0 kmh 29.84 in1010.5 mb 0.00 in0.0 mm 0.00 in0.0 mm 0.00 in0.0 mm
02:56 PM 86.5°F30.3°C 74.0°F23.3°C 66% 8.9 mph NNE14.3 kmh NNE 12.5 mph20.1 kmh 29.83 in1010.2 mb 0.00 in0.0 mm 0.00 in0.0 mm 0.00 in0.0 mm
02:55 PM 86.5°F30.3°C 74.3°F23.5°C 67% 6.3 mph NNW10.1 kmh NNW 7.6 mph12.2 kmh 29.83 in1010.2 mb 0.00 in0.0 mm 0.00 in0.0 mm 0.00 in0.0 mm
02:54 PM 86.4°F30.2°C 74.1°F23.4°C 67% 4.9 mph N7.9 kmh N 7.6 mph12.2 kmh 29.83 in1010.2 mb 0.00 in0.0 mm 0.00 in0.0 mm 0.00 in0.0 mm
02:53 PM 86.4°F30.2°C 74.3°F23.5°C 67% 5.9 mph N9.5 kmh N 10.1 mph16.3 kmh 29.84 in1010.5 mb 0.00 in0.0 mm 0.00 in0.0 mm 0.00 in0.0 mm
02:52 PM 86.4°F30.2°C 74.1°F23.4°C 67% 6.7 mph N10.8 kmh N 12.5 mph20.1 kmh 29.83 in1010.2 mb 0.00 in0.0 mm 0.00 in0.0 mm 0.00 in0.0 mm
02:51 PM 86.4°F30.2°C 74.3°F23.5°C 67% 5.9 mph N9.5 kmh N 10.1 mph16.3 kmh 29.84 in1010.5 mb 0.00 in0.0 mm 0.00 in0.0 mm 0.00 in0.0 mm
02:50 PM 86.4°F30.2°C 74.1°F23.4°C 67% 8.1 mph N13.0 kmh N 10.1 mph16.3 kmh 29.84 in1010.5 mb 0.00 in0.0 mm 0.00 in0.0 mm 0.00 in0.0 mm
02:49 PM 86.2°F30.1°C 73.7°F23.2°C 66% 10.2 mph N16.4 kmh N 15.0 mph24.1 kmh 29.84 in1010.5 mb 0.00 in0.0 mm 0.00 in0.0 mm 0.00 in0.0 mm
02:48 PM 86.2°F30.1°C 73.9°F23.3°C 67% 2.4 mph NE3.9 kmh NE 4.9 mph7.9 kmh 29.84 in1010.5 mb 0.00 in0.0 mm 0.00 in0.0 mm 0.00 in0.0 mm
02:47 PM 86.1°F30.1°C 73.5°F23.1°C 66% 9.7 mph N15.6 kmh N 15.0 mph24.1 kmh 29.84 in1010.5 mb 0.00 in0.0 mm 0.00 in0.0 mm 0.00 in0.0 mm
02:46 PM 86.0°F30.0°C 73.8°F23.2°C 67% 9.2 mph N14.8 kmh N 12.5 mph20.1 kmh 29.83 in1010.2 mb 0.00 in0.0 mm 0.00 in0.0 mm 0.00 in0.0 mm
02:45 PM 85.9°F29.9°C 73.6°F23.1°C 67% 4.3 mph NE6.9 kmh NE 7.6 mph12.2 kmh 29.84 in1010.5 mb 0.00 in0.0 mm 0.00 in0.0 mm 0.00 in0.0 mm
02:44 PM 85.8°F29.9°C 73.1°F22.8°C 66% 7.4 mph NNE11.9 kmh NNE 10.1 mph16.3 kmh 29.84 in1010.5 mb 0.00 in0.0 mm 0.00 in0.0 mm 0.00 in0.0 mm
02:43 PM 85.7°F29.8°C 73.1°F22.8°C 66% 0.8 mph SSW1.3 kmh SSW 2.5 mph4.0 kmh 29.84 in1010.5 mb 0.00 in0.0 mm 0.00 in0.0 mm 0.00 in0.0 mm
02:42 PM 85.6°F29.8°C 73.0°F22.8°C 66% 4.7 mph N7.6 kmh N 7.6 mph12.2 kmh 29.84 in1010.5 mb 0.00 in0.0 mm 0.00 in0.0 mm 0.00 in0.0 mm
02:41 PM 85.5°F29.7°C 72.9°F22.7°C 66% 2.5 mph NNW4.0 kmh NNW 4.9 mph7.9 kmh 29.84 in1010.5 mb 0.00 in0.0 mm 0.00 in0.0 mm 0.00 in0.0 mm
02:40 PM 85.5°F29.7°C 73.1°F22.8°C 67% 3.6 mph NNW5.8 kmh NNW 4.9 mph7.9 kmh 29.84 in1010.5 mb 0.00 in0.0 mm 0.00 in0.0 mm 0.00 in0.0 mm
02:39 PM 85.4°F29.7°C 73.4°F23.0°C 67% 3.2 mph E5.1 kmh E 4.9 mph7.9 kmh 29.84 in1010.5 mb 0.00 in0.0 mm 0.00 in0.0 mm 0.00 in0.0 mm
02:38 PM 85.3°F29.6°C 73.2°F22.9°C 67% 5.4 mph NE8.7 kmh NE 7.6 mph12.2 kmh 29.84 in1010.5 mb 0.00 in0.0 mm 0.00 in0.0 mm 0.00 in0.0 mm
02:37 PM 85.3°F29.6°C 73.4°F23.0°C 67% 7.1 mph NNE11.4 kmh NNE 12.5 mph20.1 kmh 29.84 in1010.5 mb 0.00 in0.0 mm 0.00 in0.0 mm 0.00 in0.0 mm
02:36 PM 85.3°F29.6°C 73.4°F23.0°C 67% 9.0 mph NNE14.5 kmh NNE 10.1 mph16.3 kmh 29.84 in1010.5 mb 0.00 in0.0 mm 0.00 in0.0 mm 0.00 in0.0 mm
02:35 PM 85.2°F29.6°C 73.1°F22.8°C 67% 6.9 mph N11.1 kmh N 10.1 mph16.3 kmh 29.84 in1010.5 mb 0.00 in0.0 mm 0.00 in0.0 mm 0.00 in0.0 mm
02:34 PM 85.1°F29.5°C 73.2°F22.9°C 68% 4.3 mph NE6.9 kmh NE 7.6 mph12.2 kmh 29.84 in1010.5 mb 0.00 in0.0 mm 0.00 in0.0 mm 0.00 in0.0 mm
02:33 PM 85.1°F29.5°C 73.4°F23.0°C 68% 6.9 mph N11.1 kmh N 10.1 mph16.3 kmh 29.84 in1010.5 mb 0.00 in0.0 mm 0.00 in0.0 mm 0.00 in0.0 mm
02:32 PM 85.1°F29.5°C 73.4°F23.0°C 68% 7.2 mph N11.6 kmh N 12.5 mph20.1 kmh 29.84 in1010.5 mb 0.00 in0.0 mm 0.00 in0.0 mm 0.00 in0.0 mm
02:31 PM 85.0°F29.4°C 73.3°F22.9°C 68% 5.6 mph NNW9.0 kmh NNW 10.1 mph16.3 kmh 29.84 in1010.5 mb 0.00 in0.0 mm 0.00 in0.0 mm 0.00 in0.0 mm
02:30 PM 84.9°F29.4°C 73.2°F22.9°C 68% 6.5 mph N10.5 kmh N 10.1 mph16.3 kmh 29.84 in1010.5 mb 0.00 in0.0 mm 0.00 in0.0 mm 0.00 in0.0 mm
02:29 PM 84.9°F29.4°C 73.2°F22.9°C 68% 6.8 mph N10.9 kmh N 12.5 mph20.1 kmh 29.84 in1010.5 mb 0.00 in0.0 mm 0.00 in0.0 mm 0.00 in0.0 mm
02:28 PM 84.9°F29.4°C 73.2°F22.9°C 68% 6.8 mph N10.9 kmh N 10.1 mph16.3 kmh 29.84 in1010.5 mb 0.00 in0.0 mm 0.00 in0.0 mm 0.00 in0.0 mm
02:27 PM 84.9°F29.4°C 73.2°F22.9°C 68% 10.0 mph NNE16.1 kmh NNE 15.0 mph24.1 kmh 29.84 in1010.5 mb 0.00 in0.0 mm 0.00 in0.0 mm 0.00 in0.0 mm
02:26 PM 84.9°F29.4°C 73.1°F22.8°C 68% 9.7 mph NE15.6 kmh NE 15.0 mph24.1 kmh 29.84 in1010.5 mb 0.00 in0.0 mm 0.00 in0.0 mm 0.00 in0.0 mm
02:25 PM 84.7°F29.3°C 73.1°F22.8°C 68% 6.8 mph NE10.9 kmh NE 10.1 mph16.3 kmh 29.84 in1010.5 mb 0.00 in0.0 mm 0.00 in0.0 mm 0.00 in0.0 mm
02:24 PM 84.7°F29.3°C 73.0°F22.8°C 68% 7.2 mph N11.6 kmh N 12.5 mph20.1 kmh 29.84 in1010.5 mb 0.00 in0.0 mm 0.00 in0.0 mm 0.00 in0.0 mm
02:23 PM 84.7°F29.3°C 73.5°F23.1°C 69% 2.6 mph N4.2 kmh N 10.1 mph16.3 kmh 29.84 in1010.5 mb 0.00 in0.0 mm 0.00 in0.0 mm 0.00 in0.0 mm
02:22 PM 84.7°F29.3°C 73.6°F23.1°C 69% 6.2 mph N10.0 kmh N 12.5 mph20.1 kmh 29.84 in1010.5 mb 0.00 in0.0 mm 0.00 in0.0 mm 0.00 in0.0 mm
02:21 PM 84.6°F29.2°C 73.7°F23.2°C 70% 6.6 mph NNE10.6 kmh NNE 15.0 mph24.1 kmh 29.85 in1010.8 mb 0.00 in0.0 mm 0.00 in0.0 mm 0.00 in0.0 mm
02:20 PM 84.6°F29.2°C 73.8°F23.2°C 70% 10.4 mph NNE16.7 kmh NNE 20.1 mph32.3 kmh 29.85 in1010.8 mb 0.00 in0.0 mm 0.00 in0.0 mm 0.00 in0.0 mm
02:19 PM 84.6°F29.2°C 74.1°F23.4°C 71% 11.5 mph NNE18.5 kmh NNE 17.4 mph28.0 kmh 29.85 in1010.8 mb 0.00 in0.0 mm 0.00 in0.0 mm 0.00 in0.0 mm
02:18 PM 84.6°F29.2°C 74.1°F23.4°C 71% 12.7 mph N20.4 kmh N 17.4 mph28.0 kmh 29.84 in1010.5 mb 0.00 in0.0 mm 0.00 in0.0 mm 0.00 in0.0 mm
02:17 PM 84.6°F29.2°C 74.1°F23.4°C 71% 8.2 mph N13.2 kmh N 12.5 mph20.1 kmh 29.85 in1010.8 mb 0.00 in0.0 mm 0.00 in0.0 mm 0.00 in0.0 mm
02:16 PM 84.6°F29.2°C 74.1°F23.4°C 71% 7.2 mph NNE11.6 kmh NNE 12.5 mph20.1 kmh 29.85 in1010.8 mb 0.00 in0.0 mm 0.00 in0.0 mm 0.00 in0.0 mm
02:15 PM 84.6°F29.2°C 74.1°F23.4°C 71% 6.2 mph NNE10.0 kmh NNE 15.0 mph24.1 kmh 29.84 in1010.5 mb 0.00 in0.0 mm 0.00 in0.0 mm 0.00 in0.0 mm
02:14 PM 84.6°F29.2°C 74.1°F23.4°C 71% 6.6 mph NNE10.6 kmh NNE 12.5 mph20.1 kmh 29.85 in1010.8 mb 0.00 in0.0 mm 0.00 in0.0 mm 0.00 in0.0 mm
02:13 PM 84.6°F29.2°C 74.7°F23.7°C 72% 4.7 mph NNE7.6 kmh NNE 10.1 mph16.3 kmh 29.85 in1010.8 mb 0.00 in0.0 mm 0.00 in0.0 mm 0.00 in0.0 mm
02:12 PM 84.6°F29.2°C 74.7°F23.7°C 72% 6.8 mph NNE10.9 kmh NNE 12.5 mph20.1 kmh 29.85 in1010.8 mb 0.00 in0.0 mm 0.00 in0.0 mm 0.00 in0.0 mm
02:11 PM 84.6°F29.2°C 74.5°F23.6°C 72% 10.7 mph N17.2 kmh N 15.0 mph24.1 kmh 29.85 in1010.8 mb 0.00 in0.0 mm 0.00 in0.0 mm 0.00 in0.0 mm
02:10 PM 84.6°F29.2°C 74.5°F23.6°C 72% 6.3 mph NE10.1 kmh NE 10.1 mph16.3 kmh 29.85 in1010.8 mb 0.00 in0.0 mm 0.00 in0.0 mm 0.00 in0.0 mm
02:09 PM 84.6°F29.2°C 74.1°F23.4°C 71% 6.8 mph N10.9 kmh N 12.5 mph20.1 kmh 29.85 in1010.8 mb 0.00 in0.0 mm 0.00 in0.0 mm 0.00 in0.0 mm
02:08 PM 84.6°F29.2°C 74.1°F23.4°C 71% 7.4 mph NNE11.9 kmh NNE 12.5 mph20.1 kmh 29.85 in1010.8 mb 0.00 in0.0 mm 0.00 in0.0 mm 0.00 in0.0 mm
02:07 PM 84.6°F29.2°C 74.1°F23.4°C 71% 11.4 mph N18.3 kmh N 17.4 mph28.0 kmh 29.85 in1010.8 mb 0.00 in0.0 mm 0.00 in0.0 mm 0.00 in0.0 mm
02:06 PM 84.6°F29.2°C 74.1°F23.4°C 71% 7.6 mph N12.2 kmh N 12.5 mph20.1 kmh 29.84 in1010.5 mb 0.00 in0.0 mm 0.00 in0.0 mm 0.00 in0.0 mm
02:05 PM 84.6°F29.2°C 74.1°F23.4°C 71% 7.4 mph NNE11.9 kmh NNE 12.5 mph20.1 kmh 29.85 in1010.8 mb 0.00 in0.0 mm 0.00 in0.0 mm 0.00 in0.0 mm
02:04 PM 84.6°F29.2°C 74.0°F23.3°C 71% 6.4 mph N10.3 kmh N 10.1 mph16.3 kmh 29.85 in1010.8 mb 0.00 in0.0 mm 0.00 in0.0 mm 0.00 in0.0 mm
02:03 PM 84.6°F29.2°C 74.1°F23.4°C 71% 4.5 mph NW7.2 kmh NW 10.1 mph16.3 kmh 29.84 in1010.5 mb 0.00 in0.0 mm 0.00 in0.0 mm 0.00 in0.0 mm
02:02 PM 84.7°F29.3°C 74.2°F23.4°C 71% 5.7 mph N9.2 kmh N 12.5 mph20.1 kmh 29.85 in1010.8 mb 0.00 in0.0 mm 0.00 in0.0 mm 0.00 in0.0 mm
02:01 PM 84.7°F29.3°C 74.3°F23.5°C 71% 7.7 mph NNE12.4 kmh NNE 10.1 mph16.3 kmh 29.84 in1010.5 mb 0.00 in0.0 mm 0.00 in0.0 mm 0.00 in0.0 mm
02:00 PM 84.7°F29.3°C 74.3°F23.5°C 71% 5.5 mph NNE8.9 kmh NNE 10.1 mph16.3 kmh 29.85 in1010.8 mb 0.00 in0.0 mm 0.00 in0.0 mm 0.00 in0.0 mm
01:59 PM 84.7°F29.3°C 74.3°F23.5°C 71% 6.8 mph NNE10.9 kmh NNE 10.1 mph16.3 kmh 29.85 in1010.8 mb 0.00 in0.0 mm 0.00 in0.0 mm 0.00 in0.0 mm
01:58 PM 84.7°F29.3°C 74.5°F23.6°C 72% 8.8 mph NNE14.2 kmh NNE 15.0 mph24.1 kmh 29.85 in1010.8 mb 0.00 in0.0 mm 0.00 in0.0 mm 0.00 in0.0 mm
01:57 PM 84.7°F29.3°C 74.7°F23.7°C 72% 6.8 mph N10.9 kmh N 10.1 mph16.3 kmh 29.85 in1010.8 mb 0.00 in0.0 mm 0.00 in0.0 mm 0.00 in0.0 mm
01:56 PM 84.7°F29.3°C 74.8°F23.8°C 72% 9.2 mph 14.8 kmh 12.5 mph20.1 kmh 29.84 in1010.5 mb 0.00 in0.0 mm 0.00 in0.0 mm 0.00 in0.0 mm
01:55 PM 84.7°F29.3°C 75.0°F23.9°C 73% 9.3 mph N15.0 kmh N 15.0 mph24.1 kmh 29.84 in1010.5 mb 0.00 in0.0 mm 0.00 in0.0 mm 0.00 in0.0 mm
01:54 PM 84.7°F29.3°C 74.8°F23.8°C 72% 5.9 mph N9.5 kmh N 10.1 mph16.3 kmh 29.85 in1010.8 mb 0.00 in0.0 mm 0.00 in0.0 mm 0.00 in0.0 mm
01:53 PM 84.7°F29.3°C 75.0°F23.9°C 73% 6.5 mph N10.5 kmh N 12.5 mph20.1 kmh 29.85 in1010.8 mb 0.00 in0.0 mm 0.00 in0.0 mm 0.00 in0.0 mm
01:52 PM 84.7°F29.3°C 75.0°F23.9°C 73% 6.4 mph N10.3 kmh N 10.1 mph16.3 kmh 29.85 in1010.8 mb 0.00 in0.0 mm 0.00 in0.0 mm 0.00 in0.0 mm
01:51 PM 84.7°F29.3°C 75.1°F23.9°C 73% 8.3 mph N13.4 kmh N 12.5 mph20.1 kmh 29.85 in1010.8 mb 0.00 in0.0 mm 0.00 in0.0 mm 0.00 in0.0 mm
01:50 PM 84.7°F29.3°C 74.9°F23.8°C 72% 10.8 mph N17.4 kmh N 15.0 mph24.1 kmh 29.85 in1010.8 mb 0.00 in0.0 mm 0.00 in0.0 mm 0.00 in0.0 mm
01:49 PM 84.7°F29.3°C 74.8°F23.8°C 72% 8.1 mph N13.0 kmh N 12.5 mph20.1 kmh 29.85 in1010.8 mb 0.00 in0.0 mm 0.00 in0.0 mm 0.00 in0.0 mm
01:48 PM 84.7°F29.3°C 75.0°F23.9°C 72% 6.9 mph N11.1 kmh N 10.1 mph16.3 kmh 29.85 in1010.8 mb 0.00 in0.0 mm 0.00 in0.0 mm 0.00 in0.0 mm
01:47 PM 84.7°F29.3°C 75.2°F24.0°C 73% 6.7 mph N10.8 kmh N 15.0 mph24.1 kmh 29.85 in1010.8 mb 0.00 in0.0 mm 0.00 in0.0 mm 0.00 in0.0 mm
01:46 PM 84.8°F29.3°C 75.2°F24.0°C 73% 7.8 mph NNW12.6 kmh NNW 12.5 mph20.1 kmh 29.85 in1010.8 mb 0.00 in0.0 mm 0.00 in0.0 mm 0.00 in0.0 mm
01:45 PM 84.9°F29.4°C 75.4°F24.1°C 73% 7.2 mph N11.6 kmh N 12.5 mph20.1 kmh 29.85 in1010.8 mb 0.00 in0.0 mm 0.00 in0.0 mm 0.00 in0.0 mm
01:44 PM 84.9°F29.4°C 75.4°F24.1°C 73% 8.4 mph NNE13.5 kmh NNE 15.0 mph24.1 kmh 29.85 in1010.8 mb 0.00 in0.0 mm 0.00 in0.0 mm 0.00 in0.0 mm
01:43 PM 84.9°F29.4°C 75.4°F24.1°C 73% 10.5 mph N16.9 kmh N 15.0 mph24.1 kmh 29.85 in1010.8 mb 0.00 in0.0 mm 0.00 in0.0 mm 0.00 in0.0 mm
01:42 PM 84.9°F29.4°C 75.4°F24.1°C 73% 9.1 mph N14.6 kmh N 12.5 mph20.1 kmh 29.85 in1010.8 mb 0.00 in0.0 mm 0.00 in0.0 mm 0.00 in0.0 mm
01:41 PM 84.9°F29.4°C 75.4°F24.1°C 73% 5.7 mph N9.2 kmh N 10.1 mph16.3 kmh 29.85 in1010.8 mb 0.00 in0.0 mm 0.00 in0.0 mm 0.00 in0.0 mm
01:40 PM 84.9°F29.4°C 75.4°F24.1°C 73% 4.6 mph NNE7.4 kmh NNE 10.1 mph16.3 kmh 29.85 in1010.8 mb 0.00 in0.0 mm 0.00 in0.0 mm 0.00 in0.0 mm
01:39 PM 84.9°F29.4°C 75.4°F24.1°C 73% 4.5 mph N7.2 kmh N 10.1 mph16.3 kmh 29.85 in1010.8 mb 0.00 in0.0 mm 0.00 in0.0 mm 0.00 in0.0 mm
01:38 PM 84.9°F29.4°C 75.4°F24.1°C 73% 5.9 mph NNW9.5 kmh NNW 15.0 mph24.1 kmh 29.85 in1010.8 mb 0.00 in0.0 mm 0.00 in0.0 mm 0.00 in0.0 mm
01:37 PM 84.9°F29.4°C 75.1°F23.9°C 72% 8.6 mph NE13.8 kmh NE 12.5 mph20.1 kmh 29.85 in1010.8 mb 0.00 in0.0 mm 0.00 in0.0 mm 0.00 in0.0 mm
01:36 PM 84.9°F29.4°C 75.0°F23.9°C 72% 5.6 mph N9.0 kmh N 10.1 mph16.3 kmh 29.85 in1010.8 mb 0.00 in0.0 mm 0.00 in0.0 mm 0.00 in0.0 mm
01:35 PM 84.9°F29.4°C 75.0°F23.9°C 72% 3.8 mph N6.1 kmh N 7.6 mph12.2 kmh 29.85 in1010.8 mb 0.00 in0.0 mm 0.00 in0.0 mm 0.00 in0.0 mm
01:34 PM 84.9°F29.4°C 74.5°F23.6°C 71% 4.3 mph ENE6.9 kmh ENE 7.6 mph12.2 kmh 29.85 in1010.8 mb 0.00 in0.0 mm 0.00 in0.0 mm 0.00 in0.0 mm
01:33 PM 84.9°F29.4°C 74.5°F23.6°C 71% 2.6 mph NE4.2 kmh NE 7.6 mph12.2 kmh 29.85 in1010.8 mb 0.00 in0.0 mm 0.00 in0.0 mm 0.00 in0.0 mm
01:32 PM 84.9°F29.4°C 75.0°F23.9°C 72% 2.3 mph NE3.7 kmh NE 4.9 mph7.9 kmh 29.85 in1010.8 mb 0.00 in0.0 mm 0.00 in0.0 mm 0.00 in0.0 mm
01:31 PM 84.9°F29.4°C 75.0°F23.9°C 72% 4.7 mph NE7.6 kmh NE 7.6 mph12.2 kmh 29.85 in1010.8 mb 0.00 in0.0 mm 0.00 in0.0 mm 0.00 in0.0 mm
01:30 PM 84.9°F29.4°C 75.1°F23.9°C 72% 3.6 mph NNE5.8 kmh NNE 7.6 mph12.2 kmh 29.85 in1010.8 mb 0.00 in0.0 mm 0.00 in0.0 mm 0.00 in0.0 mm
01:29 PM 84.9°F29.4°C 75.4°F24.1°C 73% 1.8 mph NNE2.9 kmh NNE 4.9 mph7.9 kmh 29.85 in1010.8 mb 0.00 in0.0 mm 0.00 in0.0 mm 0.00 in0.0 mm
01:28 PM 84.9°F29.4°C 75.4°F24.1°C 73% 3.0 mph NNE4.8 kmh NNE 7.6 mph12.2 kmh 29.85 in1010.8 mb 0.00 in0.0 mm 0.00 in0.0 mm 0.00 in0.0 mm
01:27 PM 84.9°F29.4°C 75.4°F24.1°C 73% 4.3 mph N6.9 kmh N 10.1 mph16.3 kmh 29.85 in1010.8 mb 0.00 in0.0 mm 0.00 in0.0 mm 0.00 in0.0 mm
01:26 PM 85.0°F29.4°C 75.5°F24.2°C 73% 2.0 mph SW3.2 kmh SW 4.9 mph7.9 kmh 29.85 in1010.8 mb 0.00 in0.0 mm 0.00 in0.0 mm 0.00 in0.0 mm
01:25 PM 85.1°F29.5°C 75.6°F24.2°C 73% 5.5 mph NNE8.9 kmh NNE 12.5 mph20.1 kmh 29.85 in1010.8 mb 0.00 in0.0 mm 0.00 in0.0 mm 0.00 in0.0 mm
01:24 PM 85.1°F29.5°C 75.6°F24.2°C 73% 6.2 mph NNE10.0 kmh NNE 12.5 mph20.1 kmh 29.86 in1011.2 mb 0.00 in0.0 mm 0.00 in0.0 mm 0.00 in0.0 mm
01:23 PM 85.1°F29.5°C 75.2°F24.0°C 72% 6.2 mph NE10.0 kmh NE 10.1 mph16.3 kmh 29.85 in1010.8 mb 0.00 in0.0 mm 0.00 in0.0 mm 0.00 in0.0 mm
01:22 PM 85.1°F29.5°C 75.2°F24.0°C 72% 5.5 mph NE8.9 kmh NE 10.1 mph16.3 kmh 29.85 in1010.8 mb 0.00 in0.0 mm 0.00 in0.0 mm 0.00 in0.0 mm
01:21 PM 85.1°F29.5°C 75.2°F24.0°C 72% 5.9 mph NE9.5 kmh NE 10.1 mph16.3 kmh 29.86 in1011.2 mb 0.00 in0.0 mm 0.00 in0.0 mm 0.00 in0.0 mm
01:20 PM 85.1°F29.5°C 75.0°F23.9°C 72% 4.7 mph N7.6 kmh N 7.6 mph12.2 kmh 29.86 in1011.2 mb 0.00 in0.0 mm 0.00 in0.0 mm 0.00 in0.0 mm
01:19 PM 85.1°F29.5°C 75.1°F23.9°C 72% 4.0 mph N6.4 kmh N 10.1 mph16.3 kmh 29.85 in1010.8 mb 0.00 in0.0 mm 0.00 in0.0 mm 0.00 in0.0 mm
01:18 PM 85.3°F29.6°C 75.7°F24.3°C 73% 3.4 mph NNE5.5 kmh NNE 7.6 mph12.2 kmh 29.86 in1011.2 mb 0.00 in0.0 mm 0.00 in0.0 mm 0.00 in0.0 mm
01:17 PM 85.3°F29.6°C 75.8°F24.3°C 73% 6.8 mph NNE10.9 kmh NNE 10.1 mph16.3 kmh 29.86 in1011.2 mb 0.00 in0.0 mm 0.00 in0.0 mm 0.00 in0.0 mm
01:16 PM 85.3°F29.6°C 75.9°F24.4°C 74% 6.5 mph NNE10.5 kmh NNE 10.1 mph16.3 kmh 29.85 in1010.8 mb 0.00 in0.0 mm 0.00 in0.0 mm 0.00 in0.0 mm
01:15 PM 85.3°F29.6°C 75.9°F24.4°C 74% 8.6 mph N13.8 kmh N 12.5 mph20.1 kmh 29.86 in1011.2 mb 0.00 in0.0 mm 0.00 in0.0 mm 0.00 in0.0 mm
01:14 PM 85.3°F29.6°C 75.7°F24.3°C 73% 8.8 mph N14.2 kmh N 15.0 mph24.1 kmh 29.85 in1010.8 mb 0.00 in0.0 mm 0.00 in0.0 mm 0.00 in0.0 mm
01:13 PM 85.3°F29.6°C 75.7°F24.3°C 73% 5.6 mph NNE9.0 kmh NNE 10.1 mph16.3 kmh 29.86 in1011.2 mb 0.00 in0.0 mm 0.00 in0.0 mm 0.00 in0.0 mm
01:12 PM 85.3°F29.6°C 75.6°F24.2°C 73% 6.9 mph N11.1 kmh N 12.5 mph20.1 kmh 29.86 in1011.2 mb 0.00 in0.0 mm 0.00 in0.0 mm 0.00 in0.0 mm
01:11 PM 85.5°F29.7°C 75.4°F24.1°C 72% 8.4 mph N13.5 kmh N 12.5 mph20.1 kmh 29.85 in1010.8 mb 0.00 in0.0 mm 0.00 in0.0 mm 0.00 in0.0 mm
01:10 PM 85.5°F29.7°C 75.0°F23.9°C 71% 9.4 mph N15.1 kmh N 12.5 mph20.1 kmh 29.86 in1011.2 mb 0.00 in0.0 mm 0.00 in0.0 mm 0.00 in0.0 mm
01:09 PM 85.5°F29.7°C 74.8°F23.8°C 70% 6.2 mph NNE10.0 kmh NNE 10.1 mph16.3 kmh 29.86 in1011.2 mb 0.00 in0.0 mm 0.00 in0.0 mm 0.00 in0.0 mm
01:08 PM 85.5°F29.7°C 75.0°F23.9°C 71% 4.7 mph N7.6 kmh N 10.1 mph16.3 kmh 29.86 in1011.2 mb 0.00 in0.0 mm 0.00 in0.0 mm 0.00 in0.0 mm
01:07 PM 85.5°F29.7°C 75.0°F23.9°C 71% 5.6 mph NNE9.0 kmh NNE 10.1 mph16.3 kmh 29.86 in1011.2 mb 0.00 in0.0 mm 0.00 in0.0 mm 0.00 in0.0 mm
01:06 PM 85.5°F29.7°C 75.0°F23.9°C 71% 8.3 mph NNW13.4 kmh NNW 12.5 mph20.1 kmh 29.86 in1011.2 mb 0.00 in0.0 mm 0.00 in0.0 mm 0.00 in0.0 mm
01:05 PM 85.5°F29.7°C 75.0°F23.9°C 71% 4.5 mph NNW7.2 kmh NNW 10.1 mph16.3 kmh 29.86 in1011.2 mb 0.00 in0.0 mm 0.00 in0.0 mm 0.00 in0.0 mm
01:04 PM 85.5°F29.7°C 75.0°F23.9°C 71% 4.7 mph N7.6 kmh N 7.6 mph12.2 kmh 29.86 in1011.2 mb 0.00 in0.0 mm 0.00 in0.0 mm 0.00 in0.0 mm
01:03 PM 85.5°F29.7°C 75.1°F23.9°C 71% 8.4 mph NNE13.5 kmh NNE 15.0 mph24.1 kmh 29.86 in1011.2 mb 0.00 in0.0 mm 0.00 in0.0 mm 0.00 in0.0 mm
01:02 PM 85.5°F29.7°C 75.0°F23.9°C 71% 10.6 mph NNE17.1 kmh NNE 15.0 mph24.1 kmh 29.86 in1011.2 mb 0.00 in0.0 mm 0.00 in0.0 mm 0.00 in0.0 mm
01:01 PM 85.5°F29.7°C 75.0°F23.9°C 71% 8.4 mph N13.5 kmh N 12.5 mph20.1 kmh 29.87 in1011.5 mb 0.00 in0.0 mm 0.00 in0.0 mm 0.00 in0.0 mm
01:00 PM 85.5°F29.7°C 75.0°F23.9°C 71% 3.6 mph NNE5.8 kmh NNE 4.9 mph7.9 kmh 29.86 in1011.2 mb 0.00 in0.0 mm 0.00 in0.0 mm 0.00 in0.0 mm
12:59 PM 85.5°F29.7°C 75.0°F23.9°C 71% 6.0 mph NE9.7 kmh NE 10.1 mph16.3 kmh 29.86 in1011.2 mb 0.00 in0.0 mm 0.00 in0.0 mm 0.00 in0.0 mm
12:58 PM 85.5°F29.7°C 75.0°F23.9°C 71% 5.3 mph NNE8.5 kmh NNE 10.1 mph16.3 kmh 29.86 in1011.2 mb 0.00 in0.0 mm 0.00 in0.0 mm 0.00 in0.0 mm
12:57 PM 85.5°F29.7°C 75.0°F23.9°C 71% 5.0 mph NE8.0 kmh NE 7.6 mph12.2 kmh 29.86 in1011.2 mb 0.00 in0.0 mm 0.00 in0.0 mm 0.00 in0.0 mm
12:56 PM 85.3°F29.6°C 74.8°F23.8°C 71% 6.5 mph NNE10.5 kmh NNE 15.0 mph24.1 kmh 29.87 in1011.5 mb 0.00 in0.0 mm 0.00 in0.0 mm 0.00 in0.0 mm
12:55 PM 85.3°F29.6°C 74.7°F23.7°C 71% 9.4 mph N15.1 kmh N 15.0 mph24.1 kmh 29.86 in1011.2 mb 0.00 in0.0 mm 0.00 in0.0 mm 0.00 in0.0 mm
12:54 PM 85.3°F29.6°C 74.5°F23.6°C 70% 9.4 mph N15.1 kmh N 17.4 mph28.0 kmh 29.87 in1011.5 mb 0.00 in0.0 mm 0.00 in0.0 mm 0.00 in0.0 mm
12:53 PM 85.3°F29.6°C 74.6°F23.7°C 70% 7.0 mph NNE11.3 kmh NNE 12.5 mph20.1 kmh 29.86 in1011.2 mb 0.00 in0.0 mm 0.00 in0.0 mm 0.00 in0.0 mm
12:52 PM 85.3°F29.6°C 74.6°F23.7°C 70% 4.2 mph NNE6.8 kmh NNE 7.6 mph12.2 kmh 29.87 in1011.5 mb 0.00 in0.0 mm 0.00 in0.0 mm 0.00 in0.0 mm
12:51 PM 85.3°F29.6°C 74.8°F23.8°C 71% 3.5 mph ENE5.6 kmh ENE 7.6 mph12.2 kmh 29.86 in1011.2 mb 0.00 in0.0 mm 0.00 in0.0 mm 0.00 in0.0 mm
12:50 PM 85.3°F29.6°C 74.8°F23.8°C 71% 2.4 mph NNE3.9 kmh NNE 4.9 mph7.9 kmh 29.87 in1011.5 mb 0.00 in0.0 mm 0.00 in0.0 mm 0.00 in0.0 mm
12:49 PM 85.1°F29.5°C 74.7°F23.7°C 71% 2.8 mph N4.5 kmh N 4.9 mph7.9 kmh 29.86 in1011.2 mb 0.00 in0.0 mm 0.00 in0.0 mm 0.00 in0.0 mm
12:48 PM 85.1°F29.5°C 74.7°F23.7°C 71% 5.6 mph N9.0 kmh N 7.6 mph12.2 kmh 29.87 in1011.5 mb 0.00 in0.0 mm 0.00 in0.0 mm 0.00 in0.0 mm
12:47 PM 85.1°F29.5°C 74.8°F23.8°C 71% 5.1 mph NNE8.2 kmh NNE 10.1 mph16.3 kmh 29.87 in1011.5 mb 0.00 in0.0 mm 0.00 in0.0 mm 0.00 in0.0 mm
12:46 PM 85.1°F29.5°C 75.0°F23.9°C 72% 6.2 mph N10.0 kmh N 10.1 mph16.3 kmh 29.87 in1011.5 mb 0.00 in0.0 mm 0.00 in0.0 mm 0.00 in0.0 mm
12:45 PM 85.1°F29.5°C 74.7°F23.7°C 71% 2.6 mph NW4.2 kmh NW 4.9 mph7.9 kmh 29.87 in1011.5 mb 0.00 in0.0 mm 0.00 in0.0 mm 0.00 in0.0 mm
12:44 PM 85.1°F29.5°C 75.1°F23.9°C 72% 5.6 mph N9.0 kmh N 10.1 mph16.3 kmh 29.87 in1011.5 mb 0.00 in0.0 mm 0.00 in0.0 mm 0.00 in0.0 mm
12:43 PM 85.1°F29.5°C 75.2°F24.0°C 72% 4.7 mph N7.6 kmh N 7.6 mph12.2 kmh 29.87 in1011.5 mb 0.00 in0.0 mm 0.00 in0.0 mm 0.00 in0.0 mm
12:42 PM 85.1°F29.5°C 75.1°F23.9°C 72% 5.3 mph NNE8.5 kmh NNE 10.1 mph16.3 kmh 29.87 in1011.5 mb 0.00 in0.0 mm 0.00 in0.0 mm 0.00 in0.0 mm
12:41 PM 85.1°F29.5°C 75.1°F23.9°C 72% 4.1 mph NNE6.6 kmh NNE 7.6 mph12.2 kmh 29.87 in1011.5 mb 0.00 in0.0 mm 0.00 in0.0 mm 0.00 in0.0 mm
12:40 PM 84.9°F29.4°C 74.9°F23.8°C 72% 6.9 mph NNE11.1 kmh NNE 10.1 mph16.3 kmh 29.87 in1011.5 mb 0.00 in0.0 mm 0.00 in0.0 mm 0.00 in0.0 mm
12:39 PM 84.9°F29.4°C 74.9°F23.8°C 72% 4.7 mph N7.6 kmh N 10.1 mph16.3 kmh 29.87 in1011.5 mb 0.00 in0.0 mm 0.00 in0.0 mm 0.00 in0.0 mm
12:38 PM 84.9°F29.4°C 74.5°F23.6°C 71% 5.1 mph N8.2 kmh N 7.6 mph12.2 kmh 29.87 in1011.5 mb 0.00 in0.0 mm 0.00 in0.0 mm 0.00 in0.0 mm
12:37 PM 84.9°F29.4°C 74.5°F23.6°C 71% 4.2 mph N6.8 kmh N 7.6 mph12.2 kmh 29.87 in1011.5 mb 0.00 in0.0 mm 0.00 in0.0 mm 0.00 in0.0 mm
12:36 PM 84.8°F29.3°C 74.7°F23.7°C 72% 1.4 mph N2.3 kmh N 4.9 mph7.9 kmh 29.87 in1011.5 mb 0.00 in0.0 mm 0.00 in0.0 mm 0.00 in0.0 mm
12:35 PM 84.7°F29.3°C 74.8°F23.8°C 72% 3.0 mph NNE4.8 kmh NNE 7.6 mph12.2 kmh 29.87 in1011.5 mb 0.00 in0.0 mm 0.00 in0.0 mm 0.00 in0.0 mm
12:34 PM 84.7°F29.3°C 74.8°F23.8°C 72% 6.2 mph NE10.0 kmh NE 12.5 mph20.1 kmh 29.87 in1011.5 mb 0.00 in0.0 mm 0.00 in0.0 mm 0.00 in0.0 mm
12:33 PM 84.7°F29.3°C 74.9°F23.8°C 72% 5.5 mph N8.9 kmh N 10.1 mph16.3 kmh 29.87 in1011.5 mb 0.00 in0.0 mm 0.00 in0.0 mm 0.00 in0.0 mm
12:32 PM 84.7°F29.3°C 74.8°F23.8°C 72% 8.9 mph N14.3 kmh N 15.0 mph24.1 kmh 29.87 in1011.5 mb 0.00 in0.0 mm 0.00 in0.0 mm 0.00 in0.0 mm
12:31 PM 84.7°F29.3°C 74.8°F23.8°C 72% 8.8 mph N14.2 kmh N 12.5 mph20.1 kmh 29.87 in1011.5 mb 0.00 in0.0 mm 0.00 in0.0 mm 0.00 in0.0 mm
12:30 PM 84.7°F29.3°C 74.8°F23.8°C 72% 5.9 mph N9.5 kmh N 10.1 mph16.3 kmh 29.87 in1011.5 mb 0.00 in0.0 mm 0.00 in0.0 mm 0.00 in0.0 mm
12:29 PM 84.6°F29.2°C 75.0°F23.9°C 73% 8.0 mph NW12.9 kmh NW 12.5 mph20.1 kmh 29.87 in1011.5 mb 0.00 in0.0 mm 0.00 in0.0 mm 0.00 in0.0 mm
12:28 PM 84.6°F29.2°C 74.7°F23.7°C 72% 10.2 mph N16.4 kmh N 12.5 mph20.1 kmh 29.87 in1011.5 mb 0.00 in0.0 mm 0.00 in0.0 mm 0.00 in0.0 mm
12:27 PM 84.6°F29.2°C 74.7°F23.7°C 72% 10.2 mph N16.4 kmh N 15.0 mph24.1 kmh 29.87 in1011.5 mb 0.00 in0.0 mm 0.00 in0.0 mm 0.00 in0.0 mm
12:26 PM 84.6°F29.2°C 74.7°F23.7°C 72% 6.8 mph N10.9 kmh N 10.1 mph16.3 kmh 29.87 in1011.5 mb 0.00 in0.0 mm 0.00 in0.0 mm 0.00 in0.0 mm
12:25 PM 84.6°F29.2°C 74.9°F23.8°C 73% 4.2 mph N6.8 kmh N 7.6 mph12.2 kmh 29.87 in1011.5 mb 0.00 in0.0 mm 0.00 in0.0 mm 0.00 in0.0 mm
12:24 PM 84.6°F29.2°C 74.8°F23.8°C 72% 8.3 mph N13.4 kmh N 15.0 mph24.1 kmh 29.87 in1011.5 mb 0.00 in0.0 mm 0.00 in0.0 mm 0.00 in0.0 mm
12:23 PM 84.6°F29.2°C 74.9°F23.8°C 73% 7.3 mph N11.7 kmh N 10.1 mph16.3 kmh 29.87 in1011.5 mb 0.00 in0.0 mm 0.00 in0.0 mm 0.00 in0.0 mm
12:22 PM 84.6°F29.2°C 74.8°F23.8°C 72% 5.9 mph N9.5 kmh N 7.6 mph12.2 kmh 29.87 in1011.5 mb 0.00 in0.0 mm 0.00 in0.0 mm 0.00 in0.0 mm
12:21 PM 84.6°F29.2°C 75.0°F23.9°C 73% 5.1 mph N8.2 kmh N 10.1 mph16.3 kmh 29.87 in1011.5 mb 0.00 in0.0 mm 0.00 in0.0 mm 0.00 in0.0 mm
12:20 PM 84.4°F29.1°C 74.8°F23.8°C 73% 4.3 mph NNE6.9 kmh NNE 10.1 mph16.3 kmh 29.87 in1011.5 mb 0.00 in0.0 mm 0.00 in0.0 mm 0.00 in0.0 mm
12:19 PM 84.4°F29.1°C 74.8°F23.8°C 73% 5.8 mph N9.3 kmh N 7.6 mph12.2 kmh 29.87 in1011.5 mb 0.00 in0.0 mm 0.00 in0.0 mm 0.00 in0.0 mm
12:18 PM 84.4°F29.1°C 74.8°F23.8°C 73% 5.5 mph N8.9 kmh N 10.1 mph16.3 kmh 29.87 in1011.5 mb 0.00 in0.0 mm 0.00 in0.0 mm 0.00 in0.0 mm
12:17 PM 84.4°F29.1°C 74.8°F23.8°C 73% 10.1 mph N16.3 kmh N 15.0 mph24.1 kmh 29.87 in1011.5 mb 0.00 in0.0 mm 0.00 in0.0 mm 0.00 in0.0 mm
12:16 PM 84.6°F29.2°C 75.0°F23.9°C 73% 9.6 mph N15.4 kmh N 15.0 mph24.1 kmh 29.87 in1011.5 mb 0.00 in0.0 mm 0.00 in0.0 mm 0.00 in0.0 mm
12:15 PM 84.6°F29.2°C 75.0°F23.9°C 73% 8.0 mph NNW12.9 kmh NNW 10.1 mph16.3 kmh 29.88 in1011.9 mb 0.00 in0.0 mm 0.00 in0.0 mm 0.00 in0.0 mm
12:14 PM 84.6°F29.2°C 74.8°F23.8°C 72% 7.5 mph NNW12.1 kmh NNW 10.1 mph16.3 kmh 29.88 in1011.9 mb 0.00 in0.0 mm 0.00 in0.0 mm 0.00 in0.0 mm
12:13 PM 84.6°F29.2°C 74.8°F23.8°C 72% 5.8 mph WNW9.3 kmh WNW 10.1 mph16.3 kmh 29.88 in1011.9 mb 0.00 in0.0 mm 0.00 in0.0 mm 0.00 in0.0 mm
12:12 PM 84.6°F29.2°C 75.0°F23.9°C 73% 3.6 mph WNW5.8 kmh WNW 7.6 mph12.2 kmh 29.88 in1011.9 mb 0.00 in0.0 mm 0.00 in0.0 mm 0.00 in0.0 mm
12:11 PM 84.6°F29.2°C 75.0°F23.9°C 73% 5.0 mph N8.0 kmh N 10.1 mph16.3 kmh 29.88 in1011.9 mb 0.00 in0.0 mm 0.00 in0.0 mm 0.00 in0.0 mm
12:10 PM 84.6°F29.2°C 75.0°F23.9°C 73% 5.0 mph WNW8.0 kmh WNW 7.6 mph12.2 kmh 29.88 in1011.9 mb 0.00 in0.0 mm 0.00 in0.0 mm 0.00 in0.0 mm
12:09 PM 84.6°F29.2°C 75.0°F23.9°C 73% 5.3 mph N8.5 kmh N 10.1 mph16.3 kmh 29.88 in1011.9 mb 0.00 in0.0 mm 0.00 in0.0 mm 0.00 in0.0 mm
12:08 PM 84.6°F29.2°C 75.0°F23.9°C 73% 5.9 mph NNW9.5 kmh NNW 10.1 mph16.3 kmh 29.88 in1011.9 mb 0.00 in0.0 mm 0.00 in0.0 mm 0.00 in0.0 mm
12:07 PM 84.7°F29.3°C 75.3°F24.1°C 73% 5.7 mph N9.2 kmh N 10.1 mph16.3 kmh 29.88 in1011.9 mb 0.00 in0.0 mm 0.00 in0.0 mm 0.00 in0.0 mm
12:06 PM 84.7°F29.3°C 75.5°F24.2°C 74% 5.3 mph N8.5 kmh N 10.1 mph16.3 kmh 29.88 in1011.9 mb 0.00 in0.0 mm 0.00 in0.0 mm 0.00 in0.0 mm
12:05 PM 84.7°F29.3°C 75.2°F24.0°C 73% 8.5 mph N13.7 kmh N 12.5 mph20.1 kmh 29.88 in1011.9 mb 0.00 in0.0 mm 0.00 in0.0 mm 0.00 in0.0 mm
12:04 PM 84.7°F29.3°C 75.2°F24.0°C 73% 4.3 mph NNW6.9 kmh NNW 10.1 mph16.3 kmh 29.88 in1011.9 mb 0.00 in0.0 mm 0.00 in0.0 mm 0.00 in0.0 mm
12:03 PM 84.7°F29.3°C 75.4°F24.1°C 73% 2.2 mph N3.5 kmh N 4.9 mph7.9 kmh 29.88 in1011.9 mb 0.00 in0.0 mm 0.00 in0.0 mm 0.00 in0.0 mm
12:02 PM 84.7°F29.3°C 75.2°F24.0°C 73% 3.7 mph N6.0 kmh N 4.9 mph7.9 kmh 29.88 in1011.9 mb 0.00 in0.0 mm 0.00 in0.0 mm 0.00 in0.0 mm
12:01 PM 84.7°F29.3°C 75.4°F24.1°C 73% 1.9 mph NNW3.1 kmh NNW 4.9 mph7.9 kmh 29.88 in1011.9 mb 0.00 in0.0 mm 0.00 in0.0 mm 0.00 in0.0 mm
12:00 PM 84.6°F29.2°C 75.4°F24.1°C 74% 1.1 mph N1.8 kmh N 2.5 mph4.0 kmh 29.89 in1012.2 mb 0.00 in0.0 mm 0.00 in0.0 mm 0.00 in0.0 mm
11:59 AM 84.6°F29.2°C 75.0°F23.9°C 73% 4.0 mph N6.4 kmh N 7.6 mph12.2 kmh 29.88 in1011.9 mb 0.00 in0.0 mm 0.00 in0.0 mm 0.00 in0.0 mm
11:58 AM 84.6°F29.2°C 75.0°F23.9°C 73% 4.4 mph N7.1 kmh N 7.6 mph12.2 kmh 29.89 in1012.2 mb 0.00 in0.0 mm 0.00 in0.0 mm 0.00 in0.0 mm
11:57 AM 84.6°F29.2°C 75.0°F23.9°C 73% 5.5 mph N8.9 kmh N 10.1 mph16.3 kmh 29.89 in1012.2 mb 0.00 in0.0 mm 0.00 in0.0 mm 0.00 in0.0 mm
11:56 AM 84.6°F29.2°C 75.0°F23.9°C 73% 6.5 mph N10.5 kmh N 10.1 mph16.3 kmh 29.88 in1011.9 mb 0.00 in0.0 mm 0.00 in0.0 mm 0.00 in0.0 mm
11:55 AM 84.6°F29.2°C 75.0°F23.9°C 73% 4.7 mph NNE7.6 kmh NNE 10.1 mph16.3 kmh 29.88 in1011.9 mb 0.00 in0.0 mm 0.00 in0.0 mm 0.00 in0.0 mm
11:54 AM 84.7°F29.3°C 75.2°F24.0°C 73% 8.7 mph N14.0 kmh N 12.5 mph20.1 kmh 29.88 in1011.9 mb 0.00 in0.0 mm 0.00 in0.0 mm 0.00 in0.0 mm
11:53 AM 84.7°F29.3°C 75.2°F24.0°C 73% 6.7 mph N10.8 kmh N 10.1 mph16.3 kmh 29.88 in1011.9 mb 0.00 in0.0 mm 0.00 in0.0 mm 0.00 in0.0 mm
11:52 AM 84.7°F29.3°C 75.2°F24.0°C 73% 7.5 mph N12.1 kmh N 10.1 mph16.3 kmh 29.88 in1011.9 mb 0.00 in0.0 mm 0.00 in0.0 mm 0.00 in0.0 mm
11:51 AM 84.7°F29.3°C 75.2°F24.0°C 73% 8.4 mph N13.5 kmh N 12.5 mph20.1 kmh 29.88 in1011.9 mb 0.00 in0.0 mm 0.00 in0.0 mm 0.00 in0.0 mm
11:50 AM 84.7°F29.3°C 75.2°F24.0°C 73% 8.7 mph N14.0 kmh N 12.5 mph20.1 kmh 29.89 in1012.2 mb 0.00 in0.0 mm 0.00 in0.0 mm 0.00 in0.0 mm
11:49 AM 84.7°F29.3°C 75.0°F23.9°C 73% 3.4 mph N5.5 kmh N 10.1 mph16.3 kmh 29.89 in1012.2 mb 0.00 in0.0 mm 0.00 in0.0 mm 0.00 in0.0 mm
11:48 AM 84.7°F29.3°C 74.8°F23.8°C 72% 8.3 mph NNE13.4 kmh NNE 12.5 mph20.1 kmh 29.89 in1012.2 mb 0.00 in0.0 mm 0.00 in0.0 mm 0.00 in0.0 mm
11:47 AM 84.7°F29.3°C 74.8°F23.8°C 72% 6.6 mph NNW10.6 kmh NNW 12.5 mph20.1 kmh 29.89 in1012.2 mb 0.00 in0.0 mm 0.00 in0.0 mm 0.00 in0.0 mm
11:46 AM 84.7°F29.3°C 74.8°F23.8°C 72% 7.5 mph NNE12.1 kmh NNE 12.5 mph20.1 kmh 29.89 in1012.2 mb 0.00 in0.0 mm 0.00 in0.0 mm 0.00 in0.0 mm
11:45 AM 84.7°F29.3°C 74.4°F23.6°C 71% 7.8 mph NNE12.6 kmh NNE 12.5 mph20.1 kmh 29.89 in1012.2 mb 0.00 in0.0 mm 0.00 in0.0 mm 0.00 in0.0 mm
11:44 AM 84.7°F29.3°C 74.6°F23.7°C 72% 1.8 mph NE2.9 kmh NE 7.6 mph12.2 kmh 29.88 in1011.9 mb 0.00 in0.0 mm 0.00 in0.0 mm 0.00 in0.0 mm
11:43 AM 84.6°F29.2°C 74.7°F23.7°C 72% 3.2 mph N5.1 kmh N 7.6 mph12.2 kmh 29.89 in1012.2 mb 0.00 in0.0 mm 0.00 in0.0 mm 0.00 in0.0 mm
11:42 AM 84.6°F29.2°C 74.7°F23.7°C 72% 3.5 mph N5.6 kmh N 7.6 mph12.2 kmh 29.88 in1011.9 mb 0.00 in0.0 mm 0.00 in0.0 mm 0.00 in0.0 mm
11:41 AM 84.6°F29.2°C 74.7°F23.7°C 72% 2.7 mph NNW4.3 kmh NNW 7.6 mph12.2 kmh 29.88 in1011.9 mb 0.00 in0.0 mm 0.00 in0.0 mm 0.00 in0.0 mm
11:40 AM 84.6°F29.2°C 74.7°F23.7°C 72% 3.8 mph NW6.1 kmh NW 4.9 mph7.9 kmh 29.88 in1011.9 mb 0.00 in0.0 mm 0.00 in0.0 mm 0.00 in0.0 mm
11:39 AM 84.4°F29.1°C 74.6°F23.7°C 72% 6.9 mph N11.1 kmh N 10.1 mph16.3 kmh 29.89 in1012.2 mb 0.00 in0.0 mm 0.00 in0.0 mm 0.00 in0.0 mm
11:38 AM 84.4°F29.1°C 74.5°F23.6°C 72% 9.6 mph NNW15.4 kmh NNW 15.0 mph24.1 kmh 29.89 in1012.2 mb 0.00 in0.0 mm 0.00 in0.0 mm 0.00 in0.0 mm
11:37 AM 84.4°F29.1°C 74.6°F23.7°C 72% 6.3 mph N10.1 kmh N 12.5 mph20.1 kmh 29.89 in1012.2 mb 0.00 in0.0 mm 0.00 in0.0 mm 0.00 in0.0 mm
11:36 AM 84.4°F29.1°C 75.0°F23.9°C 73% 4.6 mph N7.4 kmh N 7.6 mph12.2 kmh 29.89 in1012.2 mb 0.00 in0.0 mm 0.00 in0.0 mm 0.00 in0.0 mm
11:35 AM 84.2°F29.0°C 75.0°F23.9°C 74% 5.4 mph NW8.7 kmh NW 7.6 mph12.2 kmh 29.89 in1012.2 mb 0.00 in0.0 mm 0.00 in0.0 mm 0.00 in0.0 mm
11:34 AM 84.2°F29.0°C 75.0°F23.9°C 74% 5.5 mph NNW8.9 kmh NNW 7.6 mph12.2 kmh 29.89 in1012.2 mb 0.00 in0.0 mm 0.00 in0.0 mm 0.00 in0.0 mm
11:33 AM 84.2°F29.0°C 75.0°F23.9°C 74% 5.3 mph N8.5 kmh N 10.1 mph16.3 kmh 29.89 in1012.2 mb 0.00 in0.0 mm 0.00 in0.0 mm 0.00 in0.0 mm
11:32 AM 84.2°F29.0°C 75.1°F23.9°C 74% 7.6 mph 12.2 kmh 10.1 mph16.3 kmh 29.89 in1012.2 mb 0.00 in0.0 mm 0.00 in0.0 mm 0.00 in0.0 mm
11:31 AM 84.2°F29.0°C 75.3°F24.1°C 75% 8.5 mph N13.7 kmh N 12.5 mph20.1 kmh 29.90 in1012.5 mb 0.00 in0.0 mm 0.00 in0.0 mm 0.00 in0.0 mm
11:30 AM 84.2°F29.0°C 75.4°F24.1°C 75% 2.9 mph N4.7 kmh N 7.6 mph12.2 kmh 29.89 in1012.2 mb 0.00 in0.0 mm 0.00 in0.0 mm 0.00 in0.0 mm
11:29 AM 84.2°F29.0°C 75.3°F24.1°C 75% 6.0 mph NNW9.7 kmh NNW 10.1 mph16.3 kmh 29.89 in1012.2 mb 0.00 in0.0 mm 0.00 in0.0 mm 0.00 in0.0 mm
11:28 AM 84.2°F29.0°C 74.9°F23.8°C 74% 9.2 mph N14.8 kmh N 12.5 mph20.1 kmh 29.89 in1012.2 mb 0.00 in0.0 mm 0.00 in0.0 mm 0.00 in0.0 mm
11:27 AM 84.2°F29.0°C 74.7°F23.7°C 73% 6.1 mph N9.8 kmh N 10.1 mph16.3 kmh 29.89 in1012.2 mb 0.00 in0.0 mm 0.00 in0.0 mm 0.00 in0.0 mm
11:26 AM 84.2°F29.0°C 74.7°F23.7°C 73% 5.7 mph NNW9.2 kmh NNW 12.5 mph20.1 kmh 29.89 in1012.2 mb 0.00 in0.0 mm 0.00 in0.0 mm 0.00 in0.0 mm
11:25 AM 84.2°F29.0°C 74.3°F23.5°C 72% 3.4 mph 5.5 kmh 10.1 mph16.3 kmh 29.89 in1012.2 mb 0.00 in0.0 mm 0.00 in0.0 mm 0.00 in0.0 mm
11:24 AM 84.2°F29.0°C 74.3°F23.5°C 72% 5.4 mph N8.7 kmh N 7.6 mph12.2 kmh 29.89 in1012.2 mb 0.00 in0.0 mm 0.00 in0.0 mm 0.00 in0.0 mm
11:23 AM 84.2°F29.0°C 74.3°F23.5°C 72% 5.8 mph NNE9.3 kmh NNE 10.1 mph16.3 kmh 29.90 in1012.5 mb 0.00 in0.0 mm 0.00 in0.0 mm 0.00 in0.0 mm
11:22 AM 84.2°F29.0°C 74.0°F23.3°C 72% 7.7 mph NNE12.4 kmh NNE 10.1 mph16.3 kmh 29.90 in1012.5 mb 0.00 in0.0 mm 0.00 in0.0 mm 0.00 in0.0 mm
11:21 AM 84.2°F29.0°C 74.0°F23.3°C 71% 7.7 mph NNE12.4 kmh NNE 10.1 mph16.3 kmh 29.90 in1012.5 mb 0.00 in0.0 mm 0.00 in0.0 mm 0.00 in0.0 mm
11:20 AM 84.4°F29.1°C 74.5°F23.6°C 72% 6.0 mph N9.7 kmh N 10.1 mph16.3 kmh 29.90 in1012.5 mb 0.00 in0.0 mm 0.00 in0.0 mm 0.00 in0.0 mm
11:19 AM 84.4°F29.1°C 74.5°F23.6°C 72% 6.1 mph WNW9.8 kmh WNW 10.1 mph16.3 kmh 29.90 in1012.5 mb 0.00 in0.0 mm 0.00 in0.0 mm 0.00 in0.0 mm
11:18 AM 84.4°F29.1°C 74.7°F23.7°C 72% 5.0 mph NW8.0 kmh NW 10.1 mph16.3 kmh 29.90 in1012.5 mb 0.00 in0.0 mm 0.00 in0.0 mm 0.00 in0.0 mm
11:17 AM 84.4°F29.1°C 74.8°F23.8°C 73% 4.7 mph NNE7.6 kmh NNE 10.1 mph16.3 kmh 29.90 in1012.5 mb 0.00 in0.0 mm 0.00 in0.0 mm 0.00 in0.0 mm
11:16 AM 84.4°F29.1°C 74.8°F23.8°C 73% 1.3 mph NNE2.1 kmh NNE 4.9 mph7.9 kmh 29.90 in1012.5 mb 0.00 in0.0 mm 0.00 in0.0 mm 0.00 in0.0 mm
11:15 AM 84.4°F29.1°C 75.0°F23.9°C 73% 1.7 mph NE2.7 kmh NE 4.9 mph7.9 kmh 29.90 in1012.5 mb 0.00 in0.0 mm 0.00 in0.0 mm 0.00 in0.0 mm
11:14 AM 84.4°F29.1°C 75.2°F24.0°C 74% 1.3 mph NW2.1 kmh NW 2.5 mph4.0 kmh 29.90 in1012.5 mb 0.00 in0.0 mm 0.00 in0.0 mm 0.00 in0.0 mm
11:13 AM 84.4°F29.1°C 75.2°F24.0°C 74% 1.1 mph NE1.8 kmh NE 4.9 mph7.9 kmh 29.90 in1012.5 mb 0.00 in0.0 mm 0.00 in0.0 mm 0.00 in0.0 mm
11:12 AM 84.4°F29.1°C 75.2°F24.0°C 74% 7.7 mph N12.4 kmh N 10.1 mph16.3 kmh 29.90 in1012.5 mb 0.00 in0.0 mm 0.00 in0.0 mm 0.00 in0.0 mm
11:11 AM 84.4°F29.1°C 75.2°F24.0°C 74% 4.7 mph NNW7.6 kmh NNW 10.1 mph16.3 kmh 29.90 in1012.5 mb 0.00 in0.0 mm 0.00 in0.0 mm 0.00 in0.0 mm
11:10 AM 84.6°F29.2°C 75.4°F24.1°C 74% 2.4 mph N3.9 kmh N 4.9 mph7.9 kmh 29.90 in1012.5 mb 0.00 in0.0 mm 0.00 in0.0 mm 0.00 in0.0 mm
11:09 AM 84.6°F29.2°C 75.5°F24.2°C 74% 4.2 mph 6.8 kmh 10.1 mph16.3 kmh 29.90 in1012.5 mb 0.00 in0.0 mm 0.00 in0.0 mm 0.00 in0.0 mm
11:08 AM 84.6°F29.2°C 75.5°F24.2°C 74% 4.3 mph NE6.9 kmh NE 10.1 mph16.3 kmh 29.90 in1012.5 mb 0.00 in0.0 mm 0.00 in0.0 mm 0.00 in0.0 mm
11:07 AM 84.6°F29.2°C 75.5°F24.2°C 74% 5.1 mph NNE8.2 kmh NNE 10.1 mph16.3 kmh 29.90 in1012.5 mb 0.00 in0.0 mm 0.00 in0.0 mm 0.00 in0.0 mm
11:06 AM 84.6°F29.2°C 75.5°F24.2°C 74% 3.9 mph N6.3 kmh N 7.6 mph12.2 kmh 29.90 in1012.5 mb 0.00 in0.0 mm 0.00 in0.0 mm 0.00 in0.0 mm
11:05 AM 84.4°F29.1°C 75.2°F24.0°C 74% 6.5 mph NNE10.5 kmh NNE 10.1 mph16.3 kmh 29.90 in1012.5 mb 0.00 in0.0 mm 0.00 in0.0 mm 0.00 in0.0 mm
11:04 AM 84.4°F29.1°C 75.1°F23.9°C 74% 4.8 mph NNE7.7 kmh NNE 7.6 mph12.2 kmh 29.90 in1012.5 mb 0.00 in0.0 mm 0.00 in0.0 mm 0.00 in0.0 mm
11:03 AM 84.4°F29.1°C 75.2°F24.0°C 74% 4.2 mph N6.8 kmh N 7.6 mph12.2 kmh 29.90 in1012.5 mb 0.00 in0.0 mm 0.00 in0.0 mm 0.00 in0.0 mm
11:02 AM 84.4°F29.1°C 75.2°F24.0°C 74% 2.3 mph N3.7 kmh N 4.9 mph7.9 kmh 29.90 in1012.5 mb 0.00 in0.0 mm 0.00 in0.0 mm 0.00 in0.0 mm
11:01 AM 84.4°F29.1°C 75.2°F24.0°C 74% 3.3 mph N5.3 kmh N 7.6 mph12.2 kmh 29.90 in1012.5 mb 0.00 in0.0 mm 0.00 in0.0 mm 0.00 in0.0 mm
11:00 AM 84.4°F29.1°C 75.2°F24.0°C 74% 3.4 mph N5.5 kmh N 7.6 mph12.2 kmh 29.91 in1012.9 mb 0.00 in0.0 mm 0.00 in0.0 mm 0.00 in0.0 mm
10:59 AM 84.4°F29.1°C 75.0°F23.9°C 74% 4.5 mph N7.2 kmh N 7.6 mph12.2 kmh 29.90 in1012.5 mb 0.00 in0.0 mm 0.00 in0.0 mm 0.00 in0.0 mm
10:58 AM 84.4°F29.1°C 74.9°F23.8°C 73% 5.4 mph N8.7 kmh N 7.6 mph12.2 kmh 29.91 in1012.9 mb 0.00 in0.0 mm 0.00 in0.0 mm 0.00 in0.0 mm
10:57 AM 84.4°F29.1°C 74.7°F23.7°C 73% 7.6 mph N12.2 kmh N 12.5 mph20.1 kmh 29.91 in1012.9 mb 0.00 in0.0 mm 0.00 in0.0 mm 0.00 in0.0 mm
10:56 AM 84.4°F29.1°C 74.6°F23.7°C 72% 5.1 mph N8.2 kmh N 10.1 mph16.3 kmh 29.90 in1012.5 mb 0.00 in0.0 mm 0.00 in0.0 mm 0.00 in0.0 mm
10:55 AM 84.4°F29.1°C 74.8°F23.8°C 73% 6.0 mph N9.7 kmh N 10.1 mph16.3 kmh 29.91 in1012.9 mb 0.00 in0.0 mm 0.00 in0.0 mm 0.00 in0.0 mm
10:54 AM 84.4°F29.1°C 74.7°F23.7°C 72% 8.1 mph NE13.0 kmh NE 12.5 mph20.1 kmh 29.90 in1012.5 mb 0.00 in0.0 mm 0.00 in0.0 mm 0.00 in0.0 mm
10:53 AM 84.3°F29.1°C 73.9°F23.3°C 71% 6.2 mph NE10.0 kmh NE 10.1 mph16.3 kmh 29.90 in1012.5 mb 0.00 in0.0 mm 0.00 in0.0 mm 0.00 in0.0 mm
10:52 AM 84.2°F29.0°C 74.2°F23.4°C 72% 4.6 mph N7.4 kmh N 10.1 mph16.3 kmh 29.90 in1012.5 mb 0.00 in0.0 mm 0.00 in0.0 mm 0.00 in0.0 mm
10:51 AM 84.1°F28.9°C 73.6°F23.1°C 71% 6.2 mph N10.0 kmh N 10.1 mph16.3 kmh 29.90 in1012.5 mb 0.00 in0.0 mm 0.00 in0.0 mm 0.00 in0.0 mm
10:50 AM 84.0°F28.9°C 73.5°F23.1°C 71% 5.2 mph N8.4 kmh N 7.6 mph12.2 kmh 29.90 in1012.5 mb 0.00 in0.0 mm 0.00 in0.0 mm 0.00 in0.0 mm
10:49 AM 83.8°F28.8°C 73.5°F23.1°C 71% 4.1 mph NNW6.6 kmh NNW 7.6 mph12.2 kmh 29.90 in1012.5 mb 0.00 in0.0 mm 0.00 in0.0 mm 0.00 in0.0 mm
10:48 AM 83.8°F28.8°C 73.9°F23.3°C 72% 4.1 mph N6.6 kmh N 10.1 mph16.3 kmh 29.90 in1012.5 mb 0.00 in0.0 mm 0.00 in0.0 mm 0.00 in0.0 mm
10:47 AM 83.7°F28.7°C 73.8°F23.2°C 72% 5.3 mph NNE8.5 kmh NNE 7.6 mph12.2 kmh 29.90 in1012.5 mb 0.00 in0.0 mm 0.00 in0.0 mm 0.00 in0.0 mm
10:46 AM 83.7°F28.7°C 73.6°F23.1°C 72% 11.1 mph N17.9 kmh N 15.0 mph24.1 kmh 29.90 in1012.5 mb 0.00 in0.0 mm 0.00 in0.0 mm 0.00 in0.0 mm
10:45 AM 83.6°F28.7°C 73.8°F23.2°C 72% 6.4 mph NNE10.3 kmh NNE 12.5 mph20.1 kmh 29.91 in1012.9 mb 0.00 in0.0 mm 0.00 in0.0 mm 0.00 in0.0 mm
10:44 AM 83.5°F28.6°C 73.9°F23.3°C 73% 1.1 mph N1.8 kmh N 4.9 mph7.9 kmh 29.90 in1012.5 mb 0.00 in0.0 mm 0.00 in0.0 mm 0.00 in0.0 mm
10:43 AM 83.5°F28.6°C 73.8°F23.2°C 73% 5.9 mph N9.5 kmh N 10.1 mph16.3 kmh 29.90 in1012.5 mb 0.00 in0.0 mm 0.00 in0.0 mm 0.00 in0.0 mm
10:42 AM 83.5°F28.6°C 73.8°F23.2°C 72% 9.1 mph NNE14.6 kmh NNE 12.5 mph20.1 kmh 29.90 in1012.5 mb 0.00 in0.0 mm 0.00 in0.0 mm 0.00 in0.0 mm
10:41 AM 83.3°F28.5°C 73.8°F23.2°C 73% 6.2 mph N10.0 kmh N 10.1 mph16.3 kmh 29.90 in1012.5 mb 0.00 in0.0 mm 0.00 in0.0 mm 0.00 in0.0 mm
10:40 AM 83.3°F28.5°C 73.7°F23.2°C 73% 5.1 mph N8.2 kmh N 10.1 mph16.3 kmh 29.90 in1012.5 mb 0.00 in0.0 mm 0.00 in0.0 mm 0.00 in0.0 mm
10:39 AM 83.3°F28.5°C 74.0°F23.3°C 74% 6.0 mph NNW9.7 kmh NNW 10.1 mph16.3 kmh 29.91 in1012.9 mb 0.00 in0.0 mm 0.00 in0.0 mm 0.00 in0.0 mm
10:38 AM 83.2°F28.4°C 74.0°F23.3°C 74% 5.3 mph N8.5 kmh N 10.1 mph16.3 kmh 29.91 in1012.9 mb 0.00 in0.0 mm 0.00 in0.0 mm 0.00 in0.0 mm
10:37 AM 83.1°F28.4°C 74.4°F23.6°C 75% 4.9 mph N7.9 kmh N 7.6 mph12.2 kmh 29.91 in1012.9 mb 0.00 in0.0 mm 0.00 in0.0 mm 0.00 in0.0 mm
10:36 AM 83.1°F28.4°C 74.3°F23.5°C 75% 7.1 mph N11.4 kmh N 10.1 mph16.3 kmh 29.91 in1012.9 mb 0.00 in0.0 mm 0.00 in0.0 mm 0.00 in0.0 mm
10:35 AM 83.1°F28.4°C 74.4°F23.6°C 75% 4.8 mph NNE7.7 kmh NNE 10.1 mph16.3 kmh 29.91 in1012.9 mb 0.00 in0.0 mm 0.00 in0.0 mm 0.00 in0.0 mm
10:34 AM 83.1°F28.4°C 73.9°F23.3°C 74% 6.0 mph NNE9.7 kmh NNE 7.6 mph12.2 kmh 29.91 in1012.9 mb 0.00 in0.0 mm 0.00 in0.0 mm 0.00 in0.0 mm
10:33 AM 83.1°F28.4°C 74.5°F23.6°C 75% 3.0 mph N4.8 kmh N 7.6 mph12.2 kmh 29.91 in1012.9 mb 0.00 in0.0 mm 0.00 in0.0 mm 0.00 in0.0 mm
10:32 AM 83.1°F28.4°C 74.1°F23.4°C 74% 6.2 mph N10.0 kmh N 12.5 mph20.1 kmh 29.91 in1012.9 mb 0.00 in0.0 mm 0.00 in0.0 mm 0.00 in0.0 mm
10:31 AM 83.1°F28.4°C 73.6°F23.1°C 73% 7.2 mph N11.6 kmh N 12.5 mph20.1 kmh 29.91 in1012.9 mb 0.00 in0.0 mm 0.00 in0.0 mm 0.00 in0.0 mm
10:30 AM 83.0°F28.3°C 73.5°F23.1°C 73% 3.2 mph NNE5.1 kmh NNE 10.1 mph16.3 kmh 29.91 in1012.9 mb 0.00 in0.0 mm 0.00 in0.0 mm 0.00 in0.0 mm
10:29 AM 82.9°F28.3°C 73.3°F22.9°C 73% 4.1 mph NE6.6 kmh NE 7.6 mph12.2 kmh 29.91 in1012.9 mb 0.00 in0.0 mm 0.00 in0.0 mm 0.00 in0.0 mm
10:28 AM 82.9°F28.3°C 73.7°F23.2°C 74% 1.9 mph N3.1 kmh N 4.9 mph7.9 kmh 29.91 in1012.9 mb 0.00 in0.0 mm 0.00 in0.0 mm 0.00 in0.0 mm
10:27 AM 82.9°F28.3°C 73.9°F23.3°C 74% 3.4 mph NNE5.5 kmh NNE 7.6 mph12.2 kmh 29.92 in1013.2 mb 0.00 in0.0 mm 0.00 in0.0 mm 0.00 in0.0 mm
10:26 AM 83.0°F28.3°C 73.9°F23.3°C 74% 5.1 mph NNE8.2 kmh NNE 7.6 mph12.2 kmh 29.91 in1012.9 mb 0.00 in0.0 mm 0.00 in0.0 mm 0.00 in0.0 mm
10:25 AM 83.1°F28.4°C 73.9°F23.3°C 74% 5.2 mph N8.4 kmh N 7.6 mph12.2 kmh 29.91 in1012.9 mb 0.00 in0.0 mm 0.00 in0.0 mm 0.00 in0.0 mm
10:24 AM 83.1°F28.4°C 74.5°F23.6°C 75% 4.0 mph NW6.4 kmh NW 7.6 mph12.2 kmh 29.91 in1012.9 mb 0.00 in0.0 mm 0.00 in0.0 mm 0.00 in0.0 mm
10:23 AM 83.1°F28.4°C 74.5°F23.6°C 75% 5.8 mph N9.3 kmh N 10.1 mph16.3 kmh 29.91 in1012.9 mb 0.00 in0.0 mm 0.00 in0.0 mm 0.00 in0.0 mm
10:22 AM 83.1°F28.4°C 74.7°F23.7°C 76% 7.1 mph N11.4 kmh N 10.1 mph16.3 kmh 29.91 in1012.9 mb 0.00 in0.0 mm 0.00 in0.0 mm 0.00 in0.0 mm
10:21 AM 83.1°F28.4°C 74.7°F23.7°C 76% 6.2 mph N10.0 kmh N 10.1 mph16.3 kmh 29.92 in1013.2 mb 0.00 in0.0 mm 0.00 in0.0 mm 0.00 in0.0 mm
10:20 AM 83.1°F28.4°C 74.8°F23.8°C 76% 3.3 mph NE5.3 kmh NE 7.6 mph12.2 kmh 29.91 in1012.9 mb 0.00 in0.0 mm 0.00 in0.0 mm 0.00 in0.0 mm
10:19 AM 83.1°F28.4°C 74.8°F23.8°C 76% 6.7 mph N10.8 kmh N 10.1 mph16.3 kmh 29.92 in1013.2 mb 0.00 in0.0 mm 0.00 in0.0 mm 0.00 in0.0 mm
10:18 AM 83.1°F28.4°C 74.7°F23.7°C 76% 4.9 mph N7.9 kmh N 7.6 mph12.2 kmh 29.91 in1012.9 mb 0.00 in0.0 mm 0.00 in0.0 mm 0.00 in0.0 mm
10:17 AM 83.1°F28.4°C 74.5°F23.6°C 75% 4.5 mph NNE7.2 kmh NNE 7.6 mph12.2 kmh 29.91 in1012.9 mb 0.00 in0.0 mm 0.00 in0.0 mm 0.00 in0.0 mm
10:16 AM 83.1°F28.4°C 74.6°F23.7°C 75% 3.4 mph N5.5 kmh N 7.6 mph12.2 kmh 29.91 in1012.9 mb 0.00 in0.0 mm 0.00 in0.0 mm 0.00 in0.0 mm
10:15 AM 83.1°F28.4°C 74.5°F23.6°C 75% 6.0 mph NNE9.7 kmh NNE 10.1 mph16.3 kmh 29.91 in1012.9 mb 0.00 in0.0 mm 0.00 in0.0 mm 0.00 in0.0 mm
10:14 AM 83.1°F28.4°C 74.5°F23.6°C 75% 6.3 mph NE10.1 kmh NE 10.1 mph16.3 kmh 29.91 in1012.9 mb 0.00 in0.0 mm 0.00 in0.0 mm 0.00 in0.0 mm
10:13 AM 83.1°F28.4°C 74.5°F23.6°C 75% 2.7 mph NE4.3 kmh NE 10.1 mph16.3 kmh 29.91 in1012.9 mb 0.00 in0.0 mm 0.00 in0.0 mm 0.00 in0.0 mm
10:12 AM 83.1°F28.4°C 74.8°F23.8°C 76% 3.3 mph N5.3 kmh N 4.9 mph7.9 kmh 29.91 in1012.9 mb 0.00 in0.0 mm 0.00 in0.0 mm 0.00 in0.0 mm
10:11 AM 83.0°F28.3°C 74.8°F23.8°C 76% 3.1 mph N5.0 kmh N 4.9 mph7.9 kmh 29.91 in1012.9 mb 0.00 in0.0 mm 0.00 in0.0 mm 0.00 in0.0 mm
10:10 AM 82.9°F28.3°C 74.7°F23.7°C 76% 3.5 mph N5.6 kmh N 10.1 mph16.3 kmh 29.91 in1012.9 mb 0.00 in0.0 mm 0.00 in0.0 mm 0.00 in0.0 mm
10:09 AM 82.9°F28.3°C 74.7°F23.7°C 76% 7.4 mph N11.9 kmh N 12.5 mph20.1 kmh 29.92 in1013.2 mb 0.00 in0.0 mm 0.00 in0.0 mm 0.00 in0.0 mm
10:08 AM 82.9°F28.3°C 74.7°F23.7°C 76% 8.3 mph N13.4 kmh N 12.5 mph20.1 kmh 29.91 in1012.9 mb 0.00 in0.0 mm 0.00 in0.0 mm 0.00 in0.0 mm
10:07 AM 82.9°F28.3°C 74.7°F23.7°C 76% 8.9 mph N14.3 kmh N 12.5 mph20.1 kmh 29.91 in1012.9 mb 0.00 in0.0 mm 0.00 in0.0 mm 0.00 in0.0 mm
10:06 AM 82.9°F28.3°C 74.5°F23.6°C 76% 10.1 mph N16.3 kmh N 12.5 mph20.1 kmh 29.92 in1013.2 mb 0.00 in0.0 mm 0.00 in0.0 mm 0.00 in0.0 mm
10:05 AM 82.9°F28.3°C 74.3°F23.5°C 75% 6.6 mph N10.6 kmh N 12.5 mph20.1 kmh 29.92 in1013.2 mb 0.00 in0.0 mm 0.00 in0.0 mm 0.00 in0.0 mm
10:04 AM 82.9°F28.3°C 74.3°F23.5°C 75% 6.6 mph N10.6 kmh N 10.1 mph16.3 kmh 29.92 in1013.2 mb 0.00 in0.0 mm 0.00 in0.0 mm 0.00 in0.0 mm
10:03 AM 82.9°F28.3°C 73.9°F23.3°C 74% 9.3 mph N15.0 kmh N 12.5 mph20.1 kmh 29.92 in1013.2 mb 0.00 in0.0 mm 0.00 in0.0 mm 0.00 in0.0 mm
10:02 AM 82.9°F28.3°C 73.9°F23.3°C 74% 6.8 mph N10.9 kmh N 10.1 mph16.3 kmh 29.91 in1012.9 mb 0.00 in0.0 mm 0.00 in0.0 mm 0.00 in0.0 mm
10:01 AM 82.9°F28.3°C 73.9°F23.3°C 74% 9.8 mph N15.8 kmh N 12.5 mph20.1 kmh 29.92 in1013.2 mb 0.00 in0.0 mm 0.00 in0.0 mm 0.00 in0.0 mm
10:00 AM 82.8°F28.2°C 73.4°F23.0°C 73% 9.6 mph NNE15.4 kmh NNE 12.5 mph20.1 kmh 29.92 in1013.2 mb 0.00 in0.0 mm 0.00 in0.0 mm 0.00 in0.0 mm
09:59 AM 82.8°F28.2°C 72.9°F22.7°C 72% 9.8 mph N15.8 kmh N 12.5 mph20.1 kmh 29.91 in1012.9 mb 0.00 in0.0 mm 0.00 in0.0 mm 0.00 in0.0 mm
09:58 AM 82.7°F28.2°C 73.1°F22.8°C 73% 3.5 mph N5.6 kmh N 7.6 mph12.2 kmh 29.92 in1013.2 mb 0.00 in0.0 mm 0.00 in0.0 mm 0.00 in0.0 mm
09:57 AM 82.6°F28.1°C 73.0°F22.8°C 73% 7.6 mph NNE12.2 kmh NNE 15.0 mph24.1 kmh 29.92 in1013.2 mb 0.00 in0.0 mm 0.00 in0.0 mm 0.00 in0.0 mm
09:56 AM 82.6°F28.1°C 73.0°F22.8°C 73% 8.3 mph NE13.4 kmh NE 12.5 mph20.1 kmh 29.92 in1013.2 mb 0.00 in0.0 mm 0.00 in0.0 mm 0.00 in0.0 mm
09:55 AM 82.4°F28.0°C 73.4°F23.0°C 74% 5.7 mph NNE9.2 kmh NNE 12.5 mph20.1 kmh 29.92 in1013.2 mb 0.00 in0.0 mm 0.00 in0.0 mm 0.00 in0.0 mm
09:54 AM 82.4°F28.0°C 73.4°F23.0°C 74% 7.7 mph N12.4 kmh N 12.5 mph20.1 kmh 29.91 in1012.9 mb 0.00 in0.0 mm 0.00 in0.0 mm 0.00 in0.0 mm
09:53 AM 82.4°F28.0°C 73.4°F23.0°C 74% 5.7 mph N9.2 kmh N 10.1 mph16.3 kmh 29.91 in1012.9 mb 0.00 in0.0 mm 0.00 in0.0 mm 0.00 in0.0 mm
09:52 AM 82.4°F28.0°C 73.3°F22.9°C 74% 8.1 mph N13.0 kmh N 12.5 mph20.1 kmh 29.91 in1012.9 mb 0.00 in0.0 mm 0.00 in0.0 mm 0.00 in0.0 mm
09:51 AM 82.2°F27.9°C 73.2°F22.9°C 74% 7.3 mph N11.7 kmh N 10.1 mph16.3 kmh 29.91 in1012.9 mb 0.00 in0.0 mm 0.00 in0.0 mm 0.00 in0.0 mm
09:50 AM 82.2°F27.9°C 73.2°F22.9°C 74% 8.8 mph N14.2 kmh N 10.1 mph16.3 kmh 29.91 in1012.9 mb 0.00 in0.0 mm 0.00 in0.0 mm 0.00 in0.0 mm
09:49 AM 82.2°F27.9°C 73.4°F23.0°C 74% 6.4 mph NNW10.3 kmh NNW 10.1 mph16.3 kmh 29.92 in1013.2 mb 0.00 in0.0 mm 0.00 in0.0 mm 0.00 in0.0 mm
09:48 AM 82.0°F27.8°C 73.5°F23.1°C 75% 5.4 mph NNE8.7 kmh NNE 7.6 mph12.2 kmh 29.91 in1012.9 mb 0.00 in0.0 mm 0.00 in0.0 mm 0.00 in0.0 mm
09:47 AM 82.0°F27.8°C 73.6°F23.1°C 75% 6.3 mph NNW10.1 kmh NNW 7.6 mph12.2 kmh 29.92 in1013.2 mb 0.00 in0.0 mm 0.00 in0.0 mm 0.00 in0.0 mm
09:46 AM 82.0°F27.8°C 73.7°F23.2°C 76% 8.4 mph N13.5 kmh N 12.5 mph20.1 kmh 29.92 in1013.2 mb 0.00 in0.0 mm 0.00 in0.0 mm 0.00 in0.0 mm
09:45 AM 82.0°F27.8°C 73.7°F23.2°C 76% 7.2 mph N11.6 kmh N 12.5 mph20.1 kmh 29.92 in1013.2 mb 0.00 in0.0 mm 0.00 in0.0 mm 0.00 in0.0 mm
09:44 AM 82.0°F27.8°C 73.8°F23.2°C 76% 4.2 mph N6.8 kmh N 7.6 mph12.2 kmh 29.91 in1012.9 mb 0.00 in0.0 mm 0.00 in0.0 mm 0.00 in0.0 mm
09:43 AM 82.0°F27.8°C 73.8°F23.2°C 76% 7.3 mph N11.7 kmh N 12.5 mph20.1 kmh 29.91 in1012.9 mb 0.00 in0.0 mm 0.00 in0.0 mm 0.00 in0.0 mm
09:42 AM 82.0°F27.8°C 73.8°F23.2°C 76% 9.1 mph N14.6 kmh N 12.5 mph20.1 kmh 29.92 in1013.2 mb 0.00 in0.0 mm 0.00 in0.0 mm 0.00 in0.0 mm
09:41 AM 82.0°F27.8°C 73.8°F23.2°C 76% 10.1 mph N16.3 kmh N 17.4 mph28.0 kmh 29.92 in1013.2 mb 0.00 in0.0 mm 0.00 in0.0 mm 0.00 in0.0 mm
09:40 AM 82.0°F27.8°C 73.7°F23.2°C 76% 5.3 mph N8.5 kmh N 7.6 mph12.2 kmh 29.92 in1013.2 mb 0.00 in0.0 mm 0.00 in0.0 mm 0.00 in0.0 mm
09:39 AM 82.0°F27.8°C 73.6°F23.1°C 75% 7.0 mph N11.3 kmh N 10.1 mph16.3 kmh 29.92 in1013.2 mb 0.00 in0.0 mm 0.00 in0.0 mm 0.00 in0.0 mm
09:38 AM 82.0°F27.8°C 73.7°F23.2°C 76% 4.7 mph N7.6 kmh N 7.6 mph12.2 kmh 29.92 in1013.2 mb 0.00 in0.0 mm 0.00 in0.0 mm 0.00 in0.0 mm
09:37 AM 81.9°F27.7°C 73.4°F23.0°C 76% 7.5 mph NNE12.1 kmh NNE 12.5 mph20.1 kmh 29.92 in1013.2 mb 0.00 in0.0 mm 0.00 in0.0 mm 0.00 in0.0 mm
09:36 AM 81.9°F27.7°C 73.2°F22.9°C 75% 5.8 mph NNE9.3 kmh NNE 10.1 mph16.3 kmh 29.92 in1013.2 mb 0.00 in0.0 mm 0.00 in0.0 mm 0.00 in0.0 mm
09:35 AM 81.9°F27.7°C 73.2°F22.9°C 75% 4.2 mph N6.8 kmh N 7.6 mph12.2 kmh 29.92 in1013.2 mb 0.00 in0.0 mm 0.00 in0.0 mm 0.00 in0.0 mm
09:34 AM 81.9°F27.7°C 73.6°F23.1°C 76% 4.7 mph N7.6 kmh N 10.1 mph16.3 kmh 29.91 in1012.9 mb 0.00 in0.0 mm 0.00 in0.0 mm 0.00 in0.0 mm
09:33 AM 81.9°F27.7°C 73.5°F23.1°C 76% 3.4 mph N5.5 kmh N 7.6 mph12.2 kmh 29.92 in1013.2 mb 0.00 in0.0 mm 0.00 in0.0 mm 0.00 in0.0 mm
09:32 AM 81.9°F27.7°C 73.4°F23.0°C 76% 4.6 mph N7.4 kmh N 10.1 mph16.3 kmh 29.92 in1013.2 mb 0.00 in0.0 mm 0.00 in0.0 mm 0.00 in0.0 mm
09:31 AM 81.9°F27.7°C 73.6°F23.1°C 76% 4.0 mph N6.4 kmh N 7.6 mph12.2 kmh 29.92 in1013.2 mb 0.00 in0.0 mm 0.00 in0.0 mm 0.00 in0.0 mm
09:30 AM 81.9°F27.7°C 73.6°F23.1°C 76% 4.9 mph NNW7.9 kmh NNW 7.6 mph12.2 kmh 29.92 in1013.2 mb 0.00 in0.0 mm 0.00 in0.0 mm 0.00 in0.0 mm
09:29 AM 81.9°F27.7°C 73.6°F23.1°C 76% 6.0 mph NNE9.7 kmh NNE 10.1 mph16.3 kmh 29.92 in1013.2 mb 0.00 in0.0 mm 0.00 in0.0 mm 0.00 in0.0 mm
09:28 AM 81.9°F27.7°C 73.6°F23.1°C 76% 3.3 mph N5.3 kmh N 4.9 mph7.9 kmh 29.92 in1013.2 mb 0.00 in0.0 mm 0.00 in0.0 mm 0.00 in0.0 mm
09:27 AM 81.9°F27.7°C 73.6°F23.1°C 76% 3.8 mph N6.1 kmh N 7.6 mph12.2 kmh 29.92 in1013.2 mb 0.00 in0.0 mm 0.00 in0.0 mm 0.00 in0.0 mm
09:26 AM 81.9°F27.7°C 73.6°F23.1°C 76% 4.9 mph NE7.9 kmh NE 10.1 mph16.3 kmh 29.91 in1012.9 mb 0.00 in0.0 mm 0.00 in0.0 mm 0.00 in0.0 mm
09:25 AM 81.9°F27.7°C 73.6°F23.1°C 76% 6.4 mph N10.3 kmh N 10.1 mph16.3 kmh 29.92 in1013.2 mb 0.00 in0.0 mm 0.00 in0.0 mm 0.00 in0.0 mm
09:24 AM 81.9°F27.7°C 73.6°F23.1°C 76% 5.1 mph NNW8.2 kmh NNW 10.1 mph16.3 kmh 29.92 in1013.2 mb 0.00 in0.0 mm 0.00 in0.0 mm 0.00 in0.0 mm
09:23 AM 81.9°F27.7°C 73.6°F23.1°C 76% 5.5 mph NNE8.9 kmh NNE 7.6 mph12.2 kmh 29.92 in1013.2 mb 0.00 in0.0 mm 0.00 in0.0 mm 0.00 in0.0 mm
09:22 AM 81.9°F27.7°C 73.6°F23.1°C 76% 1.5 mph NW2.4 kmh NW 4.9 mph7.9 kmh 29.92 in1013.2 mb 0.00 in0.0 mm 0.00 in0.0 mm 0.00 in0.0 mm
09:21 AM 81.9°F27.7°C 73.6°F23.1°C 76% 2.2 mph NNE3.5 kmh NNE 4.9 mph7.9 kmh 29.92 in1013.2 mb 0.00 in0.0 mm 0.00 in0.0 mm 0.00 in0.0 mm
09:20 AM 81.9°F27.7°C 73.6°F23.1°C 76% 5.2 mph N8.4 kmh N 10.1 mph16.3 kmh 29.92 in1013.2 mb 0.00 in0.0 mm 0.00 in0.0 mm 0.00 in0.0 mm
09:19 AM 81.9°F27.7°C 73.6°F23.1°C 76% 4.2 mph N6.8 kmh N 7.6 mph12.2 kmh 29.92 in1013.2 mb 0.00 in0.0 mm 0.00 in0.0 mm 0.00 in0.0 mm
09:18 AM 81.9°F27.7°C 73.6°F23.1°C 76% 2.2 mph N3.5 kmh N 4.9 mph7.9 kmh 29.92 in1013.2 mb 0.00 in0.0 mm 0.00 in0.0 mm 0.00 in0.0 mm
09:17 AM 81.9°F27.7°C 73.6°F23.1°C 76% 3.5 mph NNE5.6 kmh NNE 4.9 mph7.9 kmh 29.92 in1013.2 mb 0.00 in0.0 mm 0.00 in0.0 mm 0.00 in0.0 mm
09:16 AM 81.9°F27.7°C 73.6°F23.1°C 76% 5.0 mph NNE8.0 kmh NNE 7.6 mph12.2 kmh 29.92 in1013.2 mb 0.00 in0.0 mm 0.00 in0.0 mm 0.00 in0.0 mm
09:15 AM 81.9°F27.7°C 73.6°F23.1°C 76% 4.2 mph NNE6.8 kmh NNE 7.6 mph12.2 kmh 29.92 in1013.2 mb 0.00 in0.0 mm 0.00 in0.0 mm 0.00 in0.0 mm
09:14 AM 81.9°F27.7°C 73.6°F23.1°C 76% 1.8 mph N2.9 kmh N 4.9 mph7.9 kmh 29.91 in1012.9 mb 0.00 in0.0 mm 0.00 in0.0 mm 0.00 in0.0 mm
09:13 AM 82.0°F27.8°C 73.8°F23.2°C 76% 4.0 mph NNE6.4 kmh NNE 7.6 mph12.2 kmh 29.91 in1012.9 mb 0.00 in0.0 mm 0.00 in0.0 mm 0.00 in0.0 mm
09:12 AM 82.0°F27.8°C 73.8°F23.2°C 76% 4.1 mph NNE6.6 kmh NNE 7.6 mph12.2 kmh 29.92 in1013.2 mb 0.00 in0.0 mm 0.00 in0.0 mm 0.00 in0.0 mm
09:11 AM 82.0°F27.8°C 73.8°F23.2°C 76% 0.7 mph NNE1.1 kmh NNE 2.5 mph4.0 kmh 29.92 in1013.2 mb 0.00 in0.0 mm 0.00 in0.0 mm 0.00 in0.0 mm
09:10 AM 82.0°F27.8°C 73.8°F23.2°C 76% 4.6 mph 7.4 kmh 7.6 mph12.2 kmh 29.91 in1012.9 mb 0.00 in0.0 mm 0.00 in0.0 mm 0.00 in0.0 mm
09:09 AM 82.0°F27.8°C 73.8°F23.2°C 76% 6.4 mph N10.3 kmh N 12.5 mph20.1 kmh 29.92 in1013.2 mb 0.00 in0.0 mm 0.00 in0.0 mm 0.00 in0.0 mm
09:08 AM 82.0°F27.8°C 73.8°F23.2°C 76% 6.5 mph NNE10.5 kmh NNE 12.5 mph20.1 kmh 29.91 in1012.9 mb 0.00 in0.0 mm 0.00 in0.0 mm 0.00 in0.0 mm
09:07 AM 82.0°F27.8°C 73.8°F23.2°C 76% 2.7 mph N4.3 kmh N 4.9 mph7.9 kmh 29.92 in1013.2 mb 0.00 in0.0 mm 0.00 in0.0 mm 0.00 in0.0 mm
09:06 AM 82.0°F27.8°C 73.8°F23.2°C 76% 5.5 mph N8.9 kmh N 10.1 mph16.3 kmh 29.92 in1013.2 mb 0.00 in0.0 mm 0.00 in0.0 mm 0.00 in0.0 mm
09:05 AM 82.0°F27.8°C 73.8°F23.2°C 76% 9.8 mph N15.8 kmh N 12.5 mph20.1 kmh 29.92 in1013.2 mb 0.00 in0.0 mm 0.00 in0.0 mm 0.00 in0.0 mm
09:04 AM 82.0°F27.8°C 73.8°F23.2°C 76% 9.0 mph NNE14.5 kmh NNE 12.5 mph20.1 kmh 29.92 in1013.2 mb 0.00 in0.0 mm 0.00 in0.0 mm 0.00 in0.0 mm
09:03 AM 82.0°F27.8°C 73.8°F23.2°C 76% 6.3 mph N10.1 kmh N 10.1 mph16.3 kmh 29.91 in1012.9 mb 0.00 in0.0 mm 0.00 in0.0 mm 0.00 in0.0 mm
09:02 AM 82.0°F27.8°C 73.8°F23.2°C 76% 4.9 mph NE7.9 kmh NE 7.6 mph12.2 kmh 29.91 in1012.9 mb 0.00 in0.0 mm 0.00 in0.0 mm 0.00 in0.0 mm
09:01 AM 82.0°F27.8°C 73.8°F23.2°C 76% 4.7 mph N7.6 kmh N 7.6 mph12.2 kmh 29.92 in1013.2 mb 0.00 in0.0 mm 0.00 in0.0 mm 0.00 in0.0 mm
09:00 AM 82.0°F27.8°C 73.8°F23.2°C 76% 5.2 mph NNE8.4 kmh NNE 10.1 mph16.3 kmh 29.92 in1013.2 mb 0.00 in0.0 mm 0.00 in0.0 mm 0.00 in0.0 mm
08:59 AM 82.0°F27.8°C 73.8°F23.2°C 76% 5.0 mph NNE8.0 kmh NNE 7.6 mph12.2 kmh 29.91 in1012.9 mb 0.00 in0.0 mm 0.00 in0.0 mm 0.00 in0.0 mm
08:58 AM 82.0°F27.8°C 73.8°F23.2°C 76% 2.8 mph NNW4.5 kmh NNW 4.9 mph7.9 kmh 29.92 in1013.2 mb 0.00 in0.0 mm 0.00 in0.0 mm 0.00 in0.0 mm
08:57 AM 82.0°F27.8°C 73.8°F23.2°C 76% 2.5 mph N4.0 kmh N 7.6 mph12.2 kmh 29.92 in1013.2 mb 0.00 in0.0 mm 0.00 in0.0 mm 0.00 in0.0 mm
08:56 AM 82.0°F27.8°C 73.8°F23.2°C 76% 1.8 mph N2.9 kmh N 7.6 mph12.2 kmh 29.92 in1013.2 mb 0.00 in0.0 mm 0.00 in0.0 mm 0.00 in0.0 mm
08:55 AM 81.9°F27.7°C 73.6°F23.1°C 76% 2.8 mph NNE4.5 kmh NNE 7.6 mph12.2 kmh 29.91 in1012.9 mb 0.00 in0.0 mm 0.00 in0.0 mm 0.00 in0.0 mm
08:54 AM 81.9°F27.7°C 73.6°F23.1°C 76% 4.6 mph N7.4 kmh N 7.6 mph12.2 kmh 29.92 in1013.2 mb 0.00 in0.0 mm 0.00 in0.0 mm 0.00 in0.0 mm
08:53 AM 81.9°F27.7°C 73.6°F23.1°C 76% 4.2 mph N6.8 kmh N 7.6 mph12.2 kmh 29.92 in1013.2 mb 0.00 in0.0 mm 0.00 in0.0 mm 0.00 in0.0 mm
08:52 AM 81.9°F27.7°C 73.4°F23.0°C 76% 7.2 mph NNE11.6 kmh NNE 10.1 mph16.3 kmh 29.91 in1012.9 mb 0.00 in0.0 mm 0.00 in0.0 mm 0.00 in0.0 mm
08:51 AM 81.9°F27.7°C 73.2°F22.9°C 75% 8.4 mph N13.5 kmh N 12.5 mph20.1 kmh 29.91 in1012.9 mb 0.00 in0.0 mm 0.00 in0.0 mm 0.00 in0.0 mm
08:50 AM 81.8°F27.7°C 73.1°F22.8°C 75% 5.5 mph NNE8.9 kmh NNE 7.6 mph12.2 kmh 29.91 in1012.9 mb 0.00 in0.0 mm 0.00 in0.0 mm 0.00 in0.0 mm
08:49 AM 81.7°F27.6°C 73.0°F22.8°C 75% 3.4 mph N5.5 kmh N 7.6 mph12.2 kmh 29.91 in1012.9 mb 0.00 in0.0 mm 0.00 in0.0 mm 0.00 in0.0 mm
08:48 AM 81.7°F27.6°C 73.0°F22.8°C 75% 6.1 mph NNE9.8 kmh NNE 7.6 mph12.2 kmh 29.91 in1012.9 mb 0.00 in0.0 mm 0.00 in0.0 mm 0.00 in0.0 mm
08:47 AM 81.6°F27.6°C 72.9°F22.7°C 75% 4.6 mph NE7.4 kmh NE 7.6 mph12.2 kmh 29.91 in1012.9 mb 0.00 in0.0 mm 0.00 in0.0 mm 0.00 in0.0 mm
08:46 AM 81.5°F27.5°C 72.9°F22.7°C 75% 4.6 mph NNE7.4 kmh NNE 7.6 mph12.2 kmh 29.91 in1012.9 mb 0.00 in0.0 mm 0.00 in0.0 mm 0.00 in0.0 mm
08:45 AM 81.5°F27.5°C 72.9°F22.7°C 75% 6.9 mph NNE11.1 kmh NNE 12.5 mph20.1 kmh 29.91 in1012.9 mb 0.00 in0.0 mm 0.00 in0.0 mm 0.00 in0.0 mm
08:44 AM 81.4°F27.4°C 72.8°F22.7°C 75% 7.6 mph N12.2 kmh N 10.1 mph16.3 kmh 29.91 in1012.9 mb 0.00 in0.0 mm 0.00 in0.0 mm 0.00 in0.0 mm
08:43 AM 81.3°F27.4°C 72.7°F22.6°C 75% 6.3 mph N10.1 kmh N 12.5 mph20.1 kmh 29.91 in1012.9 mb 0.00 in0.0 mm 0.00 in0.0 mm 0.00 in0.0 mm
08:42 AM 81.3°F27.4°C 72.7°F22.6°C 75% 7.8 mph NNE12.6 kmh NNE 12.5 mph20.1 kmh 29.91 in1012.9 mb 0.00 in0.0 mm 0.00 in0.0 mm 0.00 in0.0 mm
08:41 AM 81.1°F27.3°C 72.5°F22.5°C 75% 7.7 mph NNE12.4 kmh NNE 12.5 mph20.1 kmh 29.91 in1012.9 mb 0.00 in0.0 mm 0.00 in0.0 mm 0.00 in0.0 mm
08:40 AM 81.1°F27.3°C 72.7°F22.6°C 75% 3.4 mph NNE5.5 kmh NNE 7.6 mph12.2 kmh 29.91 in1012.9 mb 0.00 in0.0 mm 0.00 in0.0 mm 0.00 in0.0 mm
08:39 AM 81.1°F27.3°C 72.9°F22.7°C 76% 6.9 mph N11.1 kmh N 10.1 mph16.3 kmh 29.91 in1012.9 mb 0.00 in0.0 mm 0.00 in0.0 mm 0.00 in0.0 mm
08:38 AM 81.0°F27.2°C 72.3°F22.4°C 75% 7.8 mph NNE12.6 kmh NNE 10.1 mph16.3 kmh 29.91 in1012.9 mb 0.00 in0.0 mm 0.00 in0.0 mm 0.00 in0.0 mm
08:37 AM 81.0°F27.2°C 72.5°F22.5°C 75% 6.1 mph N9.8 kmh N 7.6 mph12.2 kmh 29.91 in1012.9 mb 0.00 in0.0 mm 0.00 in0.0 mm 0.00 in0.0 mm
08:36 AM 80.9°F27.2°C 72.3°F22.4°C 75% 3.5 mph N5.6 kmh N 10.1 mph16.3 kmh 29.91 in1012.9 mb 0.00 in0.0 mm 0.00 in0.0 mm 0.00 in0.0 mm
08:35 AM 80.8°F27.1°C 72.5°F22.5°C 76% 3.6 mph N5.8 kmh N 7.6 mph12.2 kmh 29.91 in1012.9 mb 0.00 in0.0 mm 0.00 in0.0 mm 0.00 in0.0 mm
08:34 AM 80.8°F27.1°C 72.5°F22.5°C 76% 6.0 mph NNE9.7 kmh NNE 10.1 mph16.3 kmh 29.91 in1012.9 mb 0.00 in0.0 mm 0.00 in0.0 mm 0.00 in0.0 mm
08:33 AM 80.6°F27.0°C 72.3°F22.4°C 76% 4.2 mph N6.8 kmh N 7.6 mph12.2 kmh 29.91 in1012.9 mb 0.00 in0.0 mm 0.00 in0.0 mm 0.00 in0.0 mm
08:32 AM 80.6°F27.0°C 72.3°F22.4°C 76% 6.6 mph N10.6 kmh N 10.1 mph16.3 kmh 29.91 in1012.9 mb 0.00 in0.0 mm 0.00 in0.0 mm 0.00 in0.0 mm
08:31 AM 80.4°F26.9°C 72.1°F22.3°C 76% 5.5 mph N8.9 kmh N 7.6 mph12.2 kmh 29.91 in1012.9 mb 0.00 in0.0 mm 0.00 in0.0 mm 0.00 in0.0 mm
08:30 AM 80.4°F26.9°C 72.2°F22.3°C 76% 4.7 mph N7.6 kmh N 7.6 mph12.2 kmh 29.91 in1012.9 mb 0.00 in0.0 mm 0.00 in0.0 mm 0.00 in0.0 mm
08:29 AM 80.3°F26.8°C 72.6°F22.6°C 77% 4.8 mph NNE7.7 kmh NNE 7.6 mph12.2 kmh 29.91 in1012.9 mb 0.00 in0.0 mm 0.00 in0.0 mm 0.00 in0.0 mm
08:28 AM 80.2°F26.8°C 72.5°F22.5°C 77% 4.0 mph NNE6.4 kmh NNE 7.6 mph12.2 kmh 29.91 in1012.9 mb 0.00 in0.0 mm 0.00 in0.0 mm 0.00 in0.0 mm
08:27 AM 80.2°F26.8°C 72.5°F22.5°C 77% 3.7 mph N6.0 kmh N 7.6 mph12.2 kmh 29.90 in1012.5 mb 0.00 in0.0 mm 0.00 in0.0 mm 0.00 in0.0 mm
08:26 AM 80.1°F26.7°C 72.3°F22.4°C 77% 2.4 mph NNE3.9 kmh NNE 4.9 mph7.9 kmh 29.91 in1012.9 mb 0.00 in0.0 mm 0.00 in0.0 mm 0.00 in0.0 mm
08:25 AM 80.1°F26.7°C 72.5°F22.5°C 77% 4.5 mph NNE7.2 kmh NNE 7.6 mph12.2 kmh 29.91 in1012.9 mb 0.00 in0.0 mm 0.00 in0.0 mm 0.00 in0.0 mm
08:24 AM 80.0°F26.7°C 72.7°F22.6°C 78% 3.0 mph N4.8 kmh N 7.6 mph12.2 kmh 29.91 in1012.9 mb 0.00 in0.0 mm 0.00 in0.0 mm 0.00 in0.0 mm
08:23 AM 79.9°F26.6°C 72.9°F22.7°C 79% 3.9 mph N6.3 kmh N 7.6 mph12.2 kmh 29.91 in1012.9 mb 0.00 in0.0 mm 0.00 in0.0 mm 0.00 in0.0 mm
08:22 AM 79.9°F26.6°C 72.9°F22.7°C 79% 4.2 mph NNW6.8 kmh NNW 7.6 mph12.2 kmh 29.91 in1012.9 mb 0.00 in0.0 mm 0.00 in0.0 mm 0.00 in0.0 mm
08:21 AM 79.7°F26.5°C 72.7°F22.6°C 79% 4.7 mph N7.6 kmh N 7.6 mph12.2 kmh 29.91 in1012.9 mb 0.00 in0.0 mm 0.00 in0.0 mm 0.00 in0.0 mm
08:20 AM 79.7°F26.5°C 72.7°F22.6°C 79% 3.1 mph N5.0 kmh N 7.6 mph12.2 kmh 29.91 in1012.9 mb 0.00 in0.0 mm 0.00 in0.0 mm 0.00 in0.0 mm
08:19 AM 79.7°F26.5°C 72.7°F22.6°C 79% 4.4 mph N7.1 kmh N 4.9 mph7.9 kmh 29.91 in1012.9 mb 0.00 in0.0 mm 0.00 in0.0 mm 0.00 in0.0 mm
08:18 AM 79.6°F26.4°C 72.6°F22.6°C 79% 4.4 mph N7.1 kmh N 7.6 mph12.2 kmh 29.91 in1012.9 mb 0.00 in0.0 mm 0.00 in0.0 mm 0.00 in0.0 mm
08:17 AM 79.5°F26.4°C 72.9°F22.7°C 80% 3.0 mph N4.8 kmh N 7.6 mph12.2 kmh 29.91 in1012.9 mb 0.00 in0.0 mm 0.00 in0.0 mm 0.00 in0.0 mm
08:16 AM 79.5°F26.4°C 72.9°F22.7°C 80% 4.3 mph NNW6.9 kmh NNW 7.6 mph12.2 kmh 29.91 in1012.9 mb 0.00 in0.0 mm 0.00 in0.0 mm 0.00 in0.0 mm
08:15 AM 79.4°F26.3°C 72.8°F22.7°C 80% 3.4 mph NNE5.5 kmh NNE 4.9 mph7.9 kmh 29.90 in1012.5 mb 0.00 in0.0 mm 0.00 in0.0 mm 0.00 in0.0 mm
08:14 AM 79.3°F26.3°C 72.7°F22.6°C 80% 3.4 mph NNW5.5 kmh NNW 4.9 mph7.9 kmh 29.90 in1012.5 mb 0.00 in0.0 mm 0.00 in0.0 mm 0.00 in0.0 mm
08:13 AM 79.3°F26.3°C 72.7°F22.6°C 80% 3.6 mph NNE5.8 kmh NNE 4.9 mph7.9 kmh 29.90 in1012.5 mb 0.00 in0.0 mm 0.00 in0.0 mm 0.00 in0.0 mm
08:12 AM 79.3°F26.3°C 72.7°F22.6°C 80% 3.1 mph NNE5.0 kmh NNE 4.9 mph7.9 kmh 29.91 in1012.9 mb 0.00 in0.0 mm 0.00 in0.0 mm 0.00 in0.0 mm
08:11 AM 79.2°F26.2°C 72.5°F22.5°C 80% 3.6 mph N5.8 kmh N 4.9 mph7.9 kmh 29.91 in1012.9 mb 0.00 in0.0 mm 0.00 in0.0 mm 0.00 in0.0 mm
08:10 AM 79.2°F26.2°C 72.7°F22.6°C 80% 5.3 mph N8.5 kmh N 7.6 mph12.2 kmh 29.90 in1012.5 mb 0.00 in0.0 mm 0.00 in0.0 mm 0.00 in0.0 mm
08:09 AM 79.2°F26.2°C 72.9°F22.7°C 81% 3.5 mph N5.6 kmh N 7.6 mph12.2 kmh 29.90 in1012.5 mb 0.00 in0.0 mm 0.00 in0.0 mm 0.00 in0.0 mm
08:08 AM 79.1°F26.2°C 72.8°F22.7°C 81% 4.2 mph N6.8 kmh N 10.1 mph16.3 kmh 29.90 in1012.5 mb 0.00 in0.0 mm 0.00 in0.0 mm 0.00 in0.0 mm
08:07 AM 79.0°F26.1°C 72.7°F22.6°C 81% 4.2 mph NW6.8 kmh NW 10.1 mph16.3 kmh 29.90 in1012.5 mb 0.00 in0.0 mm 0.00 in0.0 mm 0.00 in0.0 mm
08:06 AM 79.0°F26.1°C 72.7°F22.6°C 81% 3.7 mph NW6.0 kmh NW 7.6 mph12.2 kmh 29.90 in1012.5 mb 0.00 in0.0 mm 0.00 in0.0 mm 0.00 in0.0 mm
08:05 AM 79.0°F26.1°C 72.7°F22.6°C 81% 4.5 mph NNE7.2 kmh NNE 7.6 mph12.2 kmh 29.90 in1012.5 mb 0.00 in0.0 mm 0.00 in0.0 mm 0.00 in0.0 mm
08:04 AM 79.0°F26.1°C 72.7°F22.6°C 81% 4.1 mph N6.6 kmh N 7.6 mph12.2 kmh 29.90 in1012.5 mb 0.00 in0.0 mm 0.00 in0.0 mm 0.00 in0.0 mm
08:03 AM 78.8°F26.0°C 72.5°F22.5°C 81% 3.2 mph N5.1 kmh N 4.9 mph7.9 kmh 29.90 in1012.5 mb 0.00 in0.0 mm 0.00 in0.0 mm 0.00 in0.0 mm
08:02 AM 78.8°F26.0°C 72.6°F22.6°C 81% 3.9 mph N6.3 kmh N 4.9 mph7.9 kmh 29.90 in1012.5 mb 0.00 in0.0 mm 0.00 in0.0 mm 0.00 in0.0 mm
08:01 AM 78.8°F26.0°C 72.9°F22.7°C 82% 3.6 mph NNW5.8 kmh NNW 4.9 mph7.9 kmh 29.90 in1012.5 mb 0.00 in0.0 mm 0.00 in0.0 mm 0.00 in0.0 mm
08:00 AM 78.8°F26.0°C 72.9°F22.7°C 82% 3.8 mph N6.1 kmh N 7.6 mph12.2 kmh 29.90 in1012.5 mb 0.00 in0.0 mm 0.00 in0.0 mm 0.00 in0.0 mm
07:59 AM 78.8°F26.0°C 72.9°F22.7°C 82% 6.0 mph N9.7 kmh N 7.6 mph12.2 kmh 29.90 in1012.5 mb 0.00 in0.0 mm 0.00 in0.0 mm 0.00 in0.0 mm
07:58 AM 78.7°F25.9°C 72.8°F22.7°C 82% 3.6 mph N5.8 kmh N 4.9 mph7.9 kmh 29.90 in1012.5 mb 0.00 in0.0 mm 0.00 in0.0 mm 0.00 in0.0 mm
07:57 AM 78.6°F25.9°C 72.7°F22.6°C 82% 4.1 mph N6.6 kmh N 4.9 mph7.9 kmh 29.90 in1012.5 mb 0.00 in0.0 mm 0.00 in0.0 mm 0.00 in0.0 mm
07:56 AM 78.6°F25.9°C 72.7°F22.6°C 82% 2.4 mph NW3.9 kmh NW 4.9 mph7.9 kmh 29.90 in1012.5 mb 0.00 in0.0 mm 0.00 in0.0 mm 0.00 in0.0 mm
07:55 AM 78.6°F25.9°C 72.7°F22.6°C 82% 3.4 mph N5.5 kmh N 7.6 mph12.2 kmh 29.90 in1012.5 mb 0.00 in0.0 mm 0.00 in0.0 mm 0.00 in0.0 mm
07:54 AM 78.6°F25.9°C 72.7°F22.6°C 82% 5.5 mph N8.9 kmh N 7.6 mph12.2 kmh 29.90 in1012.5 mb 0.00 in0.0 mm 0.00 in0.0 mm 0.00 in0.0 mm
07:53 AM 78.6°F25.9°C 72.8°F22.7°C 82% 5.1 mph N8.2 kmh N 7.6 mph12.2 kmh 29.90 in1012.5 mb 0.00 in0.0 mm 0.00 in0.0 mm 0.00 in0.0 mm
07:52 AM 78.6°F25.9°C 72.9°F22.7°C 83% 5.1 mph NNW8.2 kmh NNW 7.6 mph12.2 kmh 29.90 in1012.5 mb 0.00 in0.0 mm 0.00 in0.0 mm 0.00 in0.0 mm
07:51 AM 78.6°F25.9°C 73.0°F22.8°C 83% 5.6 mph N9.0 kmh N 7.6 mph12.2 kmh 29.89 in1012.2 mb 0.00 in0.0 mm 0.00 in0.0 mm 0.00 in0.0 mm
07:50 AM 78.6°F25.9°C 73.0°F22.8°C 83% 6.1 mph NNE9.8 kmh NNE 10.1 mph16.3 kmh 29.90 in1012.5 mb 0.00 in0.0 mm 0.00 in0.0 mm 0.00 in0.0 mm
07:49 AM 78.4°F25.8°C 72.9°F22.7°C 83% 6.4 mph N10.3 kmh N 10.1 mph16.3 kmh 29.90 in1012.5 mb 0.00 in0.0 mm 0.00 in0.0 mm 0.00 in0.0 mm
07:48 AM 78.4°F25.8°C 72.9°F22.7°C 83% 3.7 mph NW6.0 kmh NW 7.6 mph12.2 kmh 29.89 in1012.2 mb 0.00 in0.0 mm 0.00 in0.0 mm 0.00 in0.0 mm
07:47 AM 78.4°F25.8°C 72.9°F22.7°C 83% 3.4 mph NW5.5 kmh NW 4.9 mph7.9 kmh 29.90 in1012.5 mb 0.00 in0.0 mm 0.00 in0.0 mm 0.00 in0.0 mm
07:46 AM 78.4°F25.8°C 72.9°F22.7°C 83% 3.6 mph NW5.8 kmh NW 7.6 mph12.2 kmh 29.90 in1012.5 mb 0.00 in0.0 mm 0.00 in0.0 mm 0.00 in0.0 mm
07:45 AM 78.4°F25.8°C 73.0°F22.8°C 83% 4.0 mph N6.4 kmh N 4.9 mph7.9 kmh 29.89 in1012.2 mb 0.00 in0.0 mm 0.00 in0.0 mm 0.00 in0.0 mm
07:44 AM 78.4°F25.8°C 73.0°F22.8°C 83% 3.9 mph NNW6.3 kmh NNW 7.6 mph12.2 kmh 29.89 in1012.2 mb 0.00 in0.0 mm 0.00 in0.0 mm 0.00 in0.0 mm
07:43 AM 78.4°F25.8°C 73.0°F22.8°C 83% 3.9 mph NW6.3 kmh NW 7.6 mph12.2 kmh 29.89 in1012.2 mb 0.00 in0.0 mm 0.00 in0.0 mm 0.00 in0.0 mm
07:42 AM 78.4°F25.8°C 73.2°F22.9°C 84% 3.5 mph NNW5.6 kmh NNW 7.6 mph12.2 kmh 29.89 in1012.2 mb 0.00 in0.0 mm 0.00 in0.0 mm 0.00 in0.0 mm
07:41 AM 78.4°F25.8°C 73.2°F22.9°C 84% 5.6 mph NW9.0 kmh NW 7.6 mph12.2 kmh 29.89 in1012.2 mb 0.00 in0.0 mm 0.00 in0.0 mm 0.00 in0.0 mm
07:40 AM 78.4°F25.8°C 73.2°F22.9°C 84% 5.5 mph NW8.9 kmh NW 10.1 mph16.3 kmh 29.90 in1012.5 mb 0.00 in0.0 mm 0.00 in0.0 mm 0.00 in0.0 mm
07:39 AM 78.4°F25.8°C 73.2°F22.9°C 84% 4.8 mph NW7.7 kmh NW 7.6 mph12.2 kmh 29.89 in1012.2 mb 0.00 in0.0 mm 0.00 in0.0 mm 0.00 in0.0 mm
07:38 AM 78.4°F25.8°C 73.2°F22.9°C 84% 5.4 mph NW8.7 kmh NW 7.6 mph12.2 kmh 29.89 in1012.2 mb 0.00 in0.0 mm 0.00 in0.0 mm 0.00 in0.0 mm
07:37 AM 78.4°F25.8°C 73.0°F22.8°C 83% 6.6 mph NW10.6 kmh NW 10.1 mph16.3 kmh 29.89 in1012.2 mb 0.00 in0.0 mm 0.00 in0.0 mm 0.00 in0.0 mm
07:36 AM 78.4°F25.8°C 73.1°F22.8°C 84% 6.0 mph NW9.7 kmh NW 7.6 mph12.2 kmh 29.89 in1012.2 mb 0.00 in0.0 mm 0.00 in0.0 mm 0.00 in0.0 mm
07:35 AM 78.4°F25.8°C 73.2°F22.9°C 84% 3.9 mph NW6.3 kmh NW 7.6 mph12.2 kmh 29.89 in1012.2 mb 0.00 in0.0 mm 0.00 in0.0 mm 0.00 in0.0 mm
07:34 AM 78.4°F25.8°C 73.2°F22.9°C 84% 3.6 mph NNW5.8 kmh NNW 4.9 mph7.9 kmh 29.89 in1012.2 mb 0.00 in0.0 mm 0.00 in0.0 mm 0.00 in0.0 mm
07:33 AM 78.4°F25.8°C 73.2°F22.9°C 84% 4.1 mph NW6.6 kmh NW 12.5 mph20.1 kmh 29.89 in1012.2 mb 0.00 in0.0 mm 0.00 in0.0 mm 0.00 in0.0 mm
07:32 AM 78.4°F25.8°C 73.2°F22.9°C 84% 7.0 mph NW11.3 kmh NW 12.5 mph20.1 kmh 29.89 in1012.2 mb 0.00 in0.0 mm 0.00 in0.0 mm 0.00 in0.0 mm
07:31 AM 78.4°F25.8°C 73.2°F22.9°C 84% 4.5 mph W7.2 kmh W 7.6 mph12.2 kmh 29.89 in1012.2 mb 0.00 in0.0 mm 0.00 in0.0 mm 0.00 in0.0 mm
07:30 AM 78.4°F25.8°C 73.2°F22.9°C 84% 3.8 mph NW6.1 kmh NW 7.6 mph12.2 kmh 29.89 in1012.2 mb 0.00 in0.0 mm 0.00 in0.0 mm 0.00 in0.0 mm
07:29 AM 78.4°F25.8°C 73.2°F22.9°C 84% 7.1 mph WNW11.4 kmh WNW 10.1 mph16.3 kmh 29.89 in1012.2 mb 0.00 in0.0 mm 0.00 in0.0 mm 0.00 in0.0 mm
07:28 AM 78.4°F25.8°C 73.2°F22.9°C 84% 4.7 mph NW7.6 kmh NW 7.6 mph12.2 kmh 29.89 in1012.2 mb 0.00 in0.0 mm 0.00 in0.0 mm 0.00 in0.0 mm
07:27 AM 78.4°F25.8°C 73.2°F22.9°C 84% 4.8 mph NNW7.7 kmh NNW 7.6 mph12.2 kmh 29.89 in1012.2 mb 0.00 in0.0 mm 0.00 in0.0 mm 0.00 in0.0 mm
07:26 AM 78.3°F25.7°C 73.0°F22.8°C 84% 4.4 mph NW7.1 kmh NW 7.6 mph12.2 kmh 29.89 in1012.2 mb 0.00 in0.0 mm 0.00 in0.0 mm 0.00 in0.0 mm
07:25 AM 78.3°F25.7°C 73.0°F22.8°C 84% 3.9 mph NW6.3 kmh NW 7.6 mph12.2 kmh 29.89 in1012.2 mb 0.00 in0.0 mm 0.00 in0.0 mm 0.00 in0.0 mm
07:24 AM 78.3°F25.7°C 73.0°F22.8°C 84% 3.2 mph NNW5.1 kmh NNW 4.9 mph7.9 kmh 29.89 in1012.2 mb 0.00 in0.0 mm 0.00 in0.0 mm 0.00 in0.0 mm
07:23 AM 78.3°F25.7°C 73.0°F22.8°C 84% 4.7 mph N7.6 kmh N 7.6 mph12.2 kmh 29.89 in1012.2 mb 0.00 in0.0 mm 0.00 in0.0 mm 0.00 in0.0 mm
07:22 AM 78.3°F25.7°C 73.0°F22.8°C 84% 4.2 mph NNW6.8 kmh NNW 7.6 mph12.2 kmh 29.89 in1012.2 mb 0.00 in0.0 mm 0.00 in0.0 mm 0.00 in0.0 mm
07:21 AM 78.3°F25.7°C 73.0°F22.8°C 84% 3.0 mph N4.8 kmh N 4.9 mph7.9 kmh 29.89 in1012.2 mb 0.00 in0.0 mm 0.00 in0.0 mm 0.00 in0.0 mm
07:20 AM 78.3°F25.7°C 73.0°F22.8°C 84% 3.3 mph NW5.3 kmh NW 7.6 mph12.2 kmh 29.88 in1011.9 mb 0.00 in0.0 mm 0.00 in0.0 mm 0.00 in0.0 mm
07:19 AM 78.3°F25.7°C 73.0°F22.8°C 84% 3.6 mph W5.8 kmh W 7.6 mph12.2 kmh 29.88 in1011.9 mb 0.00 in0.0 mm 0.00 in0.0 mm 0.00 in0.0 mm
07:18 AM 78.3°F25.7°C 73.0°F22.8°C 84% 1.7 mph NW2.7 kmh NW 2.5 mph4.0 kmh 29.88 in1011.9 mb 0.00 in0.0 mm 0.00 in0.0 mm 0.00 in0.0 mm
07:17 AM 78.3°F25.7°C 73.0°F22.8°C 84% 3.5 mph N5.6 kmh N 4.9 mph7.9 kmh 29.88 in1011.9 mb 0.00 in0.0 mm 0.00 in0.0 mm 0.00 in0.0 mm
07:16 AM 78.3°F25.7°C 73.0°F22.8°C 84% 3.8 mph WNW6.1 kmh WNW 7.6 mph12.2 kmh 29.88 in1011.9 mb 0.00 in0.0 mm 0.00 in0.0 mm 0.00 in0.0 mm
07:15 AM 78.3°F25.7°C 73.0°F22.8°C 84% 4.6 mph NNW7.4 kmh NNW 7.6 mph12.2 kmh 29.88 in1011.9 mb 0.00 in0.0 mm 0.00 in0.0 mm 0.00 in0.0 mm
07:14 AM 78.3°F25.7°C 73.0°F22.8°C 84% 4.2 mph N6.8 kmh N 7.6 mph12.2 kmh 29.88 in1011.9 mb 0.00 in0.0 mm 0.00 in0.0 mm 0.00 in0.0 mm
07:13 AM 78.3°F25.7°C 73.0°F22.8°C 84% 2.9 mph N4.7 kmh N 4.9 mph7.9 kmh 29.88 in1011.9 mb 0.00 in0.0 mm 0.00 in0.0 mm 0.00 in0.0 mm
07:12 AM 78.2°F25.7°C 73.0°F22.8°C 84% 4.1 mph N6.6 kmh N 7.6 mph12.2 kmh 29.88 in1011.9 mb 0.00 in0.0 mm 0.00 in0.0 mm 0.00 in0.0 mm
07:11 AM 78.1°F25.6°C 72.9°F22.7°C 84% 5.1 mph N8.2 kmh N 7.6 mph12.2 kmh 29.88 in1011.9 mb 0.00 in0.0 mm 0.00 in0.0 mm 0.00 in0.0 mm
07:10 AM 78.1°F25.6°C 72.9°F22.7°C 84% 4.9 mph N7.9 kmh N 7.6 mph12.2 kmh 29.88 in1011.9 mb 0.00 in0.0 mm 0.00 in0.0 mm 0.00 in0.0 mm
07:09 AM 78.1°F25.6°C 73.0°F22.8°C 84% 2.8 mph N4.5 kmh N 4.9 mph7.9 kmh 29.88 in1011.9 mb 0.00 in0.0 mm 0.00 in0.0 mm 0.00 in0.0 mm
07:08 AM 78.1°F25.6°C 73.1°F22.8°C 85% 2.6 mph NW4.2 kmh NW 4.9 mph7.9 kmh 29.88 in1011.9 mb 0.00 in0.0 mm 0.00 in0.0 mm 0.00 in0.0 mm
07:07 AM 78.1°F25.6°C 73.0°F22.8°C 84% 4.0 mph NW6.4 kmh NW 7.6 mph12.2 kmh 29.88 in1011.9 mb 0.00 in0.0 mm 0.00 in0.0 mm 0.00 in0.0 mm
07:06 AM 78.1°F25.6°C 72.9°F22.7°C 84% 3.4 mph NW5.5 kmh NW 4.9 mph7.9 kmh 29.87 in1011.5 mb 0.00 in0.0 mm 0.00 in0.0 mm 0.00 in0.0 mm
07:05 AM 78.1°F25.6°C 72.9°F22.7°C 84% 4.4 mph NW7.1 kmh NW 7.6 mph12.2 kmh 29.87 in1011.5 mb 0.00 in0.0 mm 0.00 in0.0 mm 0.00 in0.0 mm
07:04 AM 78.1°F25.6°C 72.9°F22.7°C 84% 4.7 mph NW7.6 kmh NW 7.6 mph12.2 kmh 29.87 in1011.5 mb 0.00 in0.0 mm 0.00 in0.0 mm 0.00 in0.0 mm
07:03 AM 78.1°F25.6°C 72.9°F22.7°C 84% 4.3 mph NW6.9 kmh NW 7.6 mph12.2 kmh 29.87 in1011.5 mb 0.00 in0.0 mm 0.00 in0.0 mm 0.00 in0.0 mm
07:02 AM 78.1°F25.6°C 72.9°F22.7°C 84% 2.3 mph N3.7 kmh N 2.5 mph4.0 kmh 29.87 in1011.5 mb 0.00 in0.0 mm 0.00 in0.0 mm 0.00 in0.0 mm
07:01 AM 78.1°F25.6°C 72.9°F22.7°C 84% 1.2 mph NW1.9 kmh NW 2.5 mph4.0 kmh 29.87 in1011.5 mb 0.00 in0.0 mm 0.00 in0.0 mm 0.00 in0.0 mm
07:00 AM 77.9°F25.5°C 72.7°F22.6°C 84% 1.7 mph NNW2.7 kmh NNW 4.9 mph7.9 kmh 29.87 in1011.5 mb 0.00 in0.0 mm 0.00 in0.0 mm 0.00 in0.0 mm
06:59 AM 77.9°F25.5°C 72.8°F22.7°C 84% 3.8 mph N6.1 kmh N 7.6 mph12.2 kmh 29.87 in1011.5 mb 0.00 in0.0 mm 0.00 in0.0 mm 0.00 in0.0 mm
06:58 AM 77.9°F25.5°C 72.8°F22.7°C 84% 1.2 mph N1.9 kmh N 2.5 mph4.0 kmh 29.87 in1011.5 mb 0.00 in0.0 mm 0.00 in0.0 mm 0.00 in0.0 mm
06:57 AM 77.9°F25.5°C 73.0°F22.8°C 85% 0.7 mph N1.1 kmh N 2.5 mph4.0 kmh 29.87 in1011.5 mb 0.00 in0.0 mm 0.00 in0.0 mm 0.00 in0.0 mm
06:56 AM 77.9°F25.5°C 73.0°F22.8°C 85% 1.9 mph NNW3.1 kmh NNW 4.9 mph7.9 kmh 29.87 in1011.5 mb 0.00 in0.0 mm 0.00 in0.0 mm 0.00 in0.0 mm
06:55 AM 77.9°F25.5°C 73.0°F22.8°C 85% 5.3 mph NNW8.5 kmh NNW 7.6 mph12.2 kmh 29.87 in1011.5 mb 0.00 in0.0 mm 0.00 in0.0 mm 0.00 in0.0 mm
06:54 AM 77.9°F25.5°C 73.0°F22.8°C 85% 2.9 mph NW4.7 kmh NW 4.9 mph7.9 kmh 29.87 in1011.5 mb 0.00 in0.0 mm 0.00 in0.0 mm 0.00 in0.0 mm
06:53 AM 77.9°F25.5°C 73.0°F22.8°C 85% 4.6 mph N7.4 kmh N 7.6 mph12.2 kmh 29.87 in1011.5 mb 0.00 in0.0 mm 0.00 in0.0 mm 0.00 in0.0 mm
06:52 AM 77.9°F25.5°C 73.0°F22.8°C 85% 3.7 mph NNW6.0 kmh NNW 4.9 mph7.9 kmh 29.87 in1011.5 mb 0.00 in0.0 mm 0.00 in0.0 mm 0.00 in0.0 mm
06:51 AM 77.9°F25.5°C 73.0°F22.8°C 85% 2.7 mph N4.3 kmh N 4.9 mph7.9 kmh 29.87 in1011.5 mb 0.00 in0.0 mm 0.00 in0.0 mm 0.00 in0.0 mm
06:50 AM 77.9°F25.5°C 73.0°F22.8°C 85% 3.4 mph NNE5.5 kmh NNE 4.9 mph7.9 kmh 29.87 in1011.5 mb 0.00 in0.0 mm 0.00 in0.0 mm 0.00 in0.0 mm
06:49 AM 77.9°F25.5°C 73.0°F22.8°C 85% 3.3 mph N5.3 kmh N 7.6 mph12.2 kmh 29.87 in1011.5 mb 0.00 in0.0 mm 0.00 in0.0 mm 0.00 in0.0 mm
06:48 AM 77.9°F25.5°C 73.0°F22.8°C 85% 4.1 mph NNE6.6 kmh NNE 7.6 mph12.2 kmh 29.87 in1011.5 mb 0.00 in0.0 mm 0.00 in0.0 mm 0.00 in0.0 mm
06:47 AM 77.9°F25.5°C 73.0°F22.8°C 85% 4.6 mph NNE7.4 kmh NNE 7.6 mph12.2 kmh 29.87 in1011.5 mb 0.00 in0.0 mm 0.00 in0.0 mm 0.00 in0.0 mm
06:46 AM 77.9°F25.5°C 73.0°F22.8°C 85% 4.2 mph N6.8 kmh N 4.9 mph7.9 kmh 29.87 in1011.5 mb 0.00 in0.0 mm 0.00 in0.0 mm 0.00 in0.0 mm
06:45 AM 77.9°F25.5°C 73.0°F22.8°C 85% 4.0 mph NNE6.4 kmh NNE 7.6 mph12.2 kmh 29.87 in1011.5 mb 0.00 in0.0 mm 0.00 in0.0 mm 0.00 in0.0 mm
06:44 AM 77.9°F25.5°C 73.0°F22.8°C 85% 4.4 mph NNE7.1 kmh NNE 7.6 mph12.2 kmh 29.87 in1011.5 mb 0.00 in0.0 mm 0.00 in0.0 mm 0.00 in0.0 mm
06:43 AM 77.9°F25.5°C 73.0°F22.8°C 85% 2.4 mph NNE3.9 kmh NNE 4.9 mph7.9 kmh 29.87 in1011.5 mb 0.00 in0.0 mm 0.00 in0.0 mm 0.00 in0.0 mm
06:42 AM 77.9°F25.5°C 73.0°F22.8°C 85% 2.5 mph NNE4.0 kmh NNE 4.9 mph7.9 kmh 29.87 in1011.5 mb 0.00 in0.0 mm 0.00 in0.0 mm 0.00 in0.0 mm
06:41 AM 77.7°F25.4°C 72.9°F22.7°C 85% 3.1 mph NNE5.0 kmh NNE 4.9 mph7.9 kmh 29.87 in1011.5 mb 0.00 in0.0 mm 0.00 in0.0 mm 0.00 in0.0 mm
06:40 AM 77.7°F25.4°C 72.9°F22.7°C 85% 2.3 mph N3.7 kmh N 4.9 mph7.9 kmh 29.87 in1011.5 mb 0.00 in0.0 mm 0.00 in0.0 mm 0.00 in0.0 mm
06:39 AM 77.7°F25.4°C 72.9°F22.7°C 85% 4.0 mph N6.4 kmh N 7.6 mph12.2 kmh 29.87 in1011.5 mb 0.00 in0.0 mm 0.00 in0.0 mm 0.00 in0.0 mm
06:38 AM 77.7°F25.4°C 72.9°F22.7°C 85% 2.2 mph NW3.5 kmh NW 4.9 mph7.9 kmh 29.87 in1011.5 mb 0.00 in0.0 mm 0.00 in0.0 mm 0.00 in0.0 mm
06:37 AM 77.7°F25.4°C 72.9°F22.7°C 85% 3.0 mph N4.8 kmh N 4.9 mph7.9 kmh 29.87 in1011.5 mb 0.00 in0.0 mm 0.00 in0.0 mm 0.00 in0.0 mm
06:36 AM 77.7°F25.4°C 73.0°F22.8°C 85% 1.2 mph N1.9 kmh N 2.5 mph4.0 kmh 29.86 in1011.2 mb 0.00 in0.0 mm 0.00 in0.0 mm 0.00 in0.0 mm
06:35 AM 77.7°F25.4°C 73.0°F22.8°C 85% 2.0 mph NW3.2 kmh NW 4.9 mph7.9 kmh 29.86 in1011.2 mb 0.00 in0.0 mm 0.00 in0.0 mm 0.00 in0.0 mm
06:34 AM 77.7°F25.4°C 72.9°F22.7°C 85% 3.1 mph NW5.0 kmh NW 4.9 mph7.9 kmh 29.87 in1011.5 mb 0.00 in0.0 mm 0.00 in0.0 mm 0.00 in0.0 mm
06:33 AM 77.7°F25.4°C 72.9°F22.7°C 85% 2.9 mph NNW4.7 kmh NNW 4.9 mph7.9 kmh 29.87 in1011.5 mb 0.00 in0.0 mm 0.00 in0.0 mm 0.00 in0.0 mm
06:32 AM 77.7°F25.4°C 72.9°F22.7°C 85% 1.7 mph NW2.7 kmh NW 4.9 mph7.9 kmh 29.86 in1011.2 mb 0.00 in0.0 mm 0.00 in0.0 mm 0.00 in0.0 mm
06:31 AM 77.7°F25.4°C 72.9°F22.7°C 85% 2.3 mph NW3.7 kmh NW 7.6 mph12.2 kmh 29.86 in1011.2 mb 0.00 in0.0 mm 0.00 in0.0 mm 0.00 in0.0 mm
06:30 AM 77.7°F25.4°C 72.9°F22.7°C 85% 1.6 mph NW2.6 kmh NW 2.5 mph4.0 kmh 29.86 in1011.2 mb 0.00 in0.0 mm 0.00 in0.0 mm 0.00 in0.0 mm
06:29 AM 77.7°F25.4°C 72.9°F22.7°C 85% 1.9 mph NW3.1 kmh NW 4.9 mph7.9 kmh 29.86 in1011.2 mb 0.00 in0.0 mm 0.00 in0.0 mm 0.00 in0.0 mm
06:28 AM 77.7°F25.4°C 72.9°F22.7°C 85% 2.5 mph NW4.0 kmh NW 4.9 mph7.9 kmh 29.86 in1011.2 mb 0.00 in0.0 mm 0.00 in0.0 mm 0.00 in0.0 mm
06:27 AM 77.7°F25.4°C 72.9°F22.7°C 85% 2.1 mph N3.4 kmh N 7.6 mph12.2 kmh 29.86 in1011.2 mb 0.00 in0.0 mm 0.00 in0.0 mm 0.00 in0.0 mm
06:26 AM 77.7°F25.4°C 73.0°F22.8°C 85% 1.2 mph N1.9 kmh N 4.9 mph7.9 kmh 29.86 in1011.2 mb 0.00 in0.0 mm 0.00 in0.0 mm 0.00 in0.0 mm
06:25 AM 77.7°F25.4°C 73.1°F22.8°C 86% 2.0 mph N3.2 kmh N 4.9 mph7.9 kmh 29.87 in1011.5 mb 0.00 in0.0 mm 0.00 in0.0 mm 0.00 in0.0 mm
06:24 AM 77.7°F25.4°C 73.2°F22.9°C 86% 1.3 mph NNW2.1 kmh NNW 2.5 mph4.0 kmh 29.86 in1011.2 mb 0.00 in0.0 mm 0.00 in0.0 mm 0.00 in0.0 mm
06:23 AM 77.7°F25.4°C 73.2°F22.9°C 86% 0.3 mph NNW0.5 kmh NNW 2.5 mph4.0 kmh 29.86 in1011.2 mb 0.00 in0.0 mm 0.00 in0.0 mm 0.00 in0.0 mm
06:22 AM 77.7°F25.4°C 73.2°F22.9°C 86% 1.9 mph NNW3.1 kmh NNW 4.9 mph7.9 kmh 29.86 in1011.2 mb 0.00 in0.0 mm 0.00 in0.0 mm 0.00 in0.0 mm
06:21 AM 77.7°F25.4°C 73.2°F22.9°C 86% 1.2 mph N1.9 kmh N 2.5 mph4.0 kmh 29.86 in1011.2 mb 0.00 in0.0 mm 0.00 in0.0 mm 0.00 in0.0 mm
06:20 AM 77.7°F25.4°C 73.2°F22.9°C 86% 3.5 mph N5.6 kmh N 7.6 mph12.2 kmh 29.86 in1011.2 mb 0.00 in0.0 mm 0.00 in0.0 mm 0.00 in0.0 mm
06:19 AM 77.7°F25.4°C 73.2°F22.9°C 86% 2.4 mph N3.9 kmh N 4.9 mph7.9 kmh 29.86 in1011.2 mb 0.00 in0.0 mm 0.00 in0.0 mm 0.00 in0.0 mm
06:18 AM 77.7°F25.4°C 73.2°F22.9°C 86% 3.5 mph N5.6 kmh N 4.9 mph7.9 kmh 29.86 in1011.2 mb 0.00 in0.0 mm 0.00 in0.0 mm 0.00 in0.0 mm
06:17 AM 77.7°F25.4°C 73.2°F22.9°C 86% 4.0 mph N6.4 kmh N 4.9 mph7.9 kmh 29.86 in1011.2 mb 0.00 in0.0 mm 0.00 in0.0 mm 0.00 in0.0 mm
06:16 AM 77.7°F25.4°C 73.2°F22.9°C 86% 2.1 mph NNW3.4 kmh NNW 4.9 mph7.9 kmh 29.86 in1011.2 mb 0.00 in0.0 mm 0.00 in0.0 mm 0.00 in0.0 mm
06:15 AM 77.7°F25.4°C 73.2°F22.9°C 86% 2.3 mph 3.7 kmh 4.9 mph7.9 kmh 29.86 in1011.2 mb 0.00 in0.0 mm 0.00 in0.0 mm 0.00 in0.0 mm
06:14 AM 77.7°F25.4°C 73.2°F22.9°C 86% 2.6 mph N4.2 kmh N 4.9 mph7.9 kmh 29.86 in1011.2 mb 0.00 in0.0 mm 0.00 in0.0 mm 0.00 in0.0 mm
06:13 AM 77.7°F25.4°C 73.3°F22.9°C 86% 2.1 mph NNW3.4 kmh NNW 4.9 mph7.9 kmh 29.86 in1011.2 mb 0.00 in0.0 mm 0.00 in0.0 mm 0.00 in0.0 mm
06:12 AM 77.7°F25.4°C 73.5°F23.1°C 87% 0.3 mph N0.5 kmh N 2.5 mph4.0 kmh 29.86 in1011.2 mb 0.00 in0.0 mm 0.00 in0.0 mm 0.00 in0.0 mm
06:11 AM 77.7°F25.4°C 73.6°F23.1°C 87% 1.2 mph N1.9 kmh N 2.5 mph4.0 kmh 29.86 in1011.2 mb 0.00 in0.0 mm 0.00 in0.0 mm 0.00 in0.0 mm
06:10 AM 77.7°F25.4°C 73.6°F23.1°C 87% 2.2 mph NNE3.5 kmh NNE 4.9 mph7.9 kmh 29.86 in1011.2 mb 0.00 in0.0 mm 0.00 in0.0 mm 0.00 in0.0 mm
06:09 AM 77.7°F25.4°C 73.6°F23.1°C 87% 1.4 mph N2.3 kmh N 4.9 mph7.9 kmh 29.86 in1011.2 mb 0.00 in0.0 mm 0.00 in0.0 mm 0.00 in0.0 mm
06:08 AM 77.7°F25.4°C 73.6°F23.1°C 87% 1.9 mph N3.1 kmh N 2.5 mph4.0 kmh 29.86 in1011.2 mb 0.00 in0.0 mm 0.00 in0.0 mm 0.00 in0.0 mm
06:07 AM 77.7°F25.4°C 73.5°F23.1°C 87% 2.0 mph N3.2 kmh N 4.9 mph7.9 kmh 29.86 in1011.2 mb 0.00 in0.0 mm 0.00 in0.0 mm 0.00 in0.0 mm
06:06 AM 77.7°F25.4°C 73.2°F22.9°C 86% 3.4 mph NW5.5 kmh NW 4.9 mph7.9 kmh 29.86 in1011.2 mb 0.00 in0.0 mm 0.00 in0.0 mm 0.00 in0.0 mm
06:05 AM 77.7°F25.4°C 73.2°F22.9°C 86% 2.3 mph NNE3.7 kmh NNE 4.9 mph7.9 kmh 29.86 in1011.2 mb 0.00 in0.0 mm 0.00 in0.0 mm 0.00 in0.0 mm
06:04 AM 77.7°F25.4°C 73.2°F22.9°C 86% 1.8 mph NNW2.9 kmh NNW 4.9 mph7.9 kmh 29.86 in1011.2 mb 0.00 in0.0 mm 0.00 in0.0 mm 0.00 in0.0 mm
06:03 AM 77.7°F25.4°C 73.2°F22.9°C 86% 1.9 mph NW3.1 kmh NW 2.5 mph4.0 kmh 29.86 in1011.2 mb 0.00 in0.0 mm 0.00 in0.0 mm 0.00 in0.0 mm
06:02 AM 77.7°F25.4°C 73.2°F22.9°C 86% 3.5 mph NW5.6 kmh NW 4.9 mph7.9 kmh 29.86 in1011.2 mb 0.00 in0.0 mm 0.00 in0.0 mm 0.00 in0.0 mm
06:01 AM 77.7°F25.4°C 73.2°F22.9°C 86% 2.6 mph NW4.2 kmh NW 7.6 mph12.2 kmh 29.86 in1011.2 mb 0.00 in0.0 mm 0.00 in0.0 mm 0.00 in0.0 mm
06:00 AM 77.7°F25.4°C 73.2°F22.9°C 86% 2.6 mph NW4.2 kmh NW 4.9 mph7.9 kmh 29.86 in1011.2 mb 0.00 in0.0 mm 0.00 in0.0 mm 0.00 in0.0 mm
05:59 AM 77.7°F25.4°C 73.2°F22.9°C 86% 3.0 mph NNW4.8 kmh NNW 4.9 mph7.9 kmh 29.86 in1011.2 mb 0.00 in0.0 mm 0.00 in0.0 mm 0.00 in0.0 mm
05:58 AM 77.7°F25.4°C 73.2°F22.9°C 86% 2.9 mph N4.7 kmh N 4.9 mph7.9 kmh 29.85 in1010.8 mb 0.00 in0.0 mm 0.00 in0.0 mm 0.00 in0.0 mm
05:57 AM 77.7°F25.4°C 73.2°F22.9°C 86% 3.6 mph NW5.8 kmh NW 4.9 mph7.9 kmh 29.85 in1010.8 mb 0.00 in0.0 mm 0.00 in0.0 mm 0.00 in0.0 mm
05:56 AM 77.7°F25.4°C 73.2°F22.9°C 86% 2.5 mph NW4.0 kmh NW 4.9 mph7.9 kmh 29.85 in1010.8 mb 0.00 in0.0 mm 0.00 in0.0 mm 0.00 in0.0 mm
05:55 AM 77.7°F25.4°C 73.4°F23.0°C 86% 3.0 mph NNW4.8 kmh NNW 4.9 mph7.9 kmh 29.85 in1010.8 mb 0.00 in0.0 mm 0.00 in0.0 mm 0.00 in0.0 mm
05:54 AM 77.7°F25.4°C 73.6°F23.1°C 87% 2.0 mph N3.2 kmh N 4.9 mph7.9 kmh 29.85 in1010.8 mb 0.00 in0.0 mm 0.00 in0.0 mm 0.00 in0.0 mm
05:53 AM 77.7°F25.4°C 73.6°F23.1°C 87% 3.3 mph NW5.3 kmh NW 4.9 mph7.9 kmh 29.85 in1010.8 mb 0.00 in0.0 mm 0.00 in0.0 mm 0.00 in0.0 mm
05:52 AM 77.7°F25.4°C 73.6°F23.1°C 87% 1.8 mph NW2.9 kmh NW 2.5 mph4.0 kmh 29.85 in1010.8 mb 0.00 in0.0 mm 0.00 in0.0 mm 0.00 in0.0 mm
05:51 AM 77.7°F25.4°C 73.6°F23.1°C 87% 3.2 mph NW5.1 kmh NW 4.9 mph7.9 kmh 29.85 in1010.8 mb 0.00 in0.0 mm 0.00 in0.0 mm 0.00 in0.0 mm
05:50 AM 77.7°F25.4°C 73.6°F23.1°C 87% 3.8 mph NW6.1 kmh NW 4.9 mph7.9 kmh 29.85 in1010.8 mb 0.00 in0.0 mm 0.00 in0.0 mm 0.00 in0.0 mm
05:49 AM 77.7°F25.4°C 73.6°F23.1°C 87% 3.0 mph NW4.8 kmh NW 4.9 mph7.9 kmh 29.85 in1010.8 mb 0.00 in0.0 mm 0.00 in0.0 mm 0.00 in0.0 mm
05:48 AM 77.7°F25.4°C 73.5°F23.1°C 87% 1.3 mph NW2.1 kmh NW 2.5 mph4.0 kmh 29.85 in1010.8 mb 0.00 in0.0 mm 0.00 in0.0 mm 0.00 in0.0 mm
05:47 AM 77.7°F25.4°C 73.4°F23.0°C 87% 2.1 mph WNW3.4 kmh WNW 4.9 mph7.9 kmh 29.85 in1010.8 mb 0.00 in0.0 mm 0.00 in0.0 mm 0.00 in0.0 mm
05:46 AM 77.7°F25.4°C 73.2°F22.9°C 86% 2.4 mph NW3.9 kmh NW 4.9 mph7.9 kmh 29.85 in1010.8 mb 0.00 in0.0 mm 0.00 in0.0 mm 0.00 in0.0 mm
05:45 AM 77.7°F25.4°C 73.2°F22.9°C 86% 0.7 mph NW1.1 kmh NW 2.5 mph4.0 kmh 29.85 in1010.8 mb 0.00 in0.0 mm 0.00 in0.0 mm 0.00 in0.0 mm
05:44 AM 77.7°F25.4°C 73.2°F22.9°C 86% 0.9 mph NW1.4 kmh NW 2.5 mph4.0 kmh 29.85 in1010.8 mb 0.00 in0.0 mm 0.00 in0.0 mm 0.00 in0.0 mm
05:43 AM 77.7°F25.4°C 73.2°F22.9°C 86% 2.2 mph NNW3.5 kmh NNW 4.9 mph7.9 kmh 29.85 in1010.8 mb 0.00 in0.0 mm 0.00 in0.0 mm 0.00 in0.0 mm
05:42 AM 77.7°F25.4°C 73.2°F22.9°C 86% 0.1 mph NNW0.2 kmh NNW 2.5 mph4.0 kmh 29.85 in1010.8 mb 0.00 in0.0 mm 0.00 in0.0 mm 0.00 in0.0 mm
05:41 AM 77.7°F25.4°C 73.2°F22.9°C 86% Calm Calm -- 29.85 in1010.8 mb 0.00 in0.0 mm 0.00 in0.0 mm 0.00 in0.0 mm
05:40 AM 77.7°F25.4°C 73.2°F22.9°C 86% Calm Calm -- 29.85 in1010.8 mb 0.00 in0.0 mm 0.00 in0.0 mm 0.00 in0.0 mm
05:39 AM 77.7°F25.4°C 73.2°F22.9°C 86% Calm Calm -- 29.85 in1010.8 mb 0.00 in0.0 mm 0.00 in0.0 mm 0.00 in0.0 mm
05:38 AM 77.7°F25.4°C 73.2°F22.9°C 86% Calm Calm -- 29.85 in1010.8 mb 0.00 in0.0 mm 0.00 in0.0 mm 0.00 in0.0 mm
05:37 AM 77.7°F25.4°C 73.2°F22.9°C 86% 0.7 mph N1.1 kmh N 2.5 mph4.0 kmh 29.85 in1010.8 mb 0.00 in0.0 mm 0.00 in0.0 mm 0.00 in0.0 mm
05:36 AM 77.7°F25.4°C 73.2°F22.9°C 86% Calm Calm -- 29.85 in1010.8 mb 0.00 in0.0 mm 0.00 in0.0 mm 0.00 in0.0 mm
05:35 AM 77.7°F25.4°C 73.2°F22.9°C 86% 0.1 mph N0.2 kmh N 2.5 mph4.0 kmh 29.85 in1010.8 mb 0.00 in0.0 mm 0.00 in0.0 mm 0.00 in0.0 mm
05:34 AM 77.7°F25.4°C 73.2°F22.9°C 86% 0.8 mph NW1.3 kmh NW 4.9 mph7.9 kmh 29.85 in1010.8 mb 0.00 in0.0 mm 0.00 in0.0 mm 0.00 in0.0 mm
05:33 AM 77.7°F25.4°C 73.2°F22.9°C 86% 2.3 mph NNW3.7 kmh NNW 4.9 mph7.9 kmh 29.85 in1010.8 mb 0.00 in0.0 mm 0.00 in0.0 mm 0.00 in0.0 mm
05:32 AM 77.7°F25.4°C 73.2°F22.9°C 86% 1.7 mph N2.7 kmh N 2.5 mph4.0 kmh 29.85 in1010.8 mb 0.00 in0.0 mm 0.00 in0.0 mm 0.00 in0.0 mm
05:31 AM 77.7°F25.4°C 73.6°F23.1°C 87% 0.1 mph NNW0.2 kmh NNW 2.5 mph4.0 kmh 29.85 in1010.8 mb 0.00 in0.0 mm 0.00 in0.0 mm 0.00 in0.0 mm
05:30 AM 77.7°F25.4°C 73.6°F23.1°C 87% 0.1 mph N0.2 kmh N 2.5 mph4.0 kmh 29.85 in1010.8 mb 0.00 in0.0 mm 0.00 in0.0 mm 0.00 in0.0 mm
05:29 AM 77.7°F25.4°C 73.6°F23.1°C 87% Calm Calm -- 29.85 in1010.8 mb 0.00 in0.0 mm 0.00 in0.0 mm 0.00 in0.0 mm
05:28 AM 77.7°F25.4°C 73.6°F23.1°C 87% Calm Calm -- 29.85 in1010.8 mb 0.00 in0.0 mm 0.00 in0.0 mm 0.00 in0.0 mm
05:27 AM 77.5°F25.3°C 73.4°F23.0°C 87% Calm Calm -- 29.85 in1010.8 mb 0.00 in0.0 mm 0.00 in0.0 mm 0.00 in0.0 mm
05:26 AM 77.5°F25.3°C 73.4°F23.0°C 87% 0.2 mph N0.3 kmh N 2.5 mph4.0 kmh 29.85 in1010.8 mb 0.00 in0.0 mm 0.00 in0.0 mm 0.00 in0.0 mm
05:25 AM 77.5°F25.3°C 73.4°F23.0°C 87% Calm Calm 2.5 mph4.0 kmh 29.85 in1010.8 mb 0.00 in0.0 mm 0.00 in0.0 mm 0.00 in0.0 mm
05:24 AM 77.5°F25.3°C 73.4°F23.0°C 87% Calm Calm -- 29.85 in1010.8 mb 0.00 in0.0 mm 0.00 in0.0 mm 0.00 in0.0 mm
05:23 AM 77.5°F25.3°C 73.4°F23.0°C 87% 0.3 mph NNW0.5 kmh NNW 2.5 mph4.0 kmh 29.85 in1010.8 mb 0.00 in0.0 mm 0.00 in0.0 mm 0.00 in0.0 mm
05:22 AM 77.5°F25.3°C 73.4°F23.0°C 87% 0.9 mph N1.4 kmh N 2.5 mph4.0 kmh 29.85 in1010.8 mb 0.00 in0.0 mm 0.00 in0.0 mm 0.00 in0.0 mm
05:21 AM 77.5°F25.3°C 73.4°F23.0°C 87% Calm Calm -- 29.85 in1010.8 mb 0.00 in0.0 mm 0.00 in0.0 mm 0.00 in0.0 mm
05:20 AM 77.5°F25.3°C 73.4°F23.0°C 87% 0.4 mph NW0.6 kmh NW 2.5 mph4.0 kmh 29.85 in1010.8 mb 0.00 in0.0 mm 0.00 in0.0 mm 0.00 in0.0 mm
05:19 AM 77.5°F25.3°C 73.4°F23.0°C 87% 0.4 mph NW0.6 kmh NW 2.5 mph4.0 kmh 29.85 in1010.8 mb 0.00 in0.0 mm 0.00 in0.0 mm 0.00 in0.0 mm
05:18 AM 77.5°F25.3°C 73.4°F23.0°C 87% Calm Calm -- 29.85 in1010.8 mb 0.00 in0.0 mm 0.00 in0.0 mm 0.00 in0.0 mm
05:17 AM 77.5°F25.3°C 73.4°F23.0°C 87% Calm Calm -- 29.85 in1010.8 mb 0.00 in0.0 mm 0.00 in0.0 mm 0.00 in0.0 mm
05:16 AM 77.5°F25.3°C 73.4°F23.0°C 87% 0.4 mph N0.6 kmh N 2.5 mph4.0 kmh 29.85 in1010.8 mb 0.00 in0.0 mm 0.00 in0.0 mm 0.00 in0.0 mm
05:15 AM 77.5°F25.3°C 73.4°F23.0°C 87% 0.8 mph NE1.3 kmh NE 2.5 mph4.0 kmh 29.85 in1010.8 mb 0.00 in0.0 mm 0.00 in0.0 mm 0.00 in0.0 mm
05:14 AM 77.5°F25.3°C 73.4°F23.0°C 87% 0.4 mph NNE0.6 kmh NNE 2.5 mph4.0 kmh 29.85 in1010.8 mb 0.00 in0.0 mm 0.00 in0.0 mm 0.00 in0.0 mm
05:13 AM 77.5°F25.3°C 73.4°F23.0°C 87% 0.1 mph NNE0.2 kmh NNE 2.5 mph4.0 kmh 29.85 in1010.8 mb 0.00 in0.0 mm 0.00 in0.0 mm 0.00 in0.0 mm
05:12 AM 77.5°F25.3°C 73.4°F23.0°C 87% 0.9 mph NNE1.4 kmh NNE 4.9 mph7.9 kmh 29.84 in1010.5 mb 0.00 in0.0 mm 0.00 in0.0 mm 0.00 in0.0 mm
05:11 AM 77.5°F25.3°C 73.4°F23.0°C 87% 1.9 mph N3.1 kmh N 2.5 mph4.0 kmh 29.85 in1010.8 mb 0.00 in0.0 mm 0.00 in0.0 mm 0.00 in0.0 mm
05:10 AM 77.5°F25.3°C 73.4°F23.0°C 87% 0.9 mph NNE1.4 kmh NNE 2.5 mph4.0 kmh 29.85 in1010.8 mb 0.00 in0.0 mm 0.00 in0.0 mm 0.00 in0.0 mm
05:09 AM 77.5°F25.3°C 73.4°F23.0°C 87% 0.3 mph N0.5 kmh N 2.5 mph4.0 kmh 29.85 in1010.8 mb 0.00 in0.0 mm 0.00 in0.0 mm 0.00 in0.0 mm
05:08 AM 77.5°F25.3°C 73.5°F23.1°C 87% 0.2 mph NNE0.3 kmh NNE 2.5 mph4.0 kmh 29.85 in1010.8 mb 0.00 in0.0 mm 0.00 in0.0 mm 0.00 in0.0 mm
05:07 AM 77.5°F25.3°C 73.8°F23.2°C 88% Calm Calm -- 29.85 in1010.8 mb 0.00 in0.0 mm 0.00 in0.0 mm 0.00 in0.0 mm
05:06 AM 77.5°F25.3°C 73.8°F23.2°C 88% 0.3 mph NW0.5 kmh NW 2.5 mph4.0 kmh 29.85 in1010.8 mb 0.00 in0.0 mm 0.00 in0.0 mm 0.00 in0.0 mm
05:05 AM 77.5°F25.3°C 73.8°F23.2°C 88% Calm Calm -- 29.85 in1010.8 mb 0.00 in0.0 mm 0.00 in0.0 mm 0.00 in0.0 mm
05:04 AM 77.5°F25.3°C 73.8°F23.2°C 88% 0.1 mph N0.2 kmh N 2.5 mph4.0 kmh 29.85 in1010.8 mb 0.00 in0.0 mm 0.00 in0.0 mm 0.00 in0.0 mm
05:03 AM 77.5°F25.3°C 73.8°F23.2°C 88% 1.4 mph N2.3 kmh N 2.5 mph4.0 kmh 29.85 in1010.8 mb 0.00 in0.0 mm 0.00 in0.0 mm 0.00 in0.0 mm
05:02 AM 77.5°F25.3°C 73.8°F23.2°C 88% 1.2 mph NNE1.9 kmh NNE 2.5 mph4.0 kmh 29.85 in1010.8 mb 0.00 in0.0 mm 0.00 in0.0 mm 0.00 in0.0 mm
05:01 AM 77.5°F25.3°C 73.8°F23.2°C 88% Calm Calm -- 29.85 in1010.8 mb 0.00 in0.0 mm 0.00 in0.0 mm 0.00 in0.0 mm
05:00 AM 77.5°F25.3°C 73.8°F23.2°C 88% Calm Calm -- 29.85 in1010.8 mb 0.00 in0.0 mm 0.00 in0.0 mm 0.00 in0.0 mm
04:59 AM 77.5°F25.3°C 73.8°F23.2°C 88% Calm Calm -- 29.84 in1010.5 mb 0.00 in0.0 mm 0.00 in0.0 mm 0.00 in0.0 mm
04:58 AM 77.5°F25.3°C 73.8°F23.2°C 88% 0.6 mph N1.0 kmh N 2.5 mph4.0 kmh 29.85 in1010.8 mb 0.00 in0.0 mm 0.00 in0.0 mm 0.00 in0.0 mm
04:57 AM 77.5°F25.3°C 73.8°F23.2°C 88% 0.1 mph N0.2 kmh N 2.5 mph4.0 kmh 29.85 in1010.8 mb 0.00 in0.0 mm 0.00 in0.0 mm 0.00 in0.0 mm
04:56 AM 77.5°F25.3°C 73.8°F23.2°C 88% Calm Calm -- 29.84 in1010.5 mb 0.00 in0.0 mm 0.00 in0.0 mm 0.00 in0.0 mm
04:55 AM 77.5°F25.3°C 73.8°F23.2°C 88% 2.0 mph N3.2 kmh N 2.5 mph4.0 kmh 29.84 in1010.5 mb 0.00 in0.0 mm 0.00 in0.0 mm 0.00 in0.0 mm
04:54 AM 77.5°F25.3°C 73.8°F23.2°C 88% 1.1 mph NNW1.8 kmh NNW 2.5 mph4.0 kmh 29.84 in1010.5 mb 0.00 in0.0 mm 0.00 in0.0 mm 0.00 in0.0 mm
04:53 AM 77.5°F25.3°C 73.8°F23.2°C 88% Calm Calm -- 29.84 in1010.5 mb 0.00 in0.0 mm 0.00 in0.0 mm 0.00 in0.0 mm
04:52 AM 77.5°F25.3°C 73.8°F23.2°C 88% 1.5 mph N2.4 kmh N 2.5 mph4.0 kmh 29.84 in1010.5 mb 0.00 in0.0 mm 0.00 in0.0 mm 0.00 in0.0 mm
04:51 AM 77.7°F25.4°C 73.9°F23.3°C 88% 3.0 mph N4.8 kmh N 4.9 mph7.9 kmh 29.84 in1010.5 mb 0.00 in0.0 mm 0.00 in0.0 mm 0.00 in0.0 mm
04:50 AM 77.7°F25.4°C 73.9°F23.3°C 88% 1.6 mph N2.6 kmh N 4.9 mph7.9 kmh 29.84 in1010.5 mb 0.00 in0.0 mm 0.00 in0.0 mm 0.00 in0.0 mm
04:49 AM 77.7°F25.4°C 73.9°F23.3°C 88% 0.6 mph N1.0 kmh N 2.5 mph4.0 kmh 29.84 in1010.5 mb 0.00 in0.0 mm 0.00 in0.0 mm 0.00 in0.0 mm
04:48 AM 77.7°F25.4°C 73.6°F23.1°C 87% 1.3 mph N2.1 kmh N 4.9 mph7.9 kmh 29.84 in1010.5 mb 0.00 in0.0 mm 0.00 in0.0 mm 0.00 in0.0 mm
04:47 AM 77.7°F25.4°C 73.6°F23.1°C 87% 2.3 mph NW3.7 kmh NW 4.9 mph7.9 kmh 29.85 in1010.8 mb 0.00 in0.0 mm 0.00 in0.0 mm 0.00 in0.0 mm
04:46 AM 77.7°F25.4°C 73.6°F23.1°C 87% Calm Calm -- 29.85 in1010.8 mb 0.00 in0.0 mm 0.00 in0.0 mm 0.00 in0.0 mm
04:45 AM 77.7°F25.4°C 73.6°F23.1°C 87% 0.8 mph WNW1.3 kmh WNW 2.5 mph4.0 kmh 29.84 in1010.5 mb 0.00 in0.0 mm 0.00 in0.0 mm 0.00 in0.0 mm
04:44 AM 77.7°F25.4°C 73.6°F23.1°C 87% 1.1 mph NW1.8 kmh NW 4.9 mph7.9 kmh 29.84 in1010.5 mb 0.00 in0.0 mm 0.00 in0.0 mm 0.00 in0.0 mm
04:43 AM 77.7°F25.4°C 73.6°F23.1°C 87% 1.1 mph N1.8 kmh N 2.5 mph4.0 kmh 29.85 in1010.8 mb 0.00 in0.0 mm 0.00 in0.0 mm 0.00 in0.0 mm
04:42 AM 77.7°F25.4°C 73.6°F23.1°C 87% 1.9 mph N3.1 kmh N 2.5 mph4.0 kmh 29.85 in1010.8 mb 0.00 in0.0 mm 0.00 in0.0 mm 0.00 in0.0 mm
04:41 AM 77.7°F25.4°C 73.6°F23.1°C 87% 3.0 mph NW4.8 kmh NW 4.9 mph7.9 kmh 29.84 in1010.5 mb 0.00 in0.0 mm 0.00 in0.0 mm 0.00 in0.0 mm
04:40 AM 77.7°F25.4°C 73.6°F23.1°C 87% 2.0 mph NNW3.2 kmh NNW 4.9 mph7.9 kmh 29.85 in1010.8 mb 0.00 in0.0 mm 0.00 in0.0 mm 0.00 in0.0 mm
04:39 AM 77.7°F25.4°C 73.6°F23.1°C 87% 2.4 mph NNW3.9 kmh NNW 4.9 mph7.9 kmh 29.84 in1010.5 mb 0.00 in0.0 mm 0.00 in0.0 mm 0.00 in0.0 mm
04:38 AM 77.7°F25.4°C 73.6°F23.1°C 87% Calm Calm -- 29.84 in1010.5 mb 0.00 in0.0 mm 0.00 in0.0 mm 0.00 in0.0 mm
04:37 AM 77.7°F25.4°C 73.7°F23.2°C 87% Calm Calm -- 29.85 in1010.8 mb 0.00 in0.0 mm 0.00 in0.0 mm 0.00 in0.0 mm
04:36 AM 77.7°F25.4°C 73.6°F23.1°C 87% 0.7 mph NNW1.1 kmh NNW 2.5 mph4.0 kmh 29.85 in1010.8 mb 0.00 in0.0 mm 0.00 in0.0 mm 0.00 in0.0 mm
04:35 AM 77.7°F25.4°C 73.6°F23.1°C 87% Calm Calm 2.5 mph4.0 kmh 29.85 in1010.8 mb 0.00 in0.0 mm 0.00 in0.0 mm 0.00 in0.0 mm
04:34 AM 77.7°F25.4°C 73.6°F23.1°C 87% 1.5 mph N2.4 kmh N 2.5 mph4.0 kmh 29.85 in1010.8 mb 0.00 in0.0 mm 0.00 in0.0 mm 0.00 in0.0 mm
04:33 AM 77.7°F25.4°C 73.6°F23.1°C 87% 0.4 mph N0.6 kmh N 2.5 mph4.0 kmh 29.85 in1010.8 mb 0.00 in0.0 mm 0.00 in0.0 mm 0.00 in0.0 mm
04:32 AM 77.9°F25.5°C 73.8°F23.2°C 87% 1.5 mph N2.4 kmh N 2.5 mph4.0 kmh 29.84 in1010.5 mb 0.00 in0.0 mm 0.00 in0.0 mm 0.00 in0.0 mm
04:31 AM 77.9°F25.5°C 73.8°F23.2°C 87% 1.6 mph N2.6 kmh N 2.5 mph4.0 kmh 29.84 in1010.5 mb 0.00 in0.0 mm 0.00 in0.0 mm 0.00 in0.0 mm
04:30 AM 77.9°F25.5°C 73.8°F23.2°C 87% 1.8 mph NNW2.9 kmh NNW 2.5 mph4.0 kmh 29.84 in1010.5 mb 0.00 in0.0 mm 0.00 in0.0 mm 0.00 in0.0 mm
04:29 AM 77.9°F25.5°C 73.8°F23.2°C 87% 0.8 mph N1.3 kmh N 2.5 mph4.0 kmh 29.84 in1010.5 mb 0.00 in0.0 mm 0.00 in0.0 mm 0.00 in0.0 mm
04:28 AM 77.9°F25.5°C 73.9°F23.3°C 87% 1.7 mph N2.7 kmh N 4.9 mph7.9 kmh 29.84 in1010.5 mb 0.00 in0.0 mm 0.00 in0.0 mm 0.00 in0.0 mm
04:27 AM 77.9°F25.5°C 73.8°F23.2°C 87% 3.7 mph N6.0 kmh N 4.9 mph7.9 kmh 29.84 in1010.5 mb 0.00 in0.0 mm 0.00 in0.0 mm 0.00 in0.0 mm
04:26 AM 77.9°F25.5°C 73.8°F23.2°C 87% 3.9 mph N6.3 kmh N 4.9 mph7.9 kmh 29.85 in1010.8 mb 0.00 in0.0 mm 0.00 in0.0 mm 0.00 in0.0 mm
04:25 AM 77.9°F25.5°C 73.8°F23.2°C 87% 2.8 mph N4.5 kmh N 4.9 mph7.9 kmh 29.85 in1010.8 mb 0.00 in0.0 mm 0.00 in0.0 mm 0.00 in0.0 mm
04:24 AM 77.9°F25.5°C 73.8°F23.2°C 87% 2.7 mph N4.3 kmh N 4.9 mph7.9 kmh 29.84 in1010.5 mb 0.00 in0.0 mm 0.00 in0.0 mm 0.00 in0.0 mm
04:23 AM 77.9°F25.5°C 73.8°F23.2°C 87% 2.1 mph N3.4 kmh N 4.9 mph7.9 kmh 29.84 in1010.5 mb 0.00 in0.0 mm 0.00 in0.0 mm 0.00 in0.0 mm
04:22 AM 77.9°F25.5°C 73.8°F23.2°C 87% 2.2 mph N3.5 kmh N 4.9 mph7.9 kmh 29.85 in1010.8 mb 0.00 in0.0 mm 0.00 in0.0 mm 0.00 in0.0 mm
04:21 AM 77.9°F25.5°C 73.8°F23.2°C 87% 2.2 mph N3.5 kmh N 4.9 mph7.9 kmh 29.85 in1010.8 mb 0.00 in0.0 mm 0.00 in0.0 mm 0.00 in0.0 mm
04:20 AM 77.9°F25.5°C 73.8°F23.2°C 87% 3.3 mph NW5.3 kmh NW 4.9 mph7.9 kmh 29.85 in1010.8 mb 0.00 in0.0 mm 0.00 in0.0 mm 0.00 in0.0 mm
04:19 AM 77.9°F25.5°C 73.8°F23.2°C 87% 2.9 mph NW4.7 kmh NW 4.9 mph7.9 kmh 29.84 in1010.5 mb 0.00 in0.0 mm 0.00 in0.0 mm 0.00 in0.0 mm
04:18 AM 77.9°F25.5°C 73.8°F23.2°C 87% 2.4 mph N3.9 kmh N 4.9 mph7.9 kmh 29.84 in1010.5 mb 0.00 in0.0 mm 0.00 in0.0 mm 0.00 in0.0 mm
04:17 AM 77.9°F25.5°C 73.8°F23.2°C 87% 3.5 mph N5.6 kmh N 4.9 mph7.9 kmh 29.84 in1010.5 mb 0.00 in0.0 mm 0.00 in0.0 mm 0.00 in0.0 mm
04:16 AM 77.9°F25.5°C 73.8°F23.2°C 87% 0.9 mph N1.4 kmh N 2.5 mph4.0 kmh 29.84 in1010.5 mb 0.00 in0.0 mm 0.00 in0.0 mm 0.00 in0.0 mm
04:15 AM 77.9°F25.5°C 73.8°F23.2°C 87% 0.8 mph NNE1.3 kmh NNE 2.5 mph4.0 kmh 29.84 in1010.5 mb 0.00 in0.0 mm 0.00 in0.0 mm 0.00 in0.0 mm
04:14 AM 78.0°F25.6°C 73.9°F23.3°C 87% 3.1 mph NW5.0 kmh NW 4.9 mph7.9 kmh 29.85 in1010.8 mb 0.00 in0.0 mm 0.00 in0.0 mm 0.00 in0.0 mm
04:13 AM 78.1°F25.6°C 73.9°F23.3°C 87% Calm Calm -- 29.85 in1010.8 mb 0.00 in0.0 mm 0.00 in0.0 mm 0.00 in0.0 mm
04:12 AM 78.1°F25.6°C 73.9°F23.3°C 87% Calm Calm -- 29.84 in1010.5 mb 0.00 in0.0 mm 0.00 in0.0 mm 0.00 in0.0 mm
04:11 AM 78.1°F25.6°C 73.9°F23.3°C 87% Calm Calm -- 29.84 in1010.5 mb 0.00 in0.0 mm 0.00 in0.0 mm 0.00 in0.0 mm
04:10 AM 78.1°F25.6°C 73.9°F23.3°C 87% Calm Calm -- 29.84 in1010.5 mb 0.00 in0.0 mm 0.00 in0.0 mm 0.00 in0.0 mm
04:09 AM 78.1°F25.6°C 73.9°F23.3°C 87% 1.1 mph NW1.8 kmh NW 4.9 mph7.9 kmh 29.85 in1010.8 mb 0.00 in0.0 mm 0.00 in0.0 mm 0.00 in0.0 mm
04:08 AM 78.1°F25.6°C 73.9°F23.3°C 87% 3.4 mph NW5.5 kmh NW 4.9 mph7.9 kmh 29.84 in1010.5 mb 0.00 in0.0 mm 0.00 in0.0 mm 0.00 in0.0 mm
04:07 AM 78.1°F25.6°C 73.9°F23.3°C 87% 1.7 mph NW2.7 kmh NW 4.9 mph7.9 kmh 29.84 in1010.5 mb 0.00 in0.0 mm 0.00 in0.0 mm 0.00 in0.0 mm
04:06 AM 78.1°F25.6°C 73.9°F23.3°C 87% 2.6 mph NW4.2 kmh NW 4.9 mph7.9 kmh 29.84 in1010.5 mb 0.00 in0.0 mm 0.00 in0.0 mm 0.00 in0.0 mm
04:05 AM 78.1°F25.6°C 73.9°F23.3°C 87% 2.1 mph NW3.4 kmh NW 4.9 mph7.9 kmh 29.84 in1010.5 mb 0.00 in0.0 mm 0.00 in0.0 mm 0.00 in0.0 mm
04:04 AM 78.1°F25.6°C 73.9°F23.3°C 87% 2.7 mph NW4.3 kmh NW 4.9 mph7.9 kmh 29.84 in1010.5 mb 0.00 in0.0 mm 0.00 in0.0 mm 0.00 in0.0 mm
04:03 AM 78.1°F25.6°C 73.9°F23.3°C 87% 2.5 mph NW4.0 kmh NW 4.9 mph7.9 kmh 29.85 in1010.8 mb 0.00 in0.0 mm 0.00 in0.0 mm 0.00 in0.0 mm
04:02 AM 78.1°F25.6°C 73.8°F23.2°C 87% 3.1 mph NW5.0 kmh NW 4.9 mph7.9 kmh 29.85 in1010.8 mb 0.00 in0.0 mm 0.00 in0.0 mm 0.00 in0.0 mm
04:01 AM 78.1°F25.6°C 73.6°F23.1°C 86% 2.8 mph NW4.5 kmh NW 4.9 mph7.9 kmh 29.84 in1010.5 mb 0.00 in0.0 mm 0.00 in0.0 mm 0.00 in0.0 mm
04:00 AM 78.1°F25.6°C 73.6°F23.1°C 86% 2.1 mph NW3.4 kmh NW 4.9 mph7.9 kmh 29.84 in1010.5 mb 0.00 in0.0 mm 0.00 in0.0 mm 0.00 in0.0 mm
03:59 AM 78.1°F25.6°C 73.6°F23.1°C 86% 1.5 mph NW2.4 kmh NW 4.9 mph7.9 kmh 29.84 in1010.5 mb 0.00 in0.0 mm 0.00 in0.0 mm 0.00 in0.0 mm
03:58 AM 78.1°F25.6°C 73.6°F23.1°C 86% 2.4 mph NW3.9 kmh NW 4.9 mph7.9 kmh 29.84 in1010.5 mb 0.00 in0.0 mm 0.00 in0.0 mm 0.00 in0.0 mm
03:57 AM 78.1°F25.6°C 73.6°F23.1°C 86% 2.8 mph NNW4.5 kmh NNW 4.9 mph7.9 kmh 29.84 in1010.5 mb 0.00 in0.0 mm 0.00 in0.0 mm 0.00 in0.0 mm
03:56 AM 77.9°F25.5°C 73.4°F23.0°C 86% 3.2 mph NW5.1 kmh NW 4.9 mph7.9 kmh 29.84 in1010.5 mb 0.00 in0.0 mm 0.00 in0.0 mm 0.00 in0.0 mm
03:55 AM 77.9°F25.5°C 73.4°F23.0°C 86% 3.0 mph NW4.8 kmh NW 4.9 mph7.9 kmh 29.84 in1010.5 mb 0.00 in0.0 mm 0.00 in0.0 mm 0.00 in0.0 mm
03:54 AM 77.9°F25.5°C 73.4°F23.0°C 86% 1.5 mph NW2.4 kmh NW 2.5 mph4.0 kmh 29.84 in1010.5 mb 0.00 in0.0 mm 0.00 in0.0 mm 0.00 in0.0 mm
03:53 AM 77.9°F25.5°C 73.4°F23.0°C 86% 1.3 mph NW2.1 kmh NW 2.5 mph4.0 kmh 29.84 in1010.5 mb 0.00 in0.0 mm 0.00 in0.0 mm 0.00 in0.0 mm
03:52 AM 77.9°F25.5°C 73.4°F23.0°C 86% 2.7 mph NW4.3 kmh NW 4.9 mph7.9 kmh 29.84 in1010.5 mb 0.00 in0.0 mm 0.00 in0.0 mm 0.00 in0.0 mm
03:51 AM 77.9°F25.5°C 73.4°F23.0°C 86% 0.5 mph WNW0.8 kmh WNW 2.5 mph4.0 kmh 29.84 in1010.5 mb 0.00 in0.0 mm 0.00 in0.0 mm 0.00 in0.0 mm
03:50 AM 77.9°F25.5°C 73.4°F23.0°C 86% 0.4 mph WNW0.6 kmh WNW 2.5 mph4.0 kmh 29.84 in1010.5 mb 0.00 in0.0 mm 0.00 in0.0 mm 0.00 in0.0 mm
03:49 AM 77.9°F25.5°C 73.4°F23.0°C 86% 0.8 mph W1.3 kmh W 2.5 mph4.0 kmh 29.84 in1010.5 mb 0.00 in0.0 mm 0.00 in0.0 mm 0.00 in0.0 mm
03:48 AM 77.9°F25.5°C 73.4°F23.0°C 86% 0.1 mph WNW0.2 kmh WNW 2.5 mph4.0 kmh 29.84 in1010.5 mb 0.00 in0.0 mm 0.00 in0.0 mm 0.00 in0.0 mm
03:47 AM 77.9°F25.5°C 73.4°F23.0°C 86% 0.4 mph W0.6 kmh W 2.5 mph4.0 kmh 29.84 in1010.5 mb 0.00 in0.0 mm 0.00 in0.0 mm 0.00 in0.0 mm
03:46 AM 77.9°F25.5°C 73.4°F23.0°C 86% 1.2 mph WNW1.9 kmh WNW 2.5 mph4.0 kmh 29.84 in1010.5 mb 0.00 in0.0 mm 0.00 in0.0 mm 0.00 in0.0 mm
03:45 AM 77.9°F25.5°C 73.4°F23.0°C 86% 0.1 mph NNW0.2 kmh NNW 2.5 mph4.0 kmh 29.84 in1010.5 mb 0.00 in0.0 mm 0.00 in0.0 mm 0.00 in0.0 mm
03:44 AM 77.9°F25.5°C 73.4°F23.0°C 86% 0.4 mph NW0.6 kmh NW 2.5 mph4.0 kmh 29.84 in1010.5 mb 0.00 in0.0 mm 0.00 in0.0 mm 0.00 in0.0 mm
03:43 AM 77.9°F25.5°C 73.4°F23.0°C 86% Calm Calm -- 29.84 in1010.5 mb 0.00 in0.0 mm 0.00 in0.0 mm 0.00 in0.0 mm
03:42 AM 77.9°F25.5°C 73.4°F23.0°C 86% 1.4 mph NW2.3 kmh NW 2.5 mph4.0 kmh 29.84 in1010.5 mb 0.00 in0.0 mm 0.00 in0.0 mm 0.00 in0.0 mm
03:41 AM 77.9°F25.5°C 73.4°F23.0°C 86% 1.3 mph NW2.1 kmh NW 2.5 mph4.0 kmh 29.84 in1010.5 mb 0.00 in0.0 mm 0.00 in0.0 mm 0.00 in0.0 mm
03:40 AM 77.9°F25.5°C 73.4°F23.0°C 86% Calm Calm -- 29.84 in1010.5 mb 0.00 in0.0 mm 0.00 in0.0 mm 0.00 in0.0 mm
03:39 AM 77.9°F25.5°C 73.4°F23.0°C 86% Calm Calm -- 29.84 in1010.5 mb 0.00 in0.0 mm 0.00 in0.0 mm 0.00 in0.0 mm
03:38 AM 77.9°F25.5°C 73.4°F23.0°C 86% Calm Calm -- 29.84 in1010.5 mb 0.00 in0.0 mm 0.00 in0.0 mm 0.00 in0.0 mm
03:37 AM 77.9°F25.5°C 73.4°F23.0°C 86% Calm Calm 2.5 mph4.0 kmh 29.84 in1010.5 mb 0.00 in0.0 mm 0.00 in0.0 mm 0.00 in0.0 mm
03:36 AM 77.9°F25.5°C 73.4°F23.0°C 86% 1.6 mph N2.6 kmh N 2.5 mph4.0 kmh 29.84 in1010.5 mb 0.00 in0.0 mm 0.00 in0.0 mm 0.00 in0.0 mm
03:35 AM 77.9°F25.5°C 73.4°F23.0°C 86% 1.8 mph N2.9 kmh N 2.5 mph4.0 kmh 29.84 in1010.5 mb 0.00 in0.0 mm 0.00 in0.0 mm 0.00 in0.0 mm
03:34 AM 78.0°F25.6°C 73.5°F23.1°C 86% 1.1 mph N1.8 kmh N 2.5 mph4.0 kmh 29.84 in1010.5 mb 0.00 in0.0 mm 0.00 in0.0 mm 0.00 in0.0 mm
03:33 AM 78.1°F25.6°C 73.6°F23.1°C 86% 0.6 mph 1.0 kmh 2.5 mph4.0 kmh 29.84 in1010.5 mb 0.00 in0.0 mm 0.00 in0.0 mm 0.00 in0.0 mm
03:32 AM 78.1°F25.6°C 73.6°F23.1°C 86% 0.6 mph NNE1.0 kmh NNE 2.5 mph4.0 kmh 29.84 in1010.5 mb 0.00 in0.0 mm 0.00 in0.0 mm 0.00 in0.0 mm
03:31 AM 78.1°F25.6°C 73.6°F23.1°C 86% Calm Calm 2.5 mph4.0 kmh 29.84 in1010.5 mb 0.00 in0.0 mm 0.00 in0.0 mm 0.00 in0.0 mm
03:30 AM 78.1°F25.6°C 73.6°F23.1°C 86% 0.6 mph NW1.0 kmh NW 2.5 mph4.0 kmh 29.84 in1010.5 mb 0.00 in0.0 mm 0.00 in0.0 mm 0.00 in0.0 mm
03:29 AM 78.1°F25.6°C 73.6°F23.1°C 86% 1.7 mph N2.7 kmh N 2.5 mph4.0 kmh 29.84 in1010.5 mb 0.00 in0.0 mm 0.00 in0.0 mm 0.00 in0.0 mm
03:28 AM 78.1°F25.6°C 73.6°F23.1°C 86% 2.6 mph NW4.2 kmh NW 4.9 mph7.9 kmh 29.84 in1010.5 mb 0.00 in0.0 mm 0.00 in0.0 mm 0.00 in0.0 mm
03:27 AM 78.1°F25.6°C 73.6°F23.1°C 86% 2.4 mph N3.9 kmh N 4.9 mph7.9 kmh 29.84 in1010.5 mb 0.00 in0.0 mm 0.00 in0.0 mm 0.00 in0.0 mm
03:26 AM 78.1°F25.6°C 73.6°F23.1°C 86% 2.3 mph N3.7 kmh N 4.9 mph7.9 kmh 29.84 in1010.5 mb 0.00 in0.0 mm 0.00 in0.0 mm 0.00 in0.0 mm
03:25 AM 78.1°F25.6°C 73.6°F23.1°C 86% 2.7 mph N4.3 kmh N 4.9 mph7.9 kmh 29.84 in1010.5 mb 0.00 in0.0 mm 0.00 in0.0 mm 0.00 in0.0 mm
03:24 AM 78.1°F25.6°C 73.6°F23.1°C 86% 4.2 mph N6.8 kmh N 4.9 mph7.9 kmh 29.84 in1010.5 mb 0.00 in0.0 mm 0.00 in0.0 mm 0.00 in0.0 mm
03:23 AM 78.1°F25.6°C 73.6°F23.1°C 86% 2.1 mph N3.4 kmh N 4.9 mph7.9 kmh 29.84 in1010.5 mb 0.00 in0.0 mm 0.00 in0.0 mm 0.00 in0.0 mm
03:22 AM 78.1°F25.6°C 73.6°F23.1°C 86% 3.5 mph N5.6 kmh N 7.6 mph12.2 kmh 29.84 in1010.5 mb 0.00 in0.0 mm 0.00 in0.0 mm 0.00 in0.0 mm
03:21 AM 78.1°F25.6°C 73.6°F23.1°C 86% 2.8 mph N4.5 kmh N 4.9 mph7.9 kmh 29.84 in1010.5 mb 0.00 in0.0 mm 0.00 in0.0 mm 0.00 in0.0 mm
03:20 AM 78.1°F25.6°C 73.6°F23.1°C 86% 3.1 mph N5.0 kmh N 4.9 mph7.9 kmh 29.84 in1010.5 mb 0.00 in0.0 mm 0.00 in0.0 mm 0.00 in0.0 mm
03:19 AM 78.1°F25.6°C 73.6°F23.1°C 86% 3.8 mph N6.1 kmh N 4.9 mph7.9 kmh 29.84 in1010.5 mb 0.00 in0.0 mm 0.00 in0.0 mm 0.00 in0.0 mm
03:18 AM 78.1°F25.6°C 73.6°F23.1°C 86% 4.1 mph N6.6 kmh N 4.9 mph7.9 kmh 29.84 in1010.5 mb 0.00 in0.0 mm 0.00 in0.0 mm 0.00 in0.0 mm
03:17 AM 78.1°F25.6°C 73.6°F23.1°C 86% 0.9 mph N1.4 kmh N 4.9 mph7.9 kmh 29.84 in1010.5 mb 0.00 in0.0 mm 0.00 in0.0 mm 0.00 in0.0 mm
03:16 AM 78.3°F25.7°C 73.8°F23.2°C 86% 2.5 mph N4.0 kmh N 4.9 mph7.9 kmh 29.84 in1010.5 mb 0.00 in0.0 mm 0.00 in0.0 mm 0.00 in0.0 mm
03:15 AM 78.3°F25.7°C 73.8°F23.2°C 86% 3.8 mph N6.1 kmh N 7.6 mph12.2 kmh 29.84 in1010.5 mb 0.00 in0.0 mm 0.00 in0.0 mm 0.00 in0.0 mm
03:14 AM 78.3°F25.7°C 73.8°F23.2°C 86% 1.4 mph N2.3 kmh N 2.5 mph4.0 kmh 29.84 in1010.5 mb 0.00 in0.0 mm 0.00 in0.0 mm 0.00 in0.0 mm
03:13 AM 78.3°F25.7°C 73.8°F23.2°C 86% 2.3 mph NNW3.7 kmh NNW 4.9 mph7.9 kmh 29.84 in1010.5 mb 0.00 in0.0 mm 0.00 in0.0 mm 0.00 in0.0 mm
03:12 AM 78.3°F25.7°C 73.8°F23.2°C 86% 4.0 mph NW6.4 kmh NW 7.6 mph12.2 kmh 29.84 in1010.5 mb 0.00 in0.0 mm 0.00 in0.0 mm 0.00 in0.0 mm
03:11 AM 78.3°F25.7°C 73.8°F23.2°C 86% 3.8 mph NW6.1 kmh NW 7.6 mph12.2 kmh 29.84 in1010.5 mb 0.00 in0.0 mm 0.00 in0.0 mm 0.00 in0.0 mm
03:10 AM 78.3°F25.7°C 73.8°F23.2°C 86% 3.1 mph NNW5.0 kmh NNW 4.9 mph7.9 kmh 29.84 in1010.5 mb 0.00 in0.0 mm 0.00 in0.0 mm 0.00 in0.0 mm
03:09 AM 78.3°F25.7°C 73.8°F23.2°C 86% 3.4 mph NW5.5 kmh NW 4.9 mph7.9 kmh 29.84 in1010.5 mb 0.00 in0.0 mm 0.00 in0.0 mm 0.00 in0.0 mm
03:08 AM 78.3°F25.7°C 73.8°F23.2°C 86% 2.7 mph NW4.3 kmh NW 4.9 mph7.9 kmh 29.84 in1010.5 mb 0.00 in0.0 mm 0.00 in0.0 mm 0.00 in0.0 mm
03:07 AM 78.3°F25.7°C 73.8°F23.2°C 86% 2.2 mph NW3.5 kmh NW 4.9 mph7.9 kmh 29.84 in1010.5 mb 0.00 in0.0 mm 0.00 in0.0 mm 0.00 in0.0 mm
03:06 AM 78.3°F25.7°C 73.8°F23.2°C 86% 3.2 mph NW5.1 kmh NW 4.9 mph7.9 kmh 29.84 in1010.5 mb 0.00 in0.0 mm 0.00 in0.0 mm 0.00 in0.0 mm
03:05 AM 78.3°F25.7°C 73.8°F23.2°C 86% 4.7 mph NW7.6 kmh NW 7.6 mph12.2 kmh 29.84 in1010.5 mb 0.00 in0.0 mm 0.00 in0.0 mm 0.00 in0.0 mm
03:04 AM 78.4°F25.8°C 73.7°F23.2°C 86% 3.1 mph NW5.0 kmh NW 4.9 mph7.9 kmh 29.84 in1010.5 mb 0.00 in0.0 mm 0.00 in0.0 mm 0.00 in0.0 mm
03:03 AM 78.4°F25.8°C 73.6°F23.1°C 85% 3.7 mph NW6.0 kmh NW 4.9 mph7.9 kmh 29.85 in1010.8 mb 0.00 in0.0 mm 0.00 in0.0 mm 0.00 in0.0 mm
03:02 AM 78.4°F25.8°C 73.6°F23.1°C 85% 1.2 mph NW1.9 kmh NW 2.5 mph4.0 kmh 29.85 in1010.8 mb 0.00 in0.0 mm 0.00 in0.0 mm 0.00 in0.0 mm
03:01 AM 78.4°F25.8°C 73.6°F23.1°C 85% 1.2 mph N1.9 kmh N 2.5 mph4.0 kmh 29.85 in1010.8 mb 0.00 in0.0 mm 0.00 in0.0 mm 0.00 in0.0 mm
03:00 AM 78.4°F25.8°C 73.6°F23.1°C 85% 2.3 mph NW3.7 kmh NW 4.9 mph7.9 kmh 29.85 in1010.8 mb 0.00 in0.0 mm 0.00 in0.0 mm 0.00 in0.0 mm
02:59 AM 78.4°F25.8°C 73.6°F23.1°C 85% 2.6 mph NW4.2 kmh NW 4.9 mph7.9 kmh 29.85 in1010.8 mb 0.00 in0.0 mm 0.00 in0.0 mm 0.00 in0.0 mm
02:58 AM 78.4°F25.8°C 73.6°F23.1°C 85% 2.5 mph NW4.0 kmh NW 4.9 mph7.9 kmh 29.85 in1010.8 mb 0.00 in0.0 mm 0.00 in0.0 mm 0.00 in0.0 mm
02:57 AM 78.4°F25.8°C 73.6°F23.1°C 85% 3.0 mph NNW4.8 kmh NNW 4.9 mph7.9 kmh 29.85 in1010.8 mb 0.00 in0.0 mm 0.00 in0.0 mm 0.00 in0.0 mm
02:56 AM 78.4°F25.8°C 73.6°F23.1°C 85% 3.0 mph NW4.8 kmh NW 4.9 mph7.9 kmh 29.85 in1010.8 mb 0.00 in0.0 mm 0.00 in0.0 mm 0.00 in0.0 mm
02:55 AM 78.4°F25.8°C 73.6°F23.1°C 85% 2.6 mph NW4.2 kmh NW 4.9 mph7.9 kmh 29.85 in1010.8 mb 0.00 in0.0 mm 0.00 in0.0 mm 0.00 in0.0 mm
02:54 AM 78.4°F25.8°C 73.6°F23.1°C 85% Calm Calm -- 29.85 in1010.8 mb 0.00 in0.0 mm 0.00 in0.0 mm 0.00 in0.0 mm
02:53 AM 78.5°F25.8°C 73.7°F23.2°C 85% Calm Calm -- 29.85 in1010.8 mb 0.00 in0.0 mm 0.00 in0.0 mm 0.00 in0.0 mm
02:52 AM 78.6°F25.9°C 73.8°F23.2°C 85% 0.5 mph NW0.8 kmh NW 2.5 mph4.0 kmh 29.85 in1010.8 mb 0.00 in0.0 mm 0.00 in0.0 mm 0.00 in0.0 mm
02:51 AM 78.6°F25.9°C 73.8°F23.2°C 85% 2.0 mph N3.2 kmh N 4.9 mph7.9 kmh 29.85 in1010.8 mb 0.00 in0.0 mm 0.00 in0.0 mm 0.00 in0.0 mm
02:50 AM 78.6°F25.9°C 73.8°F23.2°C 85% 1.0 mph N1.6 kmh N 2.5 mph4.0 kmh 29.85 in1010.8 mb 0.00 in0.0 mm 0.00 in0.0 mm 0.00 in0.0 mm
02:49 AM 78.6°F25.9°C 73.8°F23.2°C 85% 1.3 mph NNW2.1 kmh NNW 2.5 mph4.0 kmh 29.85 in1010.8 mb 0.00 in0.0 mm 0.00 in0.0 mm 0.00 in0.0 mm
02:48 AM 78.6°F25.9°C 73.8°F23.2°C 85% 0.4 mph NW0.6 kmh NW 2.5 mph4.0 kmh 29.85 in1010.8 mb 0.00 in0.0 mm 0.00 in0.0 mm 0.00 in0.0 mm
02:47 AM 78.6°F25.9°C 73.8°F23.2°C 85% 0.3 mph WNW0.5 kmh WNW 2.5 mph4.0 kmh 29.85 in1010.8 mb 0.00 in0.0 mm 0.00 in0.0 mm 0.00 in0.0 mm
02:46 AM 78.6°F25.9°C 73.8°F23.2°C 85% 0.2 mph WNW0.3 kmh WNW 2.5 mph4.0 kmh 29.85 in1010.8 mb 0.00 in0.0 mm 0.00 in0.0 mm 0.00 in0.0 mm
02:45 AM 78.6°F25.9°C 73.8°F23.2°C 85% 1.3 mph NW2.1 kmh NW 2.5 mph4.0 kmh 29.85 in1010.8 mb 0.00 in0.0 mm 0.00 in0.0 mm 0.00 in0.0 mm
02:44 AM 78.6°F25.9°C 73.8°F23.2°C 85% 0.2 mph NW0.3 kmh NW 2.5 mph4.0 kmh 29.85 in1010.8 mb 0.00 in0.0 mm 0.00 in0.0 mm 0.00 in0.0 mm
02:43 AM 78.6°F25.9°C 73.8°F23.2°C 85% 1.4 mph W2.3 kmh W 2.5 mph4.0 kmh 29.85 in1010.8 mb 0.00 in0.0 mm 0.00 in0.0 mm 0.00 in0.0 mm
02:42 AM 78.6°F25.9°C 73.8°F23.2°C 85% 1.0 mph NW1.6 kmh NW 2.5 mph4.0 kmh 29.85 in1010.8 mb 0.00 in0.0 mm 0.00 in0.0 mm 0.00 in0.0 mm
02:41 AM 78.6°F25.9°C 73.8°F23.2°C 85% 0.3 mph NW0.5 kmh NW 2.5 mph4.0 kmh 29.85 in1010.8 mb 0.00 in0.0 mm 0.00 in0.0 mm 0.00 in0.0 mm
02:40 AM 78.6°F25.9°C 73.8°F23.2°C 85% Calm Calm -- 29.85 in1010.8 mb 0.00 in0.0 mm 0.00 in0.0 mm 0.00 in0.0 mm
02:39 AM 78.6°F25.9°C 73.8°F23.2°C 85% Calm Calm -- 29.85 in1010.8 mb 0.00 in0.0 mm 0.00 in0.0 mm 0.00 in0.0 mm
02:38 AM 78.6°F25.9°C 73.8°F23.2°C 85% Calm Calm -- 29.85 in1010.8 mb 0.00 in0.0 mm 0.00 in0.0 mm 0.00 in0.0 mm
02:37 AM 78.8°F26.0°C 73.8°F23.2°C 85% 0.7 mph NW1.1 kmh NW 4.9 mph7.9 kmh 29.85 in1010.8 mb 0.00 in0.0 mm 0.00 in0.0 mm 0.00 in0.0 mm
02:36 AM 78.8°F26.0°C 73.7°F23.2°C 84% 1.9 mph WNW3.1 kmh WNW 4.9 mph7.9 kmh 29.85 in1010.8 mb 0.00 in0.0 mm 0.00 in0.0 mm 0.00 in0.0 mm
02:35 AM 78.8°F26.0°C 73.6°F23.1°C 84% 0.2 mph SW0.3 kmh SW 2.5 mph4.0 kmh 29.85 in1010.8 mb 0.00 in0.0 mm 0.00 in0.0 mm 0.00 in0.0 mm
02:34 AM 78.8°F26.0°C 73.8°F23.2°C 84% Calm Calm -- 29.85 in1010.8 mb 0.00 in0.0 mm 0.00 in0.0 mm 0.00 in0.0 mm
02:33 AM 78.8°F26.0°C 73.8°F23.2°C 85% Calm Calm -- 29.84 in1010.5 mb 0.00 in0.0 mm 0.00 in0.0 mm 0.00 in0.0 mm
02:32 AM 78.8°F26.0°C 73.7°F23.2°C 84% Calm Calm -- 29.85 in1010.8 mb 0.00 in0.0 mm 0.00 in0.0 mm 0.00 in0.0 mm
02:31 AM 78.8°F26.0°C 73.8°F23.2°C 85% Calm Calm -- 29.85 in1010.8 mb 0.00 in0.0 mm 0.00 in0.0 mm 0.00 in0.0 mm
02:30 AM 78.8°F26.0°C 73.8°F23.2°C 84% 0.3 mph SW0.5 kmh SW 2.5 mph4.0 kmh 29.85 in1010.8 mb 0.00 in0.0 mm 0.00 in0.0 mm 0.00 in0.0 mm
02:29 AM 78.8°F26.0°C 73.9°F23.3°C 85% Calm Calm -- 29.85 in1010.8 mb 0.00 in0.0 mm 0.00 in0.0 mm 0.00 in0.0 mm
02:28 AM 78.8°F26.0°C 73.9°F23.3°C 85% Calm Calm -- 29.84 in1010.5 mb 0.00 in0.0 mm 0.00 in0.0 mm 0.00 in0.0 mm
02:27 AM 78.8°F26.0°C 73.9°F23.3°C 85% 0.1 mph SSE0.2 kmh SSE 2.5 mph4.0 kmh 29.84 in1010.5 mb 0.00 in0.0 mm 0.00 in0.0 mm 0.00 in0.0 mm
02:26 AM 78.8°F26.0°C 73.9°F23.3°C 85% Calm Calm -- 29.85 in1010.8 mb 0.00 in0.0 mm 0.00 in0.0 mm 0.00 in0.0 mm
02:25 AM 78.8°F26.0°C 73.9°F23.3°C 85% 0.1 mph NW0.2 kmh NW 2.5 mph4.0 kmh 29.85 in1010.8 mb 0.00 in0.0 mm 0.00 in0.0 mm 0.00 in0.0 mm
02:24 AM 78.8°F26.0°C 73.9°F23.3°C 85% 1.7 mph WNW2.7 kmh WNW 4.9 mph7.9 kmh 29.84 in1010.5 mb 0.00 in0.0 mm 0.00 in0.0 mm 0.00 in0.0 mm
02:23 AM 78.8°F26.0°C 73.8°F23.2°C 85% 0.4 mph WSW0.6 kmh WSW 2.5 mph4.0 kmh 29.85 in1010.8 mb 0.00 in0.0 mm 0.00 in0.0 mm 0.00 in0.0 mm
02:22 AM 78.8°F26.0°C 73.6°F23.1°C 84% Calm Calm -- 29.85 in1010.8 mb 0.00 in0.0 mm 0.00 in0.0 mm 0.00 in0.0 mm
02:21 AM 78.8°F26.0°C 73.6°F23.1°C 84% 0.7 mph NW1.1 kmh NW 2.5 mph4.0 kmh 29.85 in1010.8 mb 0.00 in0.0 mm 0.00 in0.0 mm 0.00 in0.0 mm
02:20 AM 78.8°F26.0°C 73.6°F23.1°C 84% Calm Calm 2.5 mph4.0 kmh 29.85 in1010.8 mb 0.00 in0.0 mm 0.00 in0.0 mm 0.00 in0.0 mm
02:19 AM 78.8°F26.0°C 73.6°F23.1°C 84% 0.1 mph N0.2 kmh N 2.5 mph4.0 kmh 29.85 in1010.8 mb 0.00 in0.0 mm 0.00 in0.0 mm 0.00 in0.0 mm
02:18 AM 78.8°F26.0°C 73.6°F23.1°C 84% Calm Calm -- 29.85 in1010.8 mb 0.00 in0.0 mm 0.00 in0.0 mm 0.00 in0.0 mm
02:17 AM 78.8°F26.0°C 73.6°F23.1°C 84% 0.4 mph N0.6 kmh N 2.5 mph4.0 kmh 29.85 in1010.8 mb 0.00 in0.0 mm 0.00 in0.0 mm 0.00 in0.0 mm
02:16 AM 78.8°F26.0°C 73.6°F23.1°C 84% Calm Calm -- 29.85 in1010.8 mb 0.00 in0.0 mm 0.00 in0.0 mm 0.00 in0.0 mm
02:15 AM 78.8°F26.0°C 73.6°F23.1°C 84% 0.7 mph NNW1.1 kmh NNW 2.5 mph4.0 kmh 29.85 in1010.8 mb 0.00 in0.0 mm 0.00 in0.0 mm 0.00 in0.0 mm
02:14 AM 78.8°F26.0°C 73.6°F23.1°C 84% 1.3 mph NW2.1 kmh NW 2.5 mph4.0 kmh 29.85 in1010.8 mb 0.00 in0.0 mm 0.00 in0.0 mm 0.00 in0.0 mm
02:13 AM 78.8°F26.0°C 73.6°F23.1°C 84% 0.9 mph N1.4 kmh N 2.5 mph4.0 kmh 29.85 in1010.8 mb 0.00 in0.0 mm 0.00 in0.0 mm 0.00 in0.0 mm
02:12 AM 78.8°F26.0°C 73.6°F23.1°C 84% 1.1 mph N1.8 kmh N 2.5 mph4.0 kmh 29.85 in1010.8 mb 0.00 in0.0 mm 0.00 in0.0 mm 0.00 in0.0 mm
02:11 AM 78.8°F26.0°C 73.6°F23.1°C 84% 1.7 mph N2.7 kmh N 4.9 mph7.9 kmh 29.85 in1010.8 mb 0.00 in0.0 mm 0.00 in0.0 mm 0.00 in0.0 mm
02:10 AM 78.8°F26.0°C 73.6°F23.1°C 84% 1.7 mph N2.7 kmh N 2.5 mph4.0 kmh 29.85 in1010.8 mb 0.00 in0.0 mm 0.00 in0.0 mm 0.00 in0.0 mm
02:09 AM 78.8°F26.0°C 73.6°F23.1°C 84% 1.9 mph N3.1 kmh N 2.5 mph4.0 kmh 29.85 in1010.8 mb 0.00 in0.0 mm 0.00 in0.0 mm 0.00 in0.0 mm
02:08 AM 78.8°F26.0°C 73.6°F23.1°C 84% 1.7 mph N2.7 kmh N 2.5 mph4.0 kmh 29.85 in1010.8 mb 0.00 in0.0 mm 0.00 in0.0 mm 0.00 in0.0 mm
02:07 AM 78.8°F26.0°C 73.6°F23.1°C 84% 1.6 mph N2.6 kmh N 2.5 mph4.0 kmh 29.85 in1010.8 mb 0.00 in0.0 mm 0.00 in0.0 mm 0.00 in0.0 mm
02:06 AM 78.8°F26.0°C 73.6°F23.1°C 84% 0.4 mph N0.6 kmh N 2.5 mph4.0 kmh 29.85 in1010.8 mb 0.00 in0.0 mm 0.00 in0.0 mm 0.00 in0.0 mm
02:05 AM 78.8°F26.0°C 73.6°F23.1°C 84% 2.0 mph WNW3.2 kmh WNW 4.9 mph7.9 kmh 29.85 in1010.8 mb 0.00 in0.0 mm 0.00 in0.0 mm 0.00 in0.0 mm
02:04 AM 78.8°F26.0°C 73.6°F23.1°C 84% 1.2 mph NW1.9 kmh NW 4.9 mph7.9 kmh 29.85 in1010.8 mb 0.00 in0.0 mm 0.00 in0.0 mm 0.00 in0.0 mm
02:03 AM 78.8°F26.0°C 73.6°F23.1°C 84% 2.1 mph N3.4 kmh N 4.9 mph7.9 kmh 29.85 in1010.8 mb 0.00 in0.0 mm 0.00 in0.0 mm 0.00 in0.0 mm
02:02 AM 78.8°F26.0°C 73.6°F23.1°C 84% 1.5 mph N2.4 kmh N 2.5 mph4.0 kmh 29.85 in1010.8 mb 0.00 in0.0 mm 0.00 in0.0 mm 0.00 in0.0 mm
02:01 AM 78.8°F26.0°C 73.6°F23.1°C 84% 0.3 mph NNW0.5 kmh NNW 2.5 mph4.0 kmh 29.86 in1011.2 mb 0.00 in0.0 mm 0.00 in0.0 mm 0.00 in0.0 mm
02:00 AM 78.8°F26.0°C 73.6°F23.1°C 84% 0.4 mph W0.6 kmh W 2.5 mph4.0 kmh 29.86 in1011.2 mb 0.00 in0.0 mm 0.00 in0.0 mm 0.00 in0.0 mm
01:59 AM 78.8°F26.0°C 73.6°F23.1°C 84% 0.3 mph N0.5 kmh N 2.5 mph4.0 kmh 29.86 in1011.2 mb 0.00 in0.0 mm 0.00 in0.0 mm 0.00 in0.0 mm
01:58 AM 78.9°F26.1°C 73.6°F23.1°C 84% 0.7 mph N1.1 kmh N 2.5 mph4.0 kmh 29.86 in1011.2 mb 0.00 in0.0 mm 0.00 in0.0 mm 0.00 in0.0 mm
01:57 AM 79.0°F26.1°C 73.8°F23.2°C 84% 1.1 mph N1.8 kmh N 2.5 mph4.0 kmh 29.85 in1010.8 mb 0.00 in0.0 mm 0.00 in0.0 mm 0.00 in0.0 mm
01:56 AM 79.0°F26.1°C 73.8°F23.2°C 84% 0.6 mph N1.0 kmh N 2.5 mph4.0 kmh 29.86 in1011.2 mb 0.00 in0.0 mm 0.00 in0.0 mm 0.00 in0.0 mm
01:55 AM 79.0°F26.1°C 73.8°F23.2°C 84% 0.4 mph NNW0.6 kmh NNW 2.5 mph4.0 kmh 29.86 in1011.2 mb 0.00 in0.0 mm 0.00 in0.0 mm 0.00 in0.0 mm
01:54 AM 79.0°F26.1°C 73.8°F23.2°C 84% Calm Calm -- 29.85 in1010.8 mb 0.00 in0.0 mm 0.00 in0.0 mm 0.00 in0.0 mm
01:53 AM 79.0°F26.1°C 73.8°F23.2°C 84% 0.4 mph N0.6 kmh N 2.5 mph4.0 kmh 29.85 in1010.8 mb 0.00 in0.0 mm 0.00 in0.0 mm 0.00 in0.0 mm
01:52 AM 79.0°F26.1°C 73.8°F23.2°C 84% 2.1 mph N3.4 kmh N 2.5 mph4.0 kmh 29.86 in1011.2 mb 0.00 in0.0 mm 0.00 in0.0 mm 0.00 in0.0 mm
01:51 AM 79.0°F26.1°C 73.8°F23.2°C 84% 1.7 mph NNW2.7 kmh NNW 2.5 mph4.0 kmh 29.86 in1011.2 mb 0.00 in0.0 mm 0.00 in0.0 mm 0.00 in0.0 mm
01:50 AM 79.0°F26.1°C 73.8°F23.2°C 84% 0.8 mph NNE1.3 kmh NNE 2.5 mph4.0 kmh 29.86 in1011.2 mb 0.00 in0.0 mm 0.00 in0.0 mm 0.00 in0.0 mm
01:49 AM 79.0°F26.1°C 73.8°F23.2°C 84% 1.7 mph N2.7 kmh N 2.5 mph4.0 kmh 29.86 in1011.2 mb 0.00 in0.0 mm 0.00 in0.0 mm 0.00 in0.0 mm
01:48 AM 79.0°F26.1°C 73.8°F23.2°C 84% 2.0 mph N3.2 kmh N 2.5 mph4.0 kmh 29.86 in1011.2 mb 0.00 in0.0 mm 0.00 in0.0 mm 0.00 in0.0 mm
01:47 AM 79.0°F26.1°C 73.8°F23.2°C 84% 1.5 mph N2.4 kmh N 2.5 mph4.0 kmh 29.85 in1010.8 mb 0.00 in0.0 mm 0.00 in0.0 mm 0.00 in0.0 mm
01:46 AM 79.0°F26.1°C 73.8°F23.2°C 84% 0.4 mph NW0.6 kmh NW 2.5 mph4.0 kmh 29.86 in1011.2 mb 0.00 in0.0 mm 0.00 in0.0 mm 0.00 in0.0 mm
01:45 AM 79.0°F26.1°C 73.8°F23.2°C 84% 0.4 mph NW0.6 kmh NW 2.5 mph4.0 kmh 29.86 in1011.2 mb 0.00 in0.0 mm 0.00 in0.0 mm 0.00 in0.0 mm
01:44 AM 79.0°F26.1°C 73.8°F23.2°C 84% 1.3 mph N2.1 kmh N 2.5 mph4.0 kmh 29.86 in1011.2 mb 0.00 in0.0 mm 0.00 in0.0 mm 0.00 in0.0 mm
01:43 AM 79.0°F26.1°C 73.8°F23.2°C 84% 2.9 mph N4.7 kmh N 4.9 mph7.9 kmh 29.86 in1011.2 mb 0.00 in0.0 mm 0.00 in0.0 mm 0.00 in0.0 mm
01:42 AM 79.0°F26.1°C 73.8°F23.2°C 84% 2.3 mph N3.7 kmh N 4.9 mph7.9 kmh 29.86 in1011.2 mb 0.00 in0.0 mm 0.00 in0.0 mm 0.00 in0.0 mm
01:41 AM 79.2°F26.2°C 73.9°F23.3°C 84% 1.8 mph N2.9 kmh N 4.9 mph7.9 kmh 29.86 in1011.2 mb 0.00 in0.0 mm 0.00 in0.0 mm 0.00 in0.0 mm
01:40 AM 79.2°F26.2°C 73.9°F23.3°C 84% Calm Calm -- 29.86 in1011.2 mb 0.00 in0.0 mm 0.00 in0.0 mm 0.00 in0.0 mm
01:39 AM 79.2°F26.2°C 73.9°F23.3°C 84% 0.9 mph NW1.4 kmh NW 2.5 mph4.0 kmh 29.86 in1011.2 mb 0.00 in0.0 mm 0.00 in0.0 mm 0.00 in0.0 mm
01:38 AM 79.2°F26.2°C 73.9°F23.3°C 84% 1.7 mph N2.7 kmh N 2.5 mph4.0 kmh 29.86 in1011.2 mb 0.00 in0.0 mm 0.00 in0.0 mm 0.00 in0.0 mm
01:37 AM 79.2°F26.2°C 73.9°F23.3°C 84% 2.8 mph N4.5 kmh N 4.9 mph7.9 kmh 29.86 in1011.2 mb 0.00 in0.0 mm 0.00 in0.0 mm 0.00 in0.0 mm
01:36 AM 79.2°F26.2°C 73.9°F23.3°C 84% 0.9 mph NW1.4 kmh NW 2.5 mph4.0 kmh 29.86 in1011.2 mb 0.00 in0.0 mm 0.00 in0.0 mm 0.00 in0.0 mm
01:35 AM 79.2°F26.2°C 73.8°F23.2°C 84% 1.3 mph NW2.1 kmh NW 2.5 mph4.0 kmh 29.86 in1011.2 mb 0.00 in0.0 mm 0.00 in0.0 mm 0.00 in0.0 mm
01:34 AM 79.2°F26.2°C 73.8°F23.2°C 84% 0.9 mph WNW1.4 kmh WNW 2.5 mph4.0 kmh 29.86 in1011.2 mb 0.00 in0.0 mm 0.00 in0.0 mm 0.00 in0.0 mm
01:33 AM 79.2°F26.2°C 73.6°F23.1°C 83% 0.4 mph NNE0.6 kmh NNE 2.5 mph4.0 kmh 29.86 in1011.2 mb 0.00 in0.0 mm 0.00 in0.0 mm 0.00 in0.0 mm
01:32 AM 79.2°F26.2°C 73.6°F23.1°C 83% 1.7 mph N2.7 kmh N 2.5 mph4.0 kmh 29.86 in1011.2 mb 0.00 in0.0 mm 0.00 in0.0 mm 0.00 in0.0 mm
01:31 AM 79.2°F26.2°C 73.7°F23.2°C 83% 0.9 mph NNE1.4 kmh NNE 2.5 mph4.0 kmh 29.86 in1011.2 mb 0.00 in0.0 mm 0.00 in0.0 mm 0.00 in0.0 mm
01:30 AM 79.2°F26.2°C 73.6°F23.1°C 83% 0.2 mph N0.3 kmh N 2.5 mph4.0 kmh 29.86 in1011.2 mb 0.00 in0.0 mm 0.00 in0.0 mm 0.00 in0.0 mm
01:29 AM 79.2°F26.2°C 73.6°F23.1°C 83% 0.8 mph N1.3 kmh N 2.5 mph4.0 kmh 29.86 in1011.2 mb 0.00 in0.0 mm 0.00 in0.0 mm 0.00 in0.0 mm
01:28 AM 79.2°F26.2°C 73.6°F23.1°C 83% 1.4 mph NNE2.3 kmh NNE 2.5 mph4.0 kmh 29.86 in1011.2 mb 0.00 in0.0 mm 0.00 in0.0 mm 0.00 in0.0 mm
01:27 AM 79.2°F26.2°C 73.6°F23.1°C 83% 3.4 mph NNE5.5 kmh NNE 4.9 mph7.9 kmh 29.86 in1011.2 mb 0.00 in0.0 mm 0.00 in0.0 mm 0.00 in0.0 mm
01:26 AM 79.2°F26.2°C 73.6°F23.1°C 83% 2.7 mph N4.3 kmh N 4.9 mph7.9 kmh 29.86 in1011.2 mb 0.00 in0.0 mm 0.00 in0.0 mm 0.00 in0.0 mm
01:25 AM 79.2°F26.2°C 73.6°F23.1°C 83% 0.3 mph NW0.5 kmh NW 2.5 mph4.0 kmh 29.86 in1011.2 mb 0.00 in0.0 mm 0.00 in0.0 mm 0.00 in0.0 mm
01:24 AM 79.3°F26.3°C 73.7°F23.2°C 83% Calm Calm -- 29.86 in1011.2 mb 0.00 in0.0 mm 0.00 in0.0 mm 0.00 in0.0 mm
01:23 AM 79.3°F26.3°C 73.8°F23.2°C 83% 0.4 mph NNE0.6 kmh NNE 2.5 mph4.0 kmh 29.86 in1011.2 mb 0.00 in0.0 mm 0.00 in0.0 mm 0.00 in0.0 mm
01:22 AM 79.3°F26.3°C 73.8°F23.2°C 83% 1.2 mph NNE1.9 kmh NNE 2.5 mph4.0 kmh 29.86 in1011.2 mb 0.00 in0.0 mm 0.00 in0.0 mm 0.00 in0.0 mm
01:21 AM 79.3°F26.3°C 73.8°F23.2°C 83% 0.6 mph NNE1.0 kmh NNE 2.5 mph4.0 kmh 29.86 in1011.2 mb 0.00 in0.0 mm 0.00 in0.0 mm 0.00 in0.0 mm
01:20 AM 79.3°F26.3°C 73.8°F23.2°C 83% 0.1 mph NNW0.2 kmh NNW 2.5 mph4.0 kmh 29.86 in1011.2 mb 0.00 in0.0 mm 0.00 in0.0 mm 0.00 in0.0 mm
01:19 AM 79.3°F26.3°C 73.8°F23.2°C 83% Calm Calm -- 29.86 in1011.2 mb 0.00 in0.0 mm 0.00 in0.0 mm 0.00 in0.0 mm
01:18 AM 79.3°F26.3°C 73.8°F23.2°C 83% Calm Calm -- 29.86 in1011.2 mb 0.00 in0.0 mm 0.00 in0.0 mm 0.00 in0.0 mm
01:17 AM 79.3°F26.3°C 73.8°F23.2°C 83% 1.9 mph NNE3.1 kmh NNE 4.9 mph7.9 kmh 29.86 in1011.2 mb 0.00 in0.0 mm 0.00 in0.0 mm 0.00 in0.0 mm
01:16 AM 79.3°F26.3°C 73.8°F23.2°C 83% 0.5 mph NE0.8 kmh NE 2.5 mph4.0 kmh 29.86 in1011.2 mb 0.00 in0.0 mm 0.00 in0.0 mm 0.00 in0.0 mm
01:15 AM 79.3°F26.3°C 73.8°F23.2°C 83% 0.9 mph NNE1.4 kmh NNE 2.5 mph4.0 kmh 29.86 in1011.2 mb 0.00 in0.0 mm 0.00 in0.0 mm 0.00 in0.0 mm
01:14 AM 79.3°F26.3°C 73.8°F23.2°C 83% 0.5 mph NNE0.8 kmh NNE 2.5 mph4.0 kmh 29.86 in1011.2 mb 0.00 in0.0 mm 0.00 in0.0 mm 0.00 in0.0 mm
01:13 AM 79.3°F26.3°C 73.8°F23.2°C 83% 1.3 mph N2.1 kmh N 2.5 mph4.0 kmh 29.86 in1011.2 mb 0.00 in0.0 mm 0.00 in0.0 mm 0.00 in0.0 mm
01:12 AM 79.3°F26.3°C 73.8°F23.2°C 83% Calm Calm -- 29.87 in1011.5 mb 0.00 in0.0 mm 0.00 in0.0 mm 0.00 in0.0 mm
01:11 AM 79.3°F26.3°C 73.8°F23.2°C 83% Calm Calm 2.5 mph4.0 kmh 29.86 in1011.2 mb 0.00 in0.0 mm 0.00 in0.0 mm 0.00 in0.0 mm
01:10 AM 79.3°F26.3°C 73.8°F23.2°C 83% Calm Calm -- 29.86 in1011.2 mb 0.00 in0.0 mm 0.00 in0.0 mm 0.00 in0.0 mm
01:09 AM 79.3°F26.3°C 73.8°F23.2°C 83% Calm Calm -- 29.86 in1011.2 mb 0.00 in0.0 mm 0.00 in0.0 mm 0.00 in0.0 mm
01:08 AM 79.3°F26.3°C 73.8°F23.2°C 83% Calm Calm 2.5 mph4.0 kmh 29.86 in1011.2 mb 0.00 in0.0 mm 0.00 in0.0 mm 0.00 in0.0 mm
01:07 AM 79.3°F26.3°C 73.8°F23.2°C 83% 0.7 mph NE1.1 kmh NE 2.5 mph4.0 kmh 29.87 in1011.5 mb 0.00 in0.0 mm 0.00 in0.0 mm 0.00 in0.0 mm
01:06 AM 79.3°F26.3°C 73.8°F23.2°C 83% 1.3 mph NNE2.1 kmh NNE 4.9 mph7.9 kmh 29.86 in1011.2 mb 0.00 in0.0 mm 0.00 in0.0 mm 0.00 in0.0 mm
01:05 AM 79.5°F26.4°C 73.9°F23.3°C 83% Calm Calm -- 29.86 in1011.2 mb 0.00 in0.0 mm 0.00 in0.0 mm 0.00 in0.0 mm
01:04 AM 79.5°F26.4°C 73.9°F23.3°C 83% Calm Calm -- 29.86 in1011.2 mb 0.00 in0.0 mm 0.00 in0.0 mm 0.00 in0.0 mm
01:03 AM 79.5°F26.4°C 73.9°F23.3°C 83% Calm Calm -- 29.86 in1011.2 mb 0.00 in0.0 mm 0.00 in0.0 mm 0.00 in0.0 mm
01:02 AM 79.5°F26.4°C 73.9°F23.3°C 83% 0.4 mph NNE0.6 kmh NNE 2.5 mph4.0 kmh 29.86 in1011.2 mb 0.00 in0.0 mm 0.00 in0.0 mm 0.00 in0.0 mm
01:01 AM 79.5°F26.4°C 73.9°F23.3°C 83% 1.2 mph N1.9 kmh N 2.5 mph4.0 kmh 29.87 in1011.5 mb 0.00 in0.0 mm 0.00 in0.0 mm 0.00 in0.0 mm
01:00 AM 79.5°F26.4°C 73.9°F23.3°C 83% 1.9 mph NNE3.1 kmh NNE 2.5 mph4.0 kmh 29.86 in1011.2 mb 0.00 in0.0 mm 0.00 in0.0 mm 0.00 in0.0 mm
12:59 AM 79.5°F26.4°C 73.9°F23.3°C 83% 0.4 mph N0.6 kmh N 2.5 mph4.0 kmh 29.87 in1011.5 mb 0.00 in0.0 mm 0.00 in0.0 mm 0.00 in0.0 mm
12:58 AM 79.5°F26.4°C 73.9°F23.3°C 83% Calm Calm -- 29.86 in1011.2 mb 0.00 in0.0 mm 0.00 in0.0 mm 0.00 in0.0 mm
12:57 AM 79.5°F26.4°C 73.9°F23.3°C 83% Calm Calm -- 29.86 in1011.2 mb 0.00 in0.0 mm 0.00 in0.0 mm 0.00 in0.0 mm
12:56 AM 79.5°F26.4°C 73.8°F23.2°C 83% Calm Calm -- 29.87 in1011.5 mb 0.00 in0.0 mm 0.00 in0.0 mm 0.00 in0.0 mm
12:55 AM 79.5°F26.4°C 73.7°F23.2°C 82% Calm Calm -- 29.87 in1011.5 mb 0.00 in0.0 mm 0.00 in0.0 mm 0.00 in0.0 mm
12:54 AM 79.5°F26.4°C 73.9°F23.3°C 83% Calm Calm -- 29.87 in1011.5 mb 0.00 in0.0 mm 0.00 in0.0 mm 0.00 in0.0 mm
12:53 AM 79.5°F26.4°C 73.8°F23.2°C 83% Calm Calm -- 29.87 in1011.5 mb 0.00 in0.0 mm 0.00 in0.0 mm 0.00 in0.0 mm
12:52 AM 79.5°F26.4°C 73.8°F23.2°C 83% 0.4 mph NE0.6 kmh NE 2.5 mph4.0 kmh 29.87 in1011.5 mb 0.00 in0.0 mm 0.00 in0.0 mm 0.00 in0.0 mm
12:51 AM 79.5°F26.4°C 73.8°F23.2°C 83% Calm Calm -- 29.87 in1011.5 mb 0.00 in0.0 mm 0.00 in0.0 mm 0.00 in0.0 mm
12:50 AM 79.5°F26.4°C 73.8°F23.2°C 83% Calm Calm -- 29.87 in1011.5 mb 0.00 in0.0 mm 0.00 in0.0 mm 0.00 in0.0 mm
12:49 AM 79.5°F26.4°C 73.6°F23.1°C 82% Calm Calm -- 29.87 in1011.5 mb 0.00 in0.0 mm 0.00 in0.0 mm 0.00 in0.0 mm
12:48 AM 79.5°F26.4°C 73.7°F23.2°C 82% Calm Calm -- 29.87 in1011.5 mb 0.00 in0.0 mm 0.00 in0.0 mm 0.00 in0.0 mm
12:47 AM 79.5°F26.4°C 73.6°F23.1°C 82% 0.4 mph NE0.6 kmh NE 2.5 mph4.0 kmh 29.87 in1011.5 mb 0.00 in0.0 mm 0.00 in0.0 mm 0.00 in0.0 mm
12:46 AM 79.5°F26.4°C 73.6°F23.1°C 82% 1.6 mph NNE2.6 kmh NNE 2.5 mph4.0 kmh 29.87 in1011.5 mb 0.00 in0.0 mm 0.00 in0.0 mm 0.00 in0.0 mm
12:45 AM 79.5°F26.4°C 73.6°F23.1°C 82% Calm Calm -- 29.87 in1011.5 mb 0.00 in0.0 mm 0.00 in0.0 mm 0.00 in0.0 mm
12:44 AM 79.7°F26.5°C 73.8°F23.2°C 82% Calm Calm -- 29.87 in1011.5 mb 0.00 in0.0 mm 0.00 in0.0 mm 0.00 in0.0 mm
12:43 AM 79.7°F26.5°C 73.8°F23.2°C 82% Calm Calm -- 29.87 in1011.5 mb 0.00 in0.0 mm 0.00 in0.0 mm 0.00 in0.0 mm
12:42 AM 79.7°F26.5°C 73.8°F23.2°C 82% Calm Calm -- 29.87 in1011.5 mb 0.00 in0.0 mm 0.00 in0.0 mm 0.00 in0.0 mm
12:41 AM 79.7°F26.5°C 73.8°F23.2°C 82% Calm Calm 2.5 mph4.0 kmh 29.87 in1011.5 mb 0.00 in0.0 mm 0.00 in0.0 mm 0.00 in0.0 mm
12:40 AM 79.7°F26.5°C 73.8°F23.2°C 82% Calm Calm -- 29.87 in1011.5 mb 0.00 in0.0 mm 0.00 in0.0 mm 0.00 in0.0 mm
12:39 AM 79.7°F26.5°C 73.8°F23.2°C 82% Calm Calm -- 29.87 in1011.5 mb 0.00 in0.0 mm 0.00 in0.0 mm 0.00 in0.0 mm
12:38 AM 79.7°F26.5°C 73.8°F23.2°C 82% Calm Calm -- 29.87 in1011.5 mb 0.00 in0.0 mm 0.00 in0.0 mm 0.00 in0.0 mm
12:37 AM 79.7°F26.5°C 73.8°F23.2°C 82% Calm Calm -- 29.87 in1011.5 mb 0.00 in0.0 mm 0.00 in0.0 mm 0.00 in0.0 mm
12:36 AM 79.7°F26.5°C 73.8°F23.2°C 82% 1.3 mph N2.1 kmh N 2.5 mph4.0 kmh 29.87 in1011.5 mb 0.00 in0.0 mm 0.00 in0.0 mm 0.00 in0.0 mm
12:35 AM 79.7°F26.5°C 73.8°F23.2°C 82% 2.0 mph NE3.2 kmh NE 4.9 mph7.9 kmh 29.87 in1011.5 mb 0.00 in0.0 mm 0.00 in0.0 mm 0.00 in0.0 mm
12:34 AM 79.7°F26.5°C 73.8°F23.2°C 82% 0.5 mph WSW0.8 kmh WSW 2.5 mph4.0 kmh 29.87 in1011.5 mb 0.00 in0.0 mm 0.00 in0.0 mm 0.00 in0.0 mm
12:33 AM 79.7°F26.5°C 73.8°F23.2°C 82% 1.7 mph NNW2.7 kmh NNW 4.9 mph7.9 kmh 29.87 in1011.5 mb 0.00 in0.0 mm 0.00 in0.0 mm 0.00 in0.0 mm
12:32 AM 79.7°F26.5°C 73.8°F23.2°C 82% Calm Calm 2.5 mph4.0 kmh 29.87 in1011.5 mb 0.00 in0.0 mm 0.00 in0.0 mm 0.00 in0.0 mm
12:31 AM 79.7°F26.5°C 73.8°F23.2°C 82% 2.3 mph N3.7 kmh N 4.9 mph7.9 kmh 29.87 in1011.5 mb 0.00 in0.0 mm 0.00 in0.0 mm 0.00 in0.0 mm
12:30 AM 79.7°F26.5°C 73.8°F23.2°C 82% 2.0 mph N3.2 kmh N 4.9 mph7.9 kmh 29.87 in1011.5 mb 0.00 in0.0 mm 0.00 in0.0 mm 0.00 in0.0 mm
12:29 AM 79.7°F26.5°C 73.8°F23.2°C 82% Calm Calm -- 29.87 in1011.5 mb 0.00 in0.0 mm 0.00 in0.0 mm 0.00 in0.0 mm
12:28 AM 79.7°F26.5°C 73.8°F23.2°C 82% Calm Calm 2.5 mph4.0 kmh 29.87 in1011.5 mb 0.00 in0.0 mm 0.00 in0.0 mm 0.00 in0.0 mm
12:27 AM 79.7°F26.5°C 73.8°F23.2°C 82% Calm Calm 2.5 mph4.0 kmh 29.87 in1011.5 mb 0.00 in0.0 mm 0.00 in0.0 mm 0.00 in0.0 mm
12:26 AM 79.9°F26.6°C 73.9°F23.3°C 82% 2.3 mph NNE3.7 kmh NNE 4.9 mph7.9 kmh 29.87 in1011.5 mb 0.00 in0.0 mm 0.00 in0.0 mm 0.00 in0.0 mm
12:25 AM 79.9°F26.6°C 73.9°F23.3°C 82% 2.6 mph NE4.2 kmh NE 4.9 mph7.9 kmh 29.87 in1011.5 mb 0.00 in0.0 mm 0.00 in0.0 mm 0.00 in0.0 mm
12:24 AM 79.9°F26.6°C 73.9°F23.3°C 82% 1.2 mph N1.9 kmh N 4.9 mph7.9 kmh 29.87 in1011.5 mb 0.00 in0.0 mm 0.00 in0.0 mm 0.00 in0.0 mm
12:23 AM 79.9°F26.6°C 73.9°F23.3°C 82% 1.1 mph NNE1.8 kmh NNE 2.5 mph4.0 kmh 29.87 in1011.5 mb 0.00 in0.0 mm 0.00 in0.0 mm 0.00 in0.0 mm
12:22 AM 79.9°F26.6°C 73.9°F23.3°C 82% 3.2 mph NE5.1 kmh NE 4.9 mph7.9 kmh 29.87 in1011.5 mb 0.00 in0.0 mm 0.00 in0.0 mm 0.00 in0.0 mm
12:21 AM 79.9°F26.6°C 73.9°F23.3°C 82% 2.0 mph NE3.2 kmh NE 4.9 mph7.9 kmh 29.87 in1011.5 mb 0.00 in0.0 mm 0.00 in0.0 mm 0.00 in0.0 mm
12:20 AM 79.9°F26.6°C 73.9°F23.3°C 82% 1.7 mph NNE2.7 kmh NNE 4.9 mph7.9 kmh 29.87 in1011.5 mb 0.00 in0.0 mm 0.00 in0.0 mm 0.00 in0.0 mm
12:19 AM 79.9°F26.6°C 73.9°F23.3°C 82% 3.4 mph NNE5.5 kmh NNE 7.6 mph12.2 kmh 29.87 in1011.5 mb 0.00 in0.0 mm 0.00 in0.0 mm 0.00 in0.0 mm
12:18 AM 79.9°F26.6°C 73.9°F23.3°C 82% 1.4 mph NE2.3 kmh NE 2.5 mph4.0 kmh 29.87 in1011.5 mb 0.00 in0.0 mm 0.00 in0.0 mm 0.00 in0.0 mm
12:17 AM 79.9°F26.6°C 73.9°F23.3°C 82% 0.4 mph NE0.6 kmh NE 2.5 mph4.0 kmh 29.87 in1011.5 mb 0.00 in0.0 mm 0.00 in0.0 mm 0.00 in0.0 mm
12:16 AM 79.9°F26.6°C 73.9°F23.3°C 82% 0.3 mph ENE0.5 kmh ENE 2.5 mph4.0 kmh 29.87 in1011.5 mb 0.00 in0.0 mm 0.00 in0.0 mm 0.00 in0.0 mm
12:15 AM 79.9°F26.6°C 73.8°F23.2°C 82% 0.5 mph NE0.8 kmh NE 2.5 mph4.0 kmh 29.87 in1011.5 mb 0.00 in0.0 mm 0.00 in0.0 mm 0.00 in0.0 mm
12:14 AM 80.0°F26.7°C 73.8°F23.2°C 81% 1.3 mph NE2.1 kmh NE 2.5 mph4.0 kmh 29.87 in1011.5 mb 0.00 in0.0 mm 0.00 in0.0 mm 0.00 in0.0 mm
12:13 AM 80.1°F26.7°C 73.9°F23.3°C 81% 2.4 mph NE3.9 kmh NE 7.6 mph12.2 kmh 29.87 in1011.5 mb 0.00 in0.0 mm 0.00 in0.0 mm 0.00 in0.0 mm
12:12 AM 80.1°F26.7°C 73.8°F23.2°C 81% 4.1 mph NE6.6 kmh NE 7.6 mph12.2 kmh 29.87 in1011.5 mb 0.00 in0.0 mm 0.00 in0.0 mm 0.00 in0.0 mm
12:11 AM 80.1°F26.7°C 73.9°F23.3°C 81% 0.1 mph NE0.2 kmh NE 2.5 mph4.0 kmh 29.87 in1011.5 mb 0.00 in0.0 mm 0.00 in0.0 mm 0.00 in0.0 mm
12:10 AM 80.1°F26.7°C 73.8°F23.2°C 81% 2.5 mph NNE4.0 kmh NNE 4.9 mph7.9 kmh 29.87 in1011.5 mb 0.00 in0.0 mm 0.00 in0.0 mm 0.00 in0.0 mm
12:09 AM 80.1°F26.7°C 73.8°F23.2°C 81% 3.7 mph NE6.0 kmh NE 7.6 mph12.2 kmh 29.87 in1011.5 mb 0.00 in0.0 mm 0.00 in0.0 mm 0.00 in0.0 mm
12:08 AM 80.1°F26.7°C 73.8°F23.2°C 81% 3.1 mph NNE5.0 kmh NNE 4.9 mph7.9 kmh 29.87 in1011.5 mb 0.00 in0.0 mm 0.00 in0.0 mm 0.00 in0.0 mm
12:07 AM 80.1°F26.7°C 73.8°F23.2°C 81% 1.6 mph NE2.6 kmh NE 4.9 mph7.9 kmh 29.87 in1011.5 mb 0.00 in0.0 mm 0.00 in0.0 mm 0.00 in0.0 mm
12:06 AM 80.1°F26.7°C 73.8°F23.2°C 81% 1.7 mph N2.7 kmh N 4.9 mph7.9 kmh 29.87 in1011.5 mb 0.00 in0.0 mm 0.00 in0.0 mm 0.00 in0.0 mm
12:05 AM 80.1°F26.7°C 73.8°F23.2°C 81% 1.9 mph NNE3.1 kmh NNE 4.9 mph7.9 kmh 29.87 in1011.5 mb 0.00 in0.0 mm 0.00 in0.0 mm 0.00 in0.0 mm
12:04 AM 80.1°F26.7°C 73.8°F23.2°C 81% 0.2 mph E0.3 kmh E 2.5 mph4.0 kmh 29.87 in1011.5 mb 0.00 in0.0 mm 0.00 in0.0 mm 0.00 in0.0 mm
12:03 AM 80.1°F26.7°C 73.8°F23.2°C 81% 0.8 mph NNE1.3 kmh NNE 2.5 mph4.0 kmh 29.87 in1011.5 mb 0.00 in0.0 mm 0.00 in0.0 mm 0.00 in0.0 mm
12:02 AM 80.1°F26.7°C 73.8°F23.2°C 81% 1.5 mph NE2.4 kmh NE 2.5 mph4.0 kmh 29.87 in1011.5 mb 0.00 in0.0 mm 0.00 in0.0 mm 0.00 in0.0 mm
12:01 AM 80.1°F26.7°C 73.8°F23.2°C 81% Calm Calm 2.5 mph4.0 kmh 29.87 in1011.5 mb 0.00 in0.0 mm 0.00 in0.0 mm 0.00 in0.0 mm
12:00 AM 80.1°F26.7°C 73.8°F23.2°C 81% 0.4 mph NE0.6 kmh NE 2.5 mph4.0 kmh 29.87 in1011.5 mb 0.00 in0.0 mm 0.00 in0.0 mm 0.00 in0.0 mm